Darstellungsparameter: Aktuell verwendete Einstellungen:
Skalierung der Graphiken ... ?
xyx+y,   Skalierungsfaktor:      Skalierung: Modus: x, Faktor: 1
Darstellungszeitraum ... ?
Vom - - bis: - -   Zeitraum: 20.10.2010 - 19.01.2011
Min/Max/Avg-Anzeige ... ?
Zeige MMA aktuell
Zeige MMA Monat
Zeige MMA alles
Zeige --A aktuell
Zeige --A Monat
Zeige --A alles
Keine MMA-Anzeige
MMA:
Average (ber die Originaldaten)
MMA-Basis: 20.10.2010 - 19.01.2011
Quicknavigation für Darstellung... ?
Tage:      1T, 2T, 3T, 5T -1T -2T -3T -5T +1T +2T +3T +5T
Wochen: 1W, 2W, 3W -1W -2W -3W +1W +2W +3W
Monate: 1M, 3M, 6M -1M -3M -6M +1M +3M +6M
Jahre:    1J, 3J, 5J, 10J -1J -3J -5J -10J +1J +3J +5J +10J
Nutze für die Darstellung ... ?
Originaldaten oder Mittelwerte auf ...
Stundenbasis Tagesbasis Wochenbasis
Monatsbasis Jahresbasis      Datenbasis: Original-Daten
Darstellen als:
Statistik (Auto) Statistik J:M      Darstellung:
Zur Graphik,    zurück zur Übersicht aller Sensoren.
 
Tabellarische Datenbersicht: ?
 
Sensor: Nr:Datum:Temp:Abs-Feuchte:Windchill:Wind:
Aussen-T/F 1 20-10-2010 00:08:04 6.3 C 6.14 g/m*3 6.3 C 0 km/h
2 20-10-2010 00:20:04 6.4 C 6.18 g/m*3 6.4 C 0 km/h
3 20-10-2010 00:32:04 6.2 C 6.1 g/m*3 6.2 C 0 km/h
4 20-10-2010 00:44:04 6.4 C 6.18 g/m*3 6.4 C 0 km/h
5 20-10-2010 00:56:04 6.4 C 6.18 g/m*3 6.4 C 0 km/h
6 20-10-2010 01:08:04 6.4 C 6.18 g/m*3 6.4 C 0 km/h
7 20-10-2010 01:20:04 6.5 C 6.15 g/m*3 6.5 C 0 km/h
8 20-10-2010 01:32:04 6.4 C 6.11 g/m*3 6.4 C 0 km/h
9 20-10-2010 01:44:04 6.4 C 6.18 g/m*3 6.4 C 0 km/h
10 20-10-2010 01:56:04 6.2 C 6.18 g/m*3 6.2 C 0 km/h
11 20-10-2010 02:08:04 6.1 C 6.28 g/m*3 6.1 C 0 km/h
12 20-10-2010 02:20:04 6 C 6.31 g/m*3 6 C 0 km/h
13 20-10-2010 02:32:04 5.9 C 6.42 g/m*3 5.9 C 0 km/h
14 20-10-2010 02:44:04 5.9 C 6.49 g/m*3 5.9 C 0 km/h
15 20-10-2010 02:56:04 5.8 C 6.45 g/m*3 5.8 C 0 km/h
16 20-10-2010 03:08:04 5.8 C 6.52 g/m*3 5.8 C 0 km/h
17 20-10-2010 03:20:04 5.7 C 6.48 g/m*3 5.7 C 0 km/h
18 20-10-2010 03:32:04 5.7 C 6.48 g/m*3 5.7 C 0 km/h
19 20-10-2010 03:44:05 5.8 C 6.59 g/m*3 5.8 C 0 km/h
20 20-10-2010 03:56:05 5.8 C 6.59 g/m*3 5.8 C 0 km/h
21 20-10-2010 04:08:05 5.8 C 6.52 g/m*3 5.8 C 0 km/h
22 20-10-2010 04:20:05 5.8 C 6.52 g/m*3 5.8 C 0 km/h
23 20-10-2010 04:32:05 5.9 C 6.56 g/m*3 5.9 C 0 km/h
24 20-10-2010 04:44:05 5.9 C 6.49 g/m*3 5.9 C 0 km/h
25 20-10-2010 04:56:05 5.8 C 6.45 g/m*3 5.8 C 0 km/h
Sensor: Nr:Datum:Temp:Abs-Feuchte:Windchill:Wind:
Aussen-T/F 26 20-10-2010 05:08:05 5.7 C 6.48 g/m*3 5.7 C 0 km/h
27 20-10-2010 05:20:05 5.7 C 6.55 g/m*3 5.7 C 0 km/h
28 20-10-2010 05:32:05 5.6 C 6.57 g/m*3 5.6 C 0 km/h
29 20-10-2010 05:44:05 5.6 C 6.57 g/m*3 5.6 C 0 km/h
30 20-10-2010 05:56:05 5.5 C 6.6 g/m*3 5.5 C 0 km/h
31 20-10-2010 06:08:05 5.5 C 6.6 g/m*3 5.5 C 0 km/h
32 20-10-2010 06:20:05 5.5 C 6.6 g/m*3 5.5 C 0 km/h
33 20-10-2010 06:32:05 5.5 C 6.6 g/m*3 5.5 C 0 km/h
34 20-10-2010 06:44:05 5.5 C 6.6 g/m*3 5.5 C 0 km/h
35 20-10-2010 06:56:05 5.6 C 6.65 g/m*3 5.6 C 0 km/h
36 20-10-2010 07:08:05 5.5 C 6.67 g/m*3 5.5 C 0 km/h
37 20-10-2010 07:20:05 5.5 C 6.67 g/m*3 5.5 C 0 km/h
38 20-10-2010 07:32:05 5.5 C 6.67 g/m*3 5.5 C 0 km/h
39 20-10-2010 07:44:05 5.5 C 6.6 g/m*3 5.5 C 0 km/h
40 20-10-2010 07:56:06 5.5 C 6.6 g/m*3 5.5 C 0 km/h
41 20-10-2010 08:08:03 5.5 C 6.6 g/m*3 5.5 C 0 km/h
42 20-10-2010 08:20:04 5.5 C 6.6 g/m*3 5.5 C 0 km/h
43 20-10-2010 08:32:03 5.6 C 6.65 g/m*3 5.6 C 0 km/h
44 20-10-2010 08:44:03 5.6 C 6.65 g/m*3 5.6 C 0 km/h
45 20-10-2010 08:56:02 5.8 C 6.81 g/m*3 5.8 C 0 km/h
46 20-10-2010 09:08:02 5.8 C 6.81 g/m*3 5.8 C 0 km/h
47 20-10-2010 09:20:02 5.8 C 6.73 g/m*3 5.8 C 0 km/h
48 20-10-2010 09:32:02 5.9 C 6.78 g/m*3 5.9 C 0 km/h
49 20-10-2010 09:44:02 6.1 C 6.87 g/m*3 6.1 C 0 km/h
50 20-10-2010 09:56:02 6.4 C 7 g/m*3 6.4 C 0 km/h
Sensor: Nr:Datum:Temp:Abs-Feuchte:Windchill:Wind:
Aussen-T/F 51 20-10-2010 10:08:01 6.8 C 7.11 g/m*3 6.8 C 0 km/h
52 20-10-2010 10:20:02 6.8 C 7.04 g/m*3 6.8 C 0 km/h
53 20-10-2010 10:32:02 7 C 6.97 g/m*3 7 C 0 km/h
54 20-10-2010 10:44:02 7.1 C 6.94 g/m*3 7.1 C 0 km/h
55 20-10-2010 10:56:01 6.9 C 6.7 g/m*3 6.9 C 0 km/h
56 20-10-2010 11:08:02 6.9 C 6.54 g/m*3 6.9 C 0 km/h
57 20-10-2010 11:20:01 6.9 C 6.54 g/m*3 6.9 C 0 km/h
58 20-10-2010 11:32:02 6.9 C 6.54 g/m*3 6.9 C 0 km/h
59 20-10-2010 11:44:02 6.8 C 6.35 g/m*3 6.8 C 0 km/h
60 20-10-2010 11:56:02 6.7 C 6.23 g/m*3 6.7 C 0 km/h
61 20-10-2010 12:08:02 6.7 C 6.23 g/m*3 6.7 C 0 km/h
62 20-10-2010 12:20:01 7 C 6.43 g/m*3 7 C 0 km/h
63 20-10-2010 12:32:02 6.9 C 6.47 g/m*3 6.9 C 0 km/h
64 20-10-2010 12:44:02 6.9 C 6.39 g/m*3 6.9 C 0 km/h
65 20-10-2010 12:56:02 7.1 C 6.4 g/m*3 7.1 C 0 km/h
66 20-10-2010 13:08:02 7.4 C 6.44 g/m*3 7.4 C 0 km/h
67 20-10-2010 13:20:01 7.6 C 6.36 g/m*3 7.6 C 0 km/h
68 20-10-2010 13:32:02 7.9 C 6.32 g/m*3 7.9 C 0 km/h
69 20-10-2010 13:44:02 8.4 C 6.02 g/m*3 8.4 C 0 km/h
70 20-10-2010 13:56:02 8.3 C 5.82 g/m*3 8.3 C 0 km/h
71 20-10-2010 14:08:02 8.4 C 5.77 g/m*3 8.4 C 0 km/h
72 20-10-2010 14:20:02 9.2 C 5.98 g/m*3 9.2 C 0 km/h
73 20-10-2010 14:32:02 9.5 C 5.73 g/m*3 9.5 C 0 km/h
74 20-10-2010 14:44:02 10.2 C 5.71 g/m*3 10.2 C 0 km/h
75 20-10-2010 14:56:02 10.1 C 5.11 g/m*3 10.1 C 0 km/h
Sensor: Nr:Datum:Temp:Abs-Feuchte:Windchill:Wind:
Aussen-T/F 76 20-10-2010 15:08:02 7.8 C 5.22 g/m*3 7.8 C 0 km/h
77 20-10-2010 15:20:02 7.2 C 5.65 g/m*3 7.2 C 0 km/h
78 20-10-2010 15:32:02 7.6 C 5.72 g/m*3 7.6 C 0 km/h
79 20-10-2010 15:44:02 7.8 C 5.63 g/m*3 7.8 C 0 km/h
80 20-10-2010 15:56:02 8 C 5.54 g/m*3 8 C 0 km/h
81 20-10-2010 16:08:01 8.2 C 5.28 g/m*3 8.2 C 0 km/h
82 20-10-2010 16:20:02 7.6 C 5.16 g/m*3 7.6 C 0 km/h
83 20-10-2010 16:32:02 7 C 4.88 g/m*3 7 C 0 km/h
84 20-10-2010 16:44:02 6.9 C 4.93 g/m*3 6.9 C 0 km/h
85 20-10-2010 16:56:02 7.1 C 5.07 g/m*3 7.1 C 0 km/h
86 20-10-2010 17:08:01 7.3 C 4.9 g/m*3 7.3 C 0 km/h
87 20-10-2010 17:20:01 7.3 C 4.66 g/m*3 7.3 C 0 km/h
88 20-10-2010 17:32:02 6.9 C 4.93 g/m*3 6.9 C 0 km/h
89 20-10-2010 17:44:02 6.9 C 5.08 g/m*3 6.9 C 0 km/h
90 20-10-2010 17:56:02 6.7 C 5.01 g/m*3 6.7 C 0 km/h
91 20-10-2010 18:08:02 6.4 C 4.99 g/m*3 6.4 C 0 km/h
92 20-10-2010 18:20:02 6.2 C 5 g/m*3 6.2 C 0 km/h
93 20-10-2010 18:32:02 6.3 C 5.11 g/m*3 6.3 C 0 km/h
94 20-10-2010 18:44:02 6.3 C 5.03 g/m*3 6.3 C 0 km/h
95 20-10-2010 18:56:02 6.4 C 5.07 g/m*3 6.4 C 0 km/h
96 20-10-2010 19:08:02 5.5 C 4.99 g/m*3 5.5 C 0 km/h
97 20-10-2010 19:20:02 4.7 C 5.13 g/m*3 4.7 C 0 km/h
98 20-10-2010 19:32:02 4.5 C 5.32 g/m*3 4.5 C 0 km/h
99 20-10-2010 19:44:02 4.2 C 5.35 g/m*3 4.2 C 0 km/h
100 20-10-2010 19:56:01 4.3 C 5.38 g/m*3 4.3 C 0 km/h
Sensor: Nr:Datum:Temp:Abs-Feuchte:Windchill:Wind:
Aussen-T/F 101 20-10-2010 20:08:01 4.5 C 5.39 g/m*3 4.5 C 0 km/h
102 20-10-2010 20:20:02 4.5 C 5.32 g/m*3 4.5 C 0 km/h
103 20-10-2010 20:32:01 4.5 C 5.26 g/m*3 4.5 C 0 km/h
104 20-10-2010 20:44:01 4.7 C 5.2 g/m*3 4.7 C 0 km/h
105 20-10-2010 20:56:01 4.5 C 5.06 g/m*3 4.5 C 0 km/h
106 20-10-2010 21:08:01 4.5 C 5.13 g/m*3 4.5 C 0 km/h
107 20-10-2010 21:20:02 4.5 C 5.13 g/m*3 4.5 C 0 km/h
108 20-10-2010 21:32:01 4.5 C 5.13 g/m*3 4.5 C 0 km/h
109 20-10-2010 21:44:01 4.5 C 5.13 g/m*3 4.5 C 0 km/h
110 20-10-2010 21:56:03 4.3 C 5.06 g/m*3 4.3 C 0 km/h
111 20-10-2010 22:08:02 4.2 C 5.09 g/m*3 4.2 C 0 km/h
112 20-10-2010 22:20:02 4.4 C 5.09 g/m*3 4.4 C 0 km/h
113 20-10-2010 22:32:02 4.6 C 5.16 g/m*3 4.6 C 0 km/h
114 20-10-2010 22:44:02 4.6 C 5.03 g/m*3 4.6 C 0 km/h
115 20-10-2010 22:57:04 4.6 C 4.96 g/m*3 4.6 C 0 km/h
116 20-10-2010 23:09:04 4.5 C 5 g/m*3 4.5 C 0 km/h
117 20-10-2010 23:21:04 4.2 C 5.03 g/m*3 4.2 C 0 km/h
118 20-10-2010 23:33:04 4.3 C 5.06 g/m*3 4.3 C 0 km/h
119 20-10-2010 23:45:04 4.2 C 5.03 g/m*3 4.2 C 0 km/h
120 20-10-2010 23:57:04 4.4 C 5.16 g/m*3 4.4 C 0 km/h
121 21-10-2010 00:09:04 4.5 C 5.13 g/m*3 4.5 C 0 km/h
122 21-10-2010 00:21:04 4.5 C 5.06 g/m*3 4.5 C 0 km/h
123 21-10-2010 00:33:04 4.6 C 5.1 g/m*3 4.6 C 0 km/h
124 21-10-2010 00:45:04 4.7 C 5.13 g/m*3 4.7 C 0 km/h
125 21-10-2010 00:57:04 4.7 C 5.13 g/m*3 4.7 C 0 km/h
Sensor: Nr:Datum:Temp:Abs-Feuchte:Windchill:Wind:
Aussen-T/F 126 21-10-2010 01:09:04 4.6 C 5.1 g/m*3 4.6 C 0 km/h
127 21-10-2010 01:21:04 4.5 C 5.06 g/m*3 4.5 C 0 km/h
128 21-10-2010 01:33:04 4.3 C 4.99 g/m*3 4.3 C 0 km/h
129 21-10-2010 01:45:04 4.5 C 5.06 g/m*3 4.5 C 0 km/h
130 21-10-2010 01:57:04 4.3 C 4.99 g/m*3 4.3 C 0 km/h
131 21-10-2010 02:09:04 4.1 C 4.93 g/m*3 4.1 C 0 km/h
132 21-10-2010 02:21:04 3.8 C 4.96 g/m*3 3.8 C 0 km/h
133 21-10-2010 02:33:05 3.7 C 4.99 g/m*3 3.7 C 0 km/h
134 21-10-2010 02:45:05 3.6 C 5.01 g/m*3 3.6 C 0 km/h
135 21-10-2010 02:57:05 3.5 C 4.98 g/m*3 3.5 C 0 km/h
136 21-10-2010 03:09:05 3.5 C 4.98 g/m*3 3.5 C 0 km/h
137 21-10-2010 03:21:05 3.4 C 5.01 g/m*3 3.4 C 0 km/h
138 21-10-2010 03:33:05 3.4 C 5.01 g/m*3 3.4 C 0 km/h
139 21-10-2010 03:45:05 3.3 C 4.97 g/m*3 3.3 C 0 km/h
140 21-10-2010 03:57:05 3 C 4.93 g/m*3 3 C 0 km/h
141 21-10-2010 04:09:05 3 C 4.93 g/m*3 3 C 0 km/h
142 21-10-2010 04:21:05 3 C 4.99 g/m*3 3 C 0 km/h
143 21-10-2010 04:33:05 2.5 C 4.83 g/m*3 2.5 C 0 km/h
144 21-10-2010 04:45:05 2.3 C 4.82 g/m*3 2.3 C 0 km/h
145 21-10-2010 04:57:05 2.4 C 4.91 g/m*3 2.4 C 0 km/h
146 21-10-2010 05:09:05 2.4 C 4.97 g/m*3 2.4 C 0 km/h
147 21-10-2010 05:21:05 2.1 C 4.87 g/m*3 2.1 C 0 km/h
148 21-10-2010 05:33:05 1.8 C 4.77 g/m*3 1.8 C 0 km/h
149 21-10-2010 05:45:05 1.6 C 4.7 g/m*3 1.6 C 0 km/h
150 21-10-2010 05:57:05 1.7 C 4.79 g/m*3 1.7 C 0 km/h
Sensor: Nr:Datum:Temp:Abs-Feuchte:Windchill:Wind:
Aussen-T/F 151 21-10-2010 06:09:05 1.5 C 4.73 g/m*3 1.5 C 0 km/h
152 21-10-2010 06:21:05 1.6 C 4.81 g/m*3 1.6 C 0 km/h
153 21-10-2010 06:33:06 1.8 C 4.93 g/m*3 1.8 C 0 km/h
154 21-10-2010 06:45:06 1.8 C 4.99 g/m*3 1.8 C 0 km/h
155 21-10-2010 06:57:06 1.8 C 5.04 g/m*3 1.8 C 0 km/h
156 21-10-2010 07:09:06 1.7 C 5.01 g/m*3 1.7 C 0 km/h
157 21-10-2010 07:21:06 1.8 C 5.04 g/m*3 1.8 C 0 km/h
158 21-10-2010 07:33:06 1.6 C 4.97 g/m*3 1.6 C 0 km/h
159 21-10-2010 07:45:06 1.6 C 4.97 g/m*3 1.6 C 0 km/h
160 21-10-2010 07:57:06 1.6 C 4.97 g/m*3 1.6 C 0 km/h
161 21-10-2010 08:09:06 1.7 C 5.01 g/m*3 1.7 C 0 km/h
162 21-10-2010 08:21:03 1.8 C 5.04 g/m*3 1.8 C 0 km/h
163 21-10-2010 08:33:04 1.9 C 5.08 g/m*3 1.9 C 0 km/h
164 21-10-2010 08:45:02 2.5 C 5.29 g/m*3 2.5 C 0 km/h
165 21-10-2010 08:57:03 2.6 C 5.27 g/m*3 2.6 C 0 km/h
166 21-10-2010 09:09:02 2.6 C 5.27 g/m*3 2.6 C 0 km/h
167 21-10-2010 09:21:02 2.8 C 5.28 g/m*3 2.8 C 0 km/h
168 21-10-2010 09:33:02 3 C 5.23 g/m*3 3 C 0 km/h
169 21-10-2010 09:45:01 3.2 C 5.24 g/m*3 3.2 C 0 km/h
170 21-10-2010 09:57:01 3.4 C 5.19 g/m*3 3.4 C 0 km/h
171 21-10-2010 10:09:02 3.7 C 5.17 g/m*3 3.7 C 0 km/h
172 21-10-2010 10:21:01 3.9 C 5.05 g/m*3 3.9 C 0 km/h
173 21-10-2010 10:33:02 4.1 C 4.99 g/m*3 4.1 C 0 km/h
174 21-10-2010 10:45:02 4.3 C 4.99 g/m*3 4.3 C 0 km/h
175 21-10-2010 10:57:02 4.8 C 5.1 g/m*3 4.8 C 0 km/h
Sensor: Nr:Datum:Temp:Abs-Feuchte:Windchill:Wind:
Aussen-T/F 176 21-10-2010 11:09:02 5.1 C 4.99 g/m*3 5.1 C 0 km/h
177 21-10-2010 11:21:01 5.4 C 5.09 g/m*3 5.4 C 0 km/h
178 21-10-2010 11:33:02 5.7 C 4.98 g/m*3 5.7 C 0 km/h
179 21-10-2010 11:45:02 5.9 C 4.98 g/m*3 5.9 C 0 km/h
180 21-10-2010 11:57:02 6.1 C 4.89 g/m*3 6.1 C 0 km/h
181 21-10-2010 12:09:02 6.4 C 4.84 g/m*3 6.4 C 0 km/h
182 21-10-2010 12:21:01 6.7 C 4.71 g/m*3 6.7 C 0 km/h
183 21-10-2010 12:33:02 7 C 4.57 g/m*3 7 C 0 km/h
184 21-10-2010 12:45:02 7.2 C 4.47 g/m*3 7.2 C 0 km/h
185 21-10-2010 12:57:02 7.6 C 4.51 g/m*3 7.6 C 0 km/h
186 21-10-2010 13:09:02 7.9 C 4.44 g/m*3 7.9 C 0 km/h
187 21-10-2010 13:21:02 8.3 C 4.3 g/m*3 8.3 C 0 km/h
188 21-10-2010 13:33:02 8.7 C 4.06 g/m*3 8.7 C 0 km/h
189 21-10-2010 13:45:02 9.1 C 3.99 g/m*3 9.1 C 0 km/h
190 21-10-2010 13:57:02 9.5 C 3.82 g/m*3 9.5 C 0 km/h
191 21-10-2010 14:09:02 9.9 C 3.92 g/m*3 9.9 C 0 km/h
192 21-10-2010 14:21:02 10.1 C 3.78 g/m*3 10.1 C 0 km/h
193 21-10-2010 14:33:01 10.5 C 3.88 g/m*3 10.5 C 0 km/h
194 21-10-2010 14:45:02 10.6 C 3.9 g/m*3 10.6 C 0 km/h
195 21-10-2010 14:57:02 10.8 C 3.85 g/m*3 10.8 C 0 km/h
196 21-10-2010 15:09:01 10.7 C 3.63 g/m*3 10.7 C 0 km/h
197 21-10-2010 15:21:02 10.6 C 3.61 g/m*3 10.6 C 0 km/h
198 21-10-2010 15:33:01 10.6 C 3.51 g/m*3 10.6 C 0 km/h
199 21-10-2010 15:45:02 10.7 C 3.73 g/m*3 10.7 C 0 km/h
200 21-10-2010 15:57:03 10.7 C 3.63 g/m*3 10.7 C 0 km/h
Sensor: Nr:Datum:Temp:Abs-Feuchte:Windchill:Wind:
Aussen-T/F 201 21-10-2010 16:09:02 10.9 C 3.78 g/m*3 10.9 C 0 km/h
202 21-10-2010 16:21:02 10.6 C 3.61 g/m*3 10.6 C 0 km/h
203 21-10-2010 16:33:02 10.2 C 3.52 g/m*3 10.2 C 0 km/h
204 21-10-2010 16:45:02 9.9 C 3.64 g/m*3 9.9 C 0 km/h
205 21-10-2010 16:57:02 10.4 C 3.66 g/m*3 10.4 C 0 km/h
206 21-10-2010 17:09:02 11.2 C 3.65 g/m*3 11.2 C 0 km/h
207 21-10-2010 17:21:01 11.4 C 3.59 g/m*3 11.4 C 0 km/h
208 21-10-2010 17:33:02 11.3 C 3.47 g/m*3 11.3 C 0 km/h
209 21-10-2010 17:45:02 10.9 C 3.58 g/m*3 10.9 C 0 km/h
210 21-10-2010 17:57:02 10 C 3.48 g/m*3 10 C 0 km/h
211 21-10-2010 18:09:02 8.9 C 3.94 g/m*3 8.9 C 0 km/h
212 21-10-2010 18:21:01 7.8 C 3.92 g/m*3 7.8 C 0 km/h
213 21-10-2010 18:33:02 7.2 C 3.92 g/m*3 7.2 C 0 km/h
214 21-10-2010 18:45:02 6.7 C 4.03 g/m*3 6.7 C 0 km/h
215 21-10-2010 18:57:02 6.3 C 4.07 g/m*3 6.3 C 0 km/h
216 21-10-2010 19:09:02 6.1 C 4.02 g/m*3 6.1 C 0 km/h
217 21-10-2010 19:21:01 5.8 C 4.01 g/m*3 5.8 C 0 km/h
218 21-10-2010 19:33:02 5.6 C 4.03 g/m*3 5.6 C 0 km/h
219 21-10-2010 19:45:02 5.5 C 4.07 g/m*3 5.5 C 0 km/h
220 21-10-2010 19:57:02 5.2 C 4.13 g/m*3 5.2 C 0 km/h
221 21-10-2010 20:09:02 5 C 4.08 g/m*3 5 C 0 km/h
222 21-10-2010 20:21:02 4.8 C 4.09 g/m*3 4.8 C 0 km/h
223 21-10-2010 20:33:02 4.7 C 4.06 g/m*3 4.7 C 0 km/h
224 21-10-2010 20:45:02 4.7 C 3.86 g/m*3 4.7 C 0 km/h
225 21-10-2010 20:57:02 5.1 C 3.69 g/m*3 5.1 C 0 km/h
Sensor: Nr:Datum:Temp:Abs-Feuchte:Windchill:Wind:
Aussen-T/F 226 21-10-2010 21:09:02 5 C 3.6 g/m*3 5 C 0 km/h
227 21-10-2010 21:21:02 4.9 C 3.71 g/m*3 4.9 C 0 km/h
228 21-10-2010 21:33:02 4.6 C 3.77 g/m*3 4.6 C 0 km/h
229 21-10-2010 21:45:02 4.5 C 3.75 g/m*3 4.5 C 0 km/h
230 21-10-2010 21:57:02 4.1 C 3.84 g/m*3 4.1 C 0 km/h
231 21-10-2010 22:09:02 4 C 3.81 g/m*3 4 C 0 km/h
232 21-10-2010 22:22:04 4.1 C 3.78 g/m*3 4.1 C 0 km/h
233 21-10-2010 22:34:04 3.8 C 3.83 g/m*3 3.8 C 0 km/h
234 21-10-2010 22:46:04 3.7 C 3.86 g/m*3 3.7 C 0 km/h
235 21-10-2010 22:58:04 3.6 C 3.9 g/m*3 3.6 C 0 km/h
236 21-10-2010 23:10:04 3.5 C 3.87 g/m*3 3.5 C 0 km/h
237 21-10-2010 23:22:04 3.5 C 3.87 g/m*3 3.5 C 0 km/h
238 21-10-2010 23:34:04 3.3 C 3.88 g/m*3 3.3 C 0 km/h
239 21-10-2010 23:46:04 2.9 C 3.9 g/m*3 2.9 C 0 km/h
240 21-10-2010 23:58:04 2.5 C 3.91 g/m*3 2.5 C 0 km/h
241 22-10-2010 00:10:04 2.2 C 4 g/m*3 2.2 C 0 km/h
242 22-10-2010 00:22:04 2.2 C 4.06 g/m*3 2.2 C 0 km/h
243 22-10-2010 00:34:05 2.8 C 4.11 g/m*3 2.8 C 0 km/h
244 22-10-2010 00:46:05 2.5 C 4.08 g/m*3 2.5 C 0 km/h
245 22-10-2010 00:58:05 2.2 C 4.06 g/m*3 2.2 C 0 km/h
246 22-10-2010 01:10:05 1.6 C 4 g/m*3 1.6 C 0 km/h
247 22-10-2010 01:22:05 1.3 C 4.03 g/m*3 1.3 C 0 km/h
248 22-10-2010 01:34:05 1.8 C 4.22 g/m*3 1.8 C 0 km/h
249 22-10-2010 01:46:05 2 C 4.17 g/m*3 2 C 0 km/h
250 22-10-2010 01:58:05 2 C 4.11 g/m*3 2 C 0 km/h
Sensor: Nr:Datum:Temp:Abs-Feuchte:Windchill:Wind:
Aussen-T/F 251 22-10-2010 02:10:05 2.1 C 4.08 g/m*3 2.1 C 0 km/h
252 22-10-2010 02:22:05 2.1 C 4.08 g/m*3 2.1 C 0 km/h
253 22-10-2010 02:34:05 2 C 4.06 g/m*3 2 C 0 km/h
254 22-10-2010 02:46:05 2.2 C 4.11 g/m*3 2.2 C 0 km/h
255 22-10-2010 02:58:05 2.2 C 4.11 g/m*3 2.2 C 0 km/h
256 22-10-2010 03:10:05 2.1 C 4.08 g/m*3 2.1 C 0 km/h
257 22-10-2010 03:22:05 2.3 C 4.08 g/m*3 2.3 C 0 km/h
258 22-10-2010 03:34:05 2.1 C 4.03 g/m*3 2.1 C 0 km/h
259 22-10-2010 03:46:05 2.3 C 4.14 g/m*3 2.3 C 0 km/h
260 22-10-2010 03:58:05 2 C 4.06 g/m*3 2 C 0 km/h
261 22-10-2010 04:10:05 1.7 C 4.03 g/m*3 1.7 C 0 km/h
262 22-10-2010 04:22:05 1.4 C 4.05 g/m*3 1.4 C 0 km/h
263 22-10-2010 04:34:06 1.4 C 4.11 g/m*3 1.4 C 0 km/h
264 22-10-2010 04:46:06 1.5 C 4.14 g/m*3 1.5 C 0 km/h
265 22-10-2010 04:58:06 1.4 C 4.11 g/m*3 1.4 C 0 km/h
266 22-10-2010 05:10:06 1.2 C 4.1 g/m*3 1.2 C 0 km/h
267 22-10-2010 05:22:06 1.3 C 4.13 g/m*3 1.3 C 0 km/h
268 22-10-2010 05:34:06 1.6 C 4.16 g/m*3 1.6 C 0 km/h
269 22-10-2010 05:46:06 1.4 C 4.05 g/m*3 1.4 C 0 km/h
270 22-10-2010 05:58:06 1.4 C 4.11 g/m*3 1.4 C 0 km/h
271 22-10-2010 06:10:06 1.5 C 4.08 g/m*3 1.5 C 0 km/h
272 22-10-2010 06:22:06 1.6 C 4.11 g/m*3 1.6 C 0 km/h
273 22-10-2010 06:34:06 1.8 C 4.06 g/m*3 1.8 C 0 km/h
274 22-10-2010 06:46:06 1.7 C 4.03 g/m*3 1.7 C 0 km/h
275 22-10-2010 06:58:06 1.7 C 4.03 g/m*3 1.7 C 0 km/h
Sensor: Nr:Datum:Temp:Abs-Feuchte:Windchill:Wind:
Aussen-T/F 276 22-10-2010 07:10:02 1.4 C 4 g/m*3 1.4 C 0 km/h
277 22-10-2010 07:22:03 1 C 3.89 g/m*3 1 C 0 km/h
278 22-10-2010 07:34:03 0.7 C 3.92 g/m*3 0.7 C 0 km/h
279 22-10-2010 07:46:02 0.6 C 3.99 g/m*3 0.6 C 0 km/h
280 22-10-2010 07:58:02 1 C 4.1 g/m*3 1 C 0 km/h
281 22-10-2010 08:10:01 1.5 C 4.14 g/m*3 1.5 C 0 km/h
282 22-10-2010 08:22:02 1.3 C 4.03 g/m*3 1.3 C 0 km/h
283 22-10-2010 08:34:02 1.1 C 3.97 g/m*3 1.1 C 0 km/h
284 22-10-2010 08:46:02 1.1 C 3.97 g/m*3 1.1 C 0 km/h
285 22-10-2010 08:58:02 1.4 C 4.11 g/m*3 1.4 C 0 km/h
286 22-10-2010 09:10:03 1.3 C 4.13 g/m*3 1.3 C 0 km/h
287 22-10-2010 09:22:02 1.4 C 4.16 g/m*3 1.4 C 0 km/h
288 22-10-2010 09:34:02 1.9 C 4.3 g/m*3 1.9 C 0 km/h
289 22-10-2010 09:46:01 2.5 C 4.43 g/m*3 2.5 C 0 km/h
290 22-10-2010 09:58:01 3.2 C 4.46 g/m*3 3.2 C 0 km/h
291 22-10-2010 10:10:02 3.8 C 4.58 g/m*3 3.8 C 0 km/h
292 22-10-2010 10:22:01 4.1 C 4.29 g/m*3 4.1 C 0 km/h
293 22-10-2010 10:34:01 4.3 C 4.15 g/m*3 4.3 C 0 km/h
294 22-10-2010 10:46:01 4.6 C 4.1 g/m*3 4.6 C 0 km/h
295 22-10-2010 10:58:01 4.7 C 4 g/m*3 4.7 C 0 km/h
296 22-10-2010 11:10:02 4.8 C 4.02 g/m*3 4.8 C 0 km/h
297 22-10-2010 11:22:01 5.1 C 3.9 g/m*3 5.1 C 0 km/h
298 22-10-2010 11:34:01 5.4 C 3.91 g/m*3 5.4 C 0 km/h
299 22-10-2010 11:46:01 5.7 C 3.91 g/m*3 5.7 C 0 km/h
300 22-10-2010 11:58:01 5.8 C 3.94 g/m*3 5.8 C 0 km/h
Sensor: Nr:Datum:Temp:Abs-Feuchte:Windchill:Wind:
Aussen-T/F 301 22-10-2010 12:10:02 6.1 C 3.87 g/m*3 6.1 C 0 km/h
302 22-10-2010 12:22:02 6.5 C 3.9 g/m*3 6.5 C 0 km/h
303 22-10-2010 12:34:01 6.5 C 3.82 g/m*3 6.5 C 0 km/h
304 22-10-2010 12:46:02 6.8 C 3.98 g/m*3 6.8 C 0 km/h
305 22-10-2010 12:58:02 6.9 C 3.93 g/m*3 6.9 C 0 km/h
306 22-10-2010 13:10:01 7 C 3.87 g/m*3 7 C 0 km/h
307 22-10-2010 13:22:02 7.1 C 3.82 g/m*3 7.1 C 0 km/h
308 22-10-2010 13:34:01 7.2 C 3.92 g/m*3 7.2 C 0 km/h
309 22-10-2010 13:46:02 7.3 C 3.87 g/m*3 7.3 C 0 km/h
310 22-10-2010 13:58:02 7.3 C 3.95 g/m*3 7.3 C 0 km/h
311 22-10-2010 14:10:02 7.3 C 3.87 g/m*3 7.3 C 0 km/h
312 22-10-2010 14:22:02 7.5 C 3.92 g/m*3 7.5 C 0 km/h
313 22-10-2010 14:34:03 7.5 C 3.84 g/m*3 7.5 C 0 km/h
314 22-10-2010 14:46:02 7.3 C 3.87 g/m*3 7.3 C 0 km/h
315 22-10-2010 14:58:03 7.2 C 3.85 g/m*3 7.2 C 0 km/h
316 22-10-2010 15:10:01 7.2 C 3.69 g/m*3 7.2 C 0 km/h
317 22-10-2010 15:22:02 7.3 C 3.79 g/m*3 7.3 C 0 km/h
318 22-10-2010 15:34:02 7.2 C 3.77 g/m*3 7.2 C 0 km/h
319 22-10-2010 15:46:02 7.1 C 3.82 g/m*3 7.1 C 0 km/h
320 22-10-2010 15:58:02 7.3 C 4.03 g/m*3 7.3 C 0 km/h
321 22-10-2010 16:10:03 7.4 C 4.06 g/m*3 7.4 C 0 km/h
322 22-10-2010 16:22:02 7.5 C 4.08 g/m*3 7.5 C 0 km/h
323 22-10-2010 16:34:02 7.4 C 4.29 g/m*3 7.4 C 0 km/h
324 22-10-2010 16:46:01 7.4 C 4.53 g/m*3 7.4 C 0 km/h
325 22-10-2010 16:58:01 7.4 C 4.69 g/m*3 7.4 C 0 km/h
Sensor: Nr:Datum:Temp:Abs-Feuchte:Windchill:Wind:
Aussen-T/F 326 22-10-2010 17:10:02 7.5 C 4.4 g/m*3 7.5 C 0 km/h
327 22-10-2010 17:22:01 7.7 C 4.14 g/m*3 7.7 C 0 km/h
328 22-10-2010 17:34:01 7.6 C 4.19 g/m*3 7.6 C 0 km/h
329 22-10-2010 17:46:01 6.9 C 4.31 g/m*3 6.9 C 0 km/h
330 22-10-2010 17:58:01 6.4 C 4.32 g/m*3 6.4 C 0 km/h
331 22-10-2010 18:10:02 6.4 C 4.17 g/m*3 6.4 C 0 km/h
332 22-10-2010 18:22:01 6.2 C 4.19 g/m*3 6.2 C 0 km/h
333 22-10-2010 18:34:01 6 C 4.21 g/m*3 6 C 0 km/h
334 22-10-2010 18:46:01 6.1 C 4.09 g/m*3 6.1 C 0 km/h
335 22-10-2010 18:58:01 6.2 C 3.82 g/m*3 6.2 C 0 km/h
336 22-10-2010 19:10:01 6.2 C 3.68 g/m*3 6.2 C 0 km/h
337 22-10-2010 19:22:02 6.2 C 3.68 g/m*3 6.2 C 0 km/h
338 22-10-2010 19:34:01 6.2 C 3.68 g/m*3 6.2 C 0 km/h
339 22-10-2010 19:46:03 6.2 C 3.68 g/m*3 6.2 C 0 km/h
340 22-10-2010 19:58:03 6.2 C 3.75 g/m*3 6.2 C 0 km/h
341 22-10-2010 20:10:02 6.2 C 3.75 g/m*3 6.2 C 0 km/h
342 22-10-2010 20:22:02 6 C 3.77 g/m*3 6 C 0 km/h
343 22-10-2010 20:34:02 6 C 3.77 g/m*3 6 C 0 km/h
344 22-10-2010 20:46:02 6 C 3.85 g/m*3 6 C 0 km/h
345 22-10-2010 20:58:02 5.9 C 3.97 g/m*3 5.9 C 0 km/h
346 22-10-2010 21:10:02 6 C 3.85 g/m*3 6 C 0 km/h
347 22-10-2010 21:22:02 5.9 C 3.97 g/m*3 5.9 C 0 km/h
348 22-10-2010 21:34:02 5.7 C 3.91 g/m*3 5.7 C 0 km/h
349 22-10-2010 21:46:01 5.7 C 3.91 g/m*3 5.7 C 0 km/h
350 22-10-2010 21:58:01 5.3 C 3.88 g/m*3 5.3 C 0 km/h
Sensor: Nr:Datum:Temp:Abs-Feuchte:Windchill:Wind:
Aussen-T/F 351 22-10-2010 22:10:02 4.9 C 3.92 g/m*3 4.9 C 0 km/h
352 22-10-2010 22:22:01 4.3 C 3.96 g/m*3 4.3 C 0 km/h
353 22-10-2010 22:35:03 4.1 C 4.1 g/m*3 4.1 C 0 km/h
354 22-10-2010 22:47:03 3.8 C 4.2 g/m*3 3.8 C 0 km/h
355 22-10-2010 22:59:03 3.6 C 4.27 g/m*3 3.6 C 0 km/h
356 22-10-2010 23:11:03 3.4 C 4.28 g/m*3 3.4 C 0 km/h
357 22-10-2010 23:23:03 3.1 C 4.31 g/m*3 3.1 C 0 km/h
358 22-10-2010 23:35:03 2.7 C 4.31 g/m*3 2.7 C 0 km/h
359 22-10-2010 23:47:03 2.4 C 4.28 g/m*3 2.4 C 0 km/h
360 22-10-2010 23:59:03 2.2 C 4.34 g/m*3 2.2 C 0 km/h
361 23-10-2010 00:11:03 2 C 4.28 g/m*3 2 C 0 km/h
362 23-10-2010 00:23:03 1.8 C 4.28 g/m*3 1.8 C 0 km/h
363 23-10-2010 00:35:03 1.7 C 4.3 g/m*3 1.7 C 0 km/h
364 23-10-2010 00:47:03 1.6 C 4.33 g/m*3 1.6 C 0 km/h
365 23-10-2010 00:59:03 1.4 C 4.32 g/m*3 1.4 C 0 km/h
366 23-10-2010 01:11:04 1.3 C 4.29 g/m*3 1.3 C 0 km/h
367 23-10-2010 01:23:04 1.2 C 4.31 g/m*3 1.2 C 0 km/h
368 23-10-2010 01:35:04 1.1 C 4.29 g/m*3 1.1 C 0 km/h
369 23-10-2010 01:47:04 1 C 4.26 g/m*3 1 C 0 km/h
370 23-10-2010 01:59:04 0.8 C 4.3 g/m*3 0.8 C 0 km/h
371 23-10-2010 02:11:04 0.7 C 4.27 g/m*3 0.7 C 0 km/h
372 23-10-2010 02:23:04 0.6 C 4.24 g/m*3 0.6 C 0 km/h
373 23-10-2010 02:35:04 0.5 C 4.21 g/m*3 0.5 C 0 km/h
374 23-10-2010 02:47:04 0.5 C 4.26 g/m*3 0.5 C 0 km/h
375 23-10-2010 02:59:04 0.4 C 4.23 g/m*3 0.4 C 0 km/h
Sensor: Nr:Datum:Temp:Abs-Feuchte:Windchill:Wind:
Aussen-T/F 376 23-10-2010 03:11:04 0.3 C 4.2 g/m*3 0.3 C 0 km/h
377 23-10-2010 03:23:04 0.2 C 4.22 g/m*3 0.2 C 0 km/h
378 23-10-2010 03:35:04 0.1 C 4.2 g/m*3 0.1 C 0 km/h
379 23-10-2010 03:47:04 0 C 4.17 g/m*3 0 C 0 km/h
380 23-10-2010 03:59:04 -0.1 C 4.14 g/m*3 -0.1 C 0 km/h
381 23-10-2010 04:11:04 -0.2 C 4.16 g/m*3 -0.2 C 0 km/h
382 23-10-2010 04:23:04 -0.3 C 4.13 g/m*3 -0.3 C 0 km/h
383 23-10-2010 04:35:04 -0.3 C 4.13 g/m*3 -0.3 C 0 km/h
384 23-10-2010 04:47:04 -0.4 C 4.15 g/m*3 -0.4 C 0 km/h
385 23-10-2010 04:59:04 -0.5 C 4.12 g/m*3 -0.5 C 0 km/h
386 23-10-2010 05:11:05 -0.6 C 4.09 g/m*3 -0.6 C 0 km/h
387 23-10-2010 05:23:05 -0.7 C 4.06 g/m*3 -0.7 C 0 km/h
388 23-10-2010 05:35:05 -0.8 C 4.03 g/m*3 -0.8 C 0 km/h
389 23-10-2010 05:47:05 -1 C 3.98 g/m*3 -1 C 0 km/h
390 23-10-2010 05:59:05 -1 C 3.98 g/m*3 -1 C 0 km/h
391 23-10-2010 06:11:05 -1 C 3.98 g/m*3 -1 C 0 km/h
392 23-10-2010 06:23:05 -1 C 4.02 g/m*3 -1 C 0 km/h
393 23-10-2010 06:35:05 -1 C 4.02 g/m*3 -1 C 0 km/h
394 23-10-2010 06:47:05 -1.1 C 4 g/m*3 -1.1 C 0 km/h
395 23-10-2010 06:59:05 -1.1 C 4 g/m*3 -1.1 C 0 km/h
396 23-10-2010 07:11:05 -1.1 C 4 g/m*3 -1.1 C 0 km/h
397 23-10-2010 07:23:05 -1 C 4.02 g/m*3 -1 C 0 km/h
398 23-10-2010 07:35:05 -0.9 C 4.05 g/m*3 -0.9 C 0 km/h
399 23-10-2010 07:47:05 -0.7 C 4.15 g/m*3 -0.7 C 0 km/h
400 23-10-2010 07:59:05 -0.6 C 4.23 g/m*3 -0.6 C 0 km/h
Sensor: Nr:Datum:Temp:Abs-Feuchte:Windchill:Wind:
Aussen-T/F 401 23-10-2010 08:11:02 -0.5 C 4.26 g/m*3 -0.5 C 0 km/h
402 23-10-2010 08:23:03 -0.6 C 4.28 g/m*3 -0.6 C 0 km/h
403 23-10-2010 08:35:02 -0.8 C 4.17 g/m*3 -0.8 C 0 km/h
404 23-10-2010 08:47:03 -1 C 4.11 g/m*3 -1 C 0 km/h
405 23-10-2010 08:59:03 -1 C 4.07 g/m*3 -1 C 0 km/h
406 23-10-2010 09:11:02 -1 C 4.07 g/m*3 -1 C 0 km/h
407 23-10-2010 09:23:02 -0.9 C 4.1 g/m*3 -0.9 C 0 km/h
408 23-10-2010 09:35:02 -0.9 C 4.1 g/m*3 -0.9 C 0 km/h
409 23-10-2010 09:47:02 -0.7 C 4.2 g/m*3 -0.7 C 0 km/h
410 23-10-2010 09:59:02 -0.6 C 4.23 g/m*3 -0.6 C 0 km/h
411 23-10-2010 10:11:01 -0.1 C 4.38 g/m*3 -0.1 C 0 km/h
412 23-10-2010 10:23:02 0.4 C 4.58 g/m*3 0.4 C 0 km/h
413 23-10-2010 10:35:02 0.9 C 4.74 g/m*3 0.9 C 0 km/h
414 23-10-2010 10:47:01 1.5 C 4.94 g/m*3 1.5 C 0 km/h
415 23-10-2010 10:59:01 2.6 C 5.32 g/m*3 2.6 C 0 km/h
416 23-10-2010 11:11:02 3.3 C 5.46 g/m*3 3.3 C 0 km/h
417 23-10-2010 11:23:01 3.7 C 5.55 g/m*3 3.7 C 0 km/h
418 23-10-2010 11:35:02 4.1 C 5.38 g/m*3 4.1 C 0 km/h
419 23-10-2010 11:47:02 4.4 C 5.09 g/m*3 4.4 C 0 km/h
420 23-10-2010 11:59:02 4.9 C 5.13 g/m*3 4.9 C 0 km/h
421 23-10-2010 12:11:02 5.5 C 5.06 g/m*3 5.5 C 0 km/h
422 23-10-2010 12:23:01 6.2 C 5.15 g/m*3 6.2 C 0 km/h
423 23-10-2010 12:35:02 6.7 C 5.17 g/m*3 6.7 C 0 km/h
424 23-10-2010 12:47:01 7.2 C 5.18 g/m*3 7.2 C 0 km/h
425 23-10-2010 12:59:01 7.6 C 5.24 g/m*3 7.6 C 0 km/h
Sensor: Nr:Datum:Temp:Abs-Feuchte:Windchill:Wind:
Aussen-T/F 426 23-10-2010 13:11:02 7.8 C 5.22 g/m*3 7.8 C 0 km/h
427 23-10-2010 13:23:01 8.3 C 5.23 g/m*3 8.3 C 0 km/h
428 23-10-2010 13:35:02 8.5 C 4.95 g/m*3 8.5 C 0 km/h
429 23-10-2010 13:47:01 8.8 C 4.79 g/m*3 8.8 C 0 km/h
430 23-10-2010 13:59:01 9.4 C 4.61 g/m*3 9.4 C 0 km/h
431 23-10-2010 14:11:02 9.6 C 4.21 g/m*3 9.6 C 0 km/h
432 23-10-2010 14:23:02 9.5 C 4.19 g/m*3 9.5 C 0 km/h
433 23-10-2010 14:35:01 9.1 C 4.17 g/m*3 9.1 C 0 km/h
434 23-10-2010 14:47:02 8.8 C 4.26 g/m*3 8.8 C 0 km/h
435 23-10-2010 14:59:02 8.4 C 4.41 g/m*3 8.4 C 0 km/h
436 23-10-2010 15:11:01 8.3 C 4.47 g/m*3 8.3 C 0 km/h
437 23-10-2010 15:23:02 8.3 C 4.64 g/m*3 8.3 C 0 km/h
438 23-10-2010 15:35:01 8.4 C 4.75 g/m*3 8.4 C 0 km/h
439 23-10-2010 15:47:02 8.5 C 4.7 g/m*3 8.5 C 0 km/h
440 23-10-2010 15:59:02 8.6 C 4.64 g/m*3 8.6 C 0 km/h
441 23-10-2010 16:11:02 8.5 C 4.61 g/m*3 8.5 C 0 km/h
442 23-10-2010 16:23:02 8.4 C 4.67 g/m*3 8.4 C 0 km/h
443 23-10-2010 16:35:03 7.6 C 4.99 g/m*3 7.6 C 0 km/h
444 23-10-2010 16:47:02 7.4 C 5.17 g/m*3 7.4 C 0 km/h
445 23-10-2010 16:59:02 7.7 C 5.19 g/m*3 7.7 C 0 km/h
446 23-10-2010 17:11:01 7.8 C 5.3 g/m*3 7.8 C 0 km/h
447 23-10-2010 17:23:02 7.9 C 5.34 g/m*3 7.9 C 0 km/h
448 23-10-2010 17:35:02 7.9 C 5.34 g/m*3 7.9 C 0 km/h
449 23-10-2010 17:47:02 7.8 C 5.39 g/m*3 7.8 C 0 km/h
450 23-10-2010 17:59:02 8 C 5.37 g/m*3 8 C 0 km/h
Sensor: Nr:Datum:Temp:Abs-Feuchte:Windchill:Wind:
Aussen-T/F 451 23-10-2010 18:11:02 8.1 C 5.41 g/m*3 8.1 C 0 km/h
452 23-10-2010 18:23:02 8.1 C 5.49 g/m*3 8.1 C 0 km/h
453 23-10-2010 18:35:02 8 C 5.54 g/m*3 8 C 0 km/h
454 23-10-2010 18:47:02 8 C 5.54 g/m*3 8 C 0 km/h
455 23-10-2010 18:59:02 8 C 5.46 g/m*3 8 C 0 km/h
456 23-10-2010 19:11:02 8.1 C 5.33 g/m*3 8.1 C 0 km/h
457 23-10-2010 19:23:02 8.4 C 5.26 g/m*3 8.4 C 0 km/h
458 23-10-2010 19:35:02 8.6 C 5.07 g/m*3 8.6 C 0 km/h
459 23-10-2010 19:47:01 8.8 C 5.05 g/m*3 8.8 C 0 km/h
460 23-10-2010 19:59:01 8.9 C 5.08 g/m*3 8.9 C 0 km/h
461 23-10-2010 20:11:01 9.1 C 5.06 g/m*3 9.1 C 0 km/h
462 23-10-2010 20:23:02 9.1 C 5.15 g/m*3 9.1 C 0 km/h
463 23-10-2010 20:35:01 9.2 C 5.27 g/m*3 9.2 C 0 km/h
464 23-10-2010 20:47:03 9.2 C 5.36 g/m*3 9.2 C 0 km/h
465 23-10-2010 20:59:03 9.1 C 5.5 g/m*3 9.1 C 0 km/h
466 23-10-2010 21:11:02 9.1 C 5.68 g/m*3 9.1 C 0 km/h
467 23-10-2010 21:23:02 9.2 C 5.71 g/m*3 9.2 C 0 km/h
468 23-10-2010 21:35:02 9.3 C 5.84 g/m*3 9.3 C 0 km/h
469 23-10-2010 21:47:02 9.4 C 5.79 g/m*3 9.4 C 0 km/h
470 23-10-2010 21:59:02 9.3 C 5.84 g/m*3 9.3 C 0 km/h
471 23-10-2010 22:11:01 9.3 C 5.84 g/m*3 9.3 C 0 km/h
472 23-10-2010 22:24:04 9.4 C 5.88 g/m*3 9.4 C 0 km/h
473 23-10-2010 22:36:04 9.4 C 5.88 g/m*3 9.4 C 0 km/h
474 23-10-2010 22:48:04 9.4 C 5.79 g/m*3 9.4 C 0 km/h
475 23-10-2010 23:00:04 9.5 C 5.73 g/m*3 9.5 C 0 km/h
Sensor: Nr:Datum:Temp:Abs-Feuchte:Windchill:Wind:
Aussen-T/F 476 23-10-2010 23:12:04 9.4 C 5.7 g/m*3 9.4 C 0 km/h
477 23-10-2010 23:24:04 9.3 C 5.66 g/m*3 9.3 C 0 km/h
478 23-10-2010 23:36:04 9.2 C 5.63 g/m*3 9.2 C 0 km/h
479 23-10-2010 23:48:04 9.2 C 5.63 g/m*3 9.2 C 0 km/h
480 24-10-2010 00:00:04 9.1 C 5.68 g/m*3 9.1 C 0 km/h
481 24-10-2010 00:12:04 9 C 5.73 g/m*3 9 C 0 km/h
482 24-10-2010 00:24:04 8.9 C 5.78 g/m*3 8.9 C 0 km/h
483 24-10-2010 00:36:04 9.1 C 5.77 g/m*3 9.1 C 0 km/h
484 24-10-2010 00:48:05 9 C 5.73 g/m*3 9 C 0 km/h
485 24-10-2010 01:00:05 8.8 C 5.83 g/m*3 8.8 C 0 km/h
486 24-10-2010 01:12:05 8.9 C 5.87 g/m*3 8.9 C 0 km/h
487 24-10-2010 01:24:05 9.1 C 5.86 g/m*3 9.1 C 0 km/h
488 24-10-2010 01:36:05 9 C 5.82 g/m*3 9 C 0 km/h
489 24-10-2010 01:48:05 9.1 C 5.86 g/m*3 9.1 C 0 km/h
490 24-10-2010 02:00:05 9 C 5.99 g/m*3 9 C 0 km/h
491 24-10-2010 02:12:05 8.8 C 6.09 g/m*3 8.8 C 0 km/h
492 24-10-2010 02:24:05 8.2 C 6.28 g/m*3 8.2 C 0 km/h
493 24-10-2010 02:36:05 8.1 C 6.49 g/m*3 8.1 C 0 km/h
494 24-10-2010 02:48:05 8.2 C 6.53 g/m*3 8.2 C 0 km/h
495 24-10-2010 03:00:05 8.3 C 6.49 g/m*3 8.3 C 0 km/h
496 24-10-2010 03:12:05 8.4 C 6.45 g/m*3 8.4 C 0 km/h
497 24-10-2010 03:24:05 8.5 C 6.32 g/m*3 8.5 C 0 km/h
498 24-10-2010 03:36:05 8.6 C 6.19 g/m*3 8.6 C 0 km/h
499 24-10-2010 03:48:05 8.5 C 6.06 g/m*3 8.5 C 0 km/h
500 24-10-2010 04:00:05 8.7 C 6.05 g/m*3 8.7 C 0 km/h
Sensor: Nr:Datum:Temp:Abs-Feuchte:Windchill:Wind:
Aussen-T/F 501 24-10-2010 04:12:05 8.7 C 6.05 g/m*3 8.7 C 0 km/h
502 24-10-2010 04:24:05 8.6 C 6.02 g/m*3 8.6 C 0 km/h
503 24-10-2010 04:36:05 8.6 C 6.02 g/m*3 8.6 C 0 km/h
504 24-10-2010 04:48:05 8.7 C 5.97 g/m*3 8.7 C 0 km/h
505 24-10-2010 05:00:05 8.8 C 5.83 g/m*3 8.8 C 0 km/h
506 24-10-2010 05:12:06 8.8 C 5.92 g/m*3 8.8 C 0 km/h
507 24-10-2010 05:24:06 8.7 C 5.97 g/m*3 8.7 C 0 km/h
508 24-10-2010 05:36:06 8.1 C 5.99 g/m*3 8.1 C 0 km/h
509 24-10-2010 05:48:06 8.1 C 6.16 g/m*3 8.1 C 0 km/h
510 24-10-2010 06:00:06 8 C 6.12 g/m*3 8 C 0 km/h
511 24-10-2010 06:12:06 8.2 C 6.2 g/m*3 8.2 C 0 km/h
512 24-10-2010 06:24:06 8.3 C 6.15 g/m*3 8.3 C 0 km/h
513 24-10-2010 06:36:06 7.9 C 6.32 g/m*3 7.9 C 0 km/h
514 24-10-2010 06:48:06 7.5 C 6.4 g/m*3 7.5 C 0 km/h
515 24-10-2010 07:00:06 7.3 C 6.64 g/m*3 7.3 C 0 km/h
516 24-10-2010 07:12:06 7.1 C 6.71 g/m*3 7.1 C 0 km/h
517 24-10-2010 07:24:02 7 C 6.66 g/m*3 7 C 0 km/h
518 24-10-2010 07:36:03 6.9 C 6.77 g/m*3 6.9 C 0 km/h
519 24-10-2010 07:48:02 7 C 6.82 g/m*3 7 C 0 km/h
520 24-10-2010 08:00:02 7 C 6.82 g/m*3 7 C 0 km/h
521 24-10-2010 08:12:02 7 C 6.9 g/m*3 7 C 0 km/h
522 24-10-2010 08:24:02 7 C 6.9 g/m*3 7 C 0 km/h
523 24-10-2010 08:36:02 6.9 C 6.93 g/m*3 6.9 C 0 km/h
524 24-10-2010 08:48:02 6.9 C 7.01 g/m*3 6.9 C 0 km/h
525 24-10-2010 09:00:02 7 C 6.97 g/m*3 7 C 0 km/h
Sensor: Nr:Datum:Temp:Abs-Feuchte:Windchill:Wind:
Aussen-T/F 526 24-10-2010 09:12:02 6.9 C 7.01 g/m*3 6.9 C 0 km/h
527 24-10-2010 09:24:02 7 C 6.97 g/m*3 7 C 0 km/h
528 24-10-2010 09:36:02 7.3 C 7.11 g/m*3 7.3 C 0 km/h
529 24-10-2010 09:48:01 7.5 C 7.04 g/m*3 7.5 C 0 km/h
530 24-10-2010 10:00:01 7.1 C 6.79 g/m*3 7.1 C 0 km/h
531 24-10-2010 10:12:01 7 C 6.74 g/m*3 7 C 0 km/h
532 24-10-2010 10:24:02 7 C 6.66 g/m*3 7 C 0 km/h
533 24-10-2010 10:36:01 6.9 C 6.54 g/m*3 6.9 C 0 km/h
534 24-10-2010 10:48:03 7 C 6.51 g/m*3 7 C 0 km/h
535 24-10-2010 11:00:03 7.3 C 6.48 g/m*3 7.3 C 0 km/h
536 24-10-2010 11:12:02 7.9 C 6.49 g/m*3 7.9 C 0 km/h
537 24-10-2010 11:24:02 8.8 C 5.74 g/m*3 8.8 C 0 km/h
538 24-10-2010 11:36:02 8.6 C 5.16 g/m*3 8.6 C 0 km/h
539 24-10-2010 11:48:02 8.9 C 5.26 g/m*3 8.9 C 0 km/h
540 24-10-2010 12:00:02 9 C 5.03 g/m*3 9 C 0 km/h
541 24-10-2010 12:12:02 9.2 C 4.91 g/m*3 9.2 C 0 km/h
542 24-10-2010 12:24:02 9.4 C 4.61 g/m*3 9.4 C 0 km/h
543 24-10-2010 12:36:02 9.5 C 4.64 g/m*3 9.5 C 0 km/h
544 24-10-2010 12:48:02 9.7 C 4.52 g/m*3 9.7 C 0 km/h
545 24-10-2010 13:00:02 9.7 C 4.61 g/m*3 9.7 C 0 km/h
546 24-10-2010 13:12:01 10.2 C 4.57 g/m*3 10.2 C 0 km/h
547 24-10-2010 13:24:01 10.6 C 4.68 g/m*3 10.6 C 0 km/h
548 24-10-2010 13:36:02 10.6 C 4.68 g/m*3 10.6 C 0 km/h
549 24-10-2010 13:48:02 11.2 C 4.46 g/m*3 11.2 C 0 km/h
550 24-10-2010 14:00:02 10.9 C 4.58 g/m*3 10.9 C 0 km/h
Sensor: Nr:Datum:Temp:Abs-Feuchte:Windchill:Wind:
Aussen-T/F 551 24-10-2010 14:12:02 10.9 C 4.48 g/m*3 10.9 C 0 km/h
552 24-10-2010 14:24:01 11.9 C 4.45 g/m*3 11.9 C 0 km/h
553 24-10-2010 14:36:02 12.2 C 3.99 g/m*3 12.2 C 0 km/h
554 24-10-2010 14:48:02 12.2 C 3.88 g/m*3 12.2 C 0 km/h
555 24-10-2010 15:00:02 12.9 C 4.28 g/m*3 12.9 C 0 km/h
556 24-10-2010 15:12:02 12.7 C 4.45 g/m*3 12.7 C 0 km/h
557 24-10-2010 15:24:01 11.7 C 4.39 g/m*3 11.7 C 0 km/h
558 24-10-2010 15:36:02 11.8 C 4.1 g/m*3 11.8 C 0 km/h
559 24-10-2010 15:48:02 12.4 C 3.93 g/m*3 12.4 C 0 km/h
560 24-10-2010 16:00:02 12.1 C 3.65 g/m*3 12.1 C 0 km/h
561 24-10-2010 16:12:02 12.8 C 3.92 g/m*3 12.8 C 0 km/h
562 24-10-2010 16:24:02 13.4 C 3.72 g/m*3 13.4 C 0 km/h
563 24-10-2010 16:36:02 13.4 C 3.6 g/m*3 13.4 C 0 km/h
564 24-10-2010 16:48:02 13.5 C 3.86 g/m*3 13.5 C 0 km/h
565 24-10-2010 17:00:02 13 C 3.52 g/m*3 13 C 0 km/h
566 24-10-2010 17:12:02 12.2 C 3.88 g/m*3 12.2 C 0 km/h
567 24-10-2010 17:24:02 12.2 C 4.21 g/m*3 12.2 C 0 km/h
568 24-10-2010 17:36:01 11.4 C 4.11 g/m*3 11.4 C 0 km/h
569 24-10-2010 17:48:02 11.3 C 4.28 g/m*3 11.3 C 0 km/h
570 24-10-2010 18:00:02 10.6 C 4.29 g/m*3 10.6 C 0 km/h
571 24-10-2010 18:12:01 10 C 4.51 g/m*3 10 C 0 km/h
572 24-10-2010 18:24:02 9.6 C 4.86 g/m*3 9.6 C 0 km/h
573 24-10-2010 18:36:01 9 C 4.94 g/m*3 9 C 0 km/h
574 24-10-2010 18:48:02 8.6 C 5.07 g/m*3 8.6 C 0 km/h
575 24-10-2010 19:00:03 8.2 C 5.19 g/m*3 8.2 C 0 km/h
Sensor: Nr:Datum:Temp:Abs-Feuchte:Windchill:Wind:
Aussen-T/F 576 24-10-2010 19:12:02 7.8 C 5.22 g/m*3 7.8 C 0 km/h
577 24-10-2010 19:24:02 7.3 C 5.14 g/m*3 7.3 C 0 km/h
578 24-10-2010 19:36:02 7 C 5.04 g/m*3 7 C 0 km/h
579 24-10-2010 19:48:01 6.8 C 5.12 g/m*3 6.8 C 0 km/h
580 24-10-2010 20:00:01 6.6 C 5.06 g/m*3 6.6 C 0 km/h
581 24-10-2010 20:12:02 6.5 C 5.17 g/m*3 6.5 C 0 km/h
582 24-10-2010 20:24:01 6.4 C 5.14 g/m*3 6.4 C 0 km/h
583 24-10-2010 20:36:01 6.4 C 5.22 g/m*3 6.4 C 0 km/h
584 24-10-2010 20:48:01 6.5 C 5.32 g/m*3 6.5 C 0 km/h
585 24-10-2010 21:00:01 6.7 C 5.39 g/m*3 6.7 C 0 km/h
586 24-10-2010 21:12:02 6.4 C 5.36 g/m*3 6.4 C 0 km/h
587 24-10-2010 21:24:01 6 C 5.3 g/m*3 6 C 0 km/h
588 24-10-2010 21:36:02 5.8 C 5.37 g/m*3 5.8 C 0 km/h
589 24-10-2010 21:48:01 5.7 C 5.48 g/m*3 5.7 C 0 km/h
590 24-10-2010 22:00:01 5.5 C 5.48 g/m*3 5.5 C 0 km/h
591 24-10-2010 22:12:02 5.7 C 5.62 g/m*3 5.7 C 0 km/h
592 24-10-2010 22:24:02 5.9 C 5.7 g/m*3 5.9 C 0 km/h
593 24-10-2010 22:36:01 5.6 C 5.51 g/m*3 5.6 C 0 km/h
594 24-10-2010 22:48:02 5.4 C 5.51 g/m*3 5.4 C 0 km/h
595 24-10-2010 23:00:02 5.1 C 5.4 g/m*3 5.1 C 0 km/h
596 24-10-2010 23:13:04 5 C 5.5 g/m*3 5 C 0 km/h
597 24-10-2010 23:25:04 4.7 C 5.46 g/m*3 4.7 C 0 km/h
598 24-10-2010 23:37:04 4.7 C 5.53 g/m*3 4.7 C 0 km/h
599 24-10-2010 23:49:04 4.7 C 5.53 g/m*3 4.7 C 0 km/h
600 25-10-2010 00:01:04 4.7 C 5.6 g/m*3 4.7 C 0 km/h
Sensor: Nr:Datum:Temp:Abs-Feuchte:Windchill:Wind:
Aussen-T/F 601 25-10-2010 00:13:04 4.8 C 5.7 g/m*3 4.8 C 0 km/h
602 25-10-2010 00:25:04 5 C 5.78 g/m*3 5 C 0 km/h
603 25-10-2010 00:37:04 4.8 C 5.7 g/m*3 4.8 C 0 km/h
604 25-10-2010 00:49:04 4.7 C 5.73 g/m*3 4.7 C 0 km/h
605 25-10-2010 01:01:05 4.6 C 5.62 g/m*3 4.6 C 0 km/h
606 25-10-2010 01:13:05 4.6 C 5.69 g/m*3 4.6 C 0 km/h
607 25-10-2010 01:25:05 4.4 C 5.62 g/m*3 4.4 C 0 km/h
608 25-10-2010 01:37:05 4.4 C 5.62 g/m*3 4.4 C 0 km/h
609 25-10-2010 01:49:05 4.5 C 5.72 g/m*3 4.5 C 0 km/h
610 25-10-2010 02:01:05 4.6 C 5.76 g/m*3 4.6 C 0 km/h
611 25-10-2010 02:13:05 4.4 C 5.68 g/m*3 4.4 C 0 km/h
612 25-10-2010 02:25:05 4.4 C 5.68 g/m*3 4.4 C 0 km/h
613 25-10-2010 02:37:05 4.2 C 5.61 g/m*3 4.2 C 0 km/h
614 25-10-2010 02:49:05 4.5 C 5.72 g/m*3 4.5 C 0 km/h
615 25-10-2010 03:01:05 4.5 C 5.78 g/m*3 4.5 C 0 km/h
616 25-10-2010 03:13:05 4.5 C 5.72 g/m*3 4.5 C 0 km/h
617 25-10-2010 03:25:05 4.5 C 5.72 g/m*3 4.5 C 0 km/h
618 25-10-2010 03:37:05 4.7 C 5.8 g/m*3 4.7 C 0 km/h
619 25-10-2010 03:49:05 4.9 C 5.81 g/m*3 4.9 C 0 km/h
620 25-10-2010 04:01:05 5 C 5.78 g/m*3 5 C 0 km/h
621 25-10-2010 04:13:05 5.1 C 5.75 g/m*3 5.1 C 0 km/h
622 25-10-2010 04:25:05 5.1 C 5.75 g/m*3 5.1 C 0 km/h
623 25-10-2010 04:37:05 5.1 C 5.68 g/m*3 5.1 C 0 km/h
624 25-10-2010 04:49:05 5.2 C 5.71 g/m*3 5.2 C 0 km/h
625 25-10-2010 05:01:05 5.2 C 5.71 g/m*3 5.2 C 0 km/h
Sensor: Nr:Datum:Temp:Abs-Feuchte:Windchill:Wind:
Aussen-T/F 626 25-10-2010 05:13:06 5.2 C 5.65 g/m*3 5.2 C 0 km/h
627 25-10-2010 05:25:06 5.1 C 5.61 g/m*3 5.1 C 0 km/h
628 25-10-2010 05:37:06 5 C 5.57 g/m*3 5 C 0 km/h
629 25-10-2010 05:49:06 5 C 5.57 g/m*3 5 C 0 km/h
630 25-10-2010 06:01:06 5 C 5.57 g/m*3 5 C 0 km/h
631 25-10-2010 06:13:06 5.1 C 5.61 g/m*3 5.1 C 0 km/h
632 25-10-2010 06:25:06 5.1 C 5.54 g/m*3 5.1 C 0 km/h
633 25-10-2010 06:37:06 5 C 5.5 g/m*3 5 C 0 km/h
634 25-10-2010 06:49:02 5 C 5.5 g/m*3 5 C 0 km/h
635 25-10-2010 07:01:02 5 C 5.5 g/m*3 5 C 0 km/h
636 25-10-2010 07:13:02 4.9 C 5.54 g/m*3 4.9 C 0 km/h
637 25-10-2010 07:25:02 4.8 C 5.5 g/m*3 4.8 C 0 km/h
638 25-10-2010 07:37:02 4.8 C 5.5 g/m*3 4.8 C 0 km/h
639 25-10-2010 07:49:02 4.8 C 5.5 g/m*3 4.8 C 0 km/h
640 25-10-2010 08:01:02 4.9 C 5.54 g/m*3 4.9 C 0 km/h
641 25-10-2010 08:13:02 4.9 C 5.54 g/m*3 4.9 C 0 km/h
642 25-10-2010 08:25:02 4.8 C 5.5 g/m*3 4.8 C 0 km/h
643 25-10-2010 08:37:02 4.9 C 5.54 g/m*3 4.9 C 0 km/h
644 25-10-2010 08:49:01 5 C 5.5 g/m*3 5 C 0 km/h
645 25-10-2010 09:01:01 5 C 5.5 g/m*3 5 C 0 km/h
646 25-10-2010 09:13:02 5 C 5.44 g/m*3 5 C 0 km/h
647 25-10-2010 09:25:01 5 C 5.44 g/m*3 5 C 0 km/h
648 25-10-2010 09:37:01 5 C 5.44 g/m*3 5 C 0 km/h
649 25-10-2010 09:49:02 5.3 C 5.54 g/m*3 5.3 C 0 km/h
650 25-10-2010 10:01:02 5.5 C 5.55 g/m*3 5.5 C 0 km/h
Sensor: Nr:Datum:Temp:Abs-Feuchte:Windchill:Wind:
Aussen-T/F 651 25-10-2010 10:13:02 5.9 C 5.62 g/m*3 5.9 C 0 km/h
652 25-10-2010 10:25:03 5.8 C 5.44 g/m*3 5.8 C 0 km/h
653 25-10-2010 10:37:02 5.8 C 5.44 g/m*3 5.8 C 0 km/h
654 25-10-2010 10:49:03 6 C 5.44 g/m*3 6 C 0 km/h
655 25-10-2010 11:01:02 6.2 C 5.44 g/m*3 6.2 C 0 km/h
656 25-10-2010 11:13:02 6.4 C 5.44 g/m*3 6.4 C 0 km/h
657 25-10-2010 11:25:02 6.5 C 5.4 g/m*3 6.5 C 0 km/h
658 25-10-2010 11:37:02 6.6 C 5.44 g/m*3 6.6 C 0 km/h
659 25-10-2010 11:49:02 7 C 5.5 g/m*3 7 C 0 km/h
660 25-10-2010 12:01:01 7.3 C 5.37 g/m*3 7.3 C 0 km/h
661 25-10-2010 12:13:01 8 C 5.54 g/m*3 8 C 0 km/h
662 25-10-2010 12:25:02 8.2 C 5.28 g/m*3 8.2 C 0 km/h
663 25-10-2010 12:37:01 7.6 C 5.16 g/m*3 7.6 C 0 km/h
664 25-10-2010 12:49:02 8.1 C 5.16 g/m*3 8.1 C 0 km/h
665 25-10-2010 13:01:02 8.2 C 5.02 g/m*3 8.2 C 0 km/h
666 25-10-2010 13:13:02 8.4 C 5.01 g/m*3 8.4 C 0 km/h
667 25-10-2010 13:25:02 8.7 C 5.36 g/m*3 8.7 C 0 km/h
668 25-10-2010 13:37:03 8.9 C 5.08 g/m*3 8.9 C 0 km/h
669 25-10-2010 13:49:02 9.5 C 5.1 g/m*3 9.5 C 0 km/h
670 25-10-2010 14:01:02 9.7 C 4.79 g/m*3 9.7 C 0 km/h
671 25-10-2010 14:13:02 9.6 C 4.86 g/m*3 9.6 C 0 km/h
672 25-10-2010 14:25:01 10.1 C 4.73 g/m*3 10.1 C 0 km/h
673 25-10-2010 14:37:02 10.4 C 4.63 g/m*3 10.4 C 0 km/h
674 25-10-2010 14:49:02 10.7 C 4.13 g/m*3 10.7 C 0 km/h
675 25-10-2010 15:01:02 10.4 C 4.05 g/m*3 10.4 C 0 km/h
Sensor: Nr:Datum:Temp:Abs-Feuchte:Windchill:Wind:
Aussen-T/F 676 25-10-2010 15:13:02 10.4 C 3.95 g/m*3 10.4 C 0 km/h
677 25-10-2010 15:25:01 10.2 C 3.81 g/m*3 10.2 C 0 km/h
678 25-10-2010 15:37:02 10.4 C 3.76 g/m*3 10.4 C 0 km/h
679 25-10-2010 15:49:02 10.6 C 4 g/m*3 10.6 C 0 km/h
680 25-10-2010 16:01:02 11.7 C 4.08 g/m*3 11.7 C 0 km/h
681 25-10-2010 16:13:02 10.4 C 3.66 g/m*3 10.4 C 0 km/h
682 25-10-2010 16:25:01 10.5 C 3.98 g/m*3 10.5 C 0 km/h
683 25-10-2010 16:37:02 10.5 C 3.88 g/m*3 10.5 C 0 km/h
684 25-10-2010 16:49:01 10.5 C 3.98 g/m*3 10.5 C 0 km/h
685 25-10-2010 17:01:02 10.9 C 4.18 g/m*3 10.9 C 0 km/h
686 25-10-2010 17:13:02 11.1 C 4.03 g/m*3 11.1 C 0 km/h
687 25-10-2010 17:25:02 11.2 C 4.05 g/m*3 11.2 C 0 km/h
688 25-10-2010 17:37:02 10.4 C 3.95 g/m*3 10.4 C 0 km/h
689 25-10-2010 17:49:02 9.8 C 4.08 g/m*3 9.8 C 0 km/h
690 25-10-2010 18:01:01 9.2 C 4.11 g/m*3 9.2 C 0 km/h
691 25-10-2010 18:13:01 8.9 C 4.2 g/m*3 8.9 C 0 km/h
692 25-10-2010 18:25:02 8.3 C 4.21 g/m*3 8.3 C 0 km/h
693 25-10-2010 18:37:01 8 C 4.22 g/m*3 8 C 0 km/h
694 25-10-2010 18:49:02 7.4 C 4.45 g/m*3 7.4 C 0 km/h
695 25-10-2010 19:01:01 7 C 4.49 g/m*3 7 C 0 km/h
696 25-10-2010 19:13:01 6.7 C 4.71 g/m*3 6.7 C 0 km/h
697 25-10-2010 19:25:01 6.2 C 4.71 g/m*3 6.2 C 0 km/h
698 25-10-2010 19:37:02 5.8 C 4.73 g/m*3 5.8 C 0 km/h
699 25-10-2010 19:49:02 5.4 C 4.74 g/m*3 5.4 C 0 km/h
700 25-10-2010 20:01:01 5 C 4.69 g/m*3 5 C 0 km/h
Sensor: Nr:Datum:Temp:Abs-Feuchte:Windchill:Wind:
Aussen-T/F 701 25-10-2010 20:13:01 4.7 C 4.73 g/m*3 4.7 C 0 km/h
702 25-10-2010 20:25:02 4.7 C 4.86 g/m*3 4.7 C 0 km/h
703 25-10-2010 20:37:02 4.5 C 4.8 g/m*3 4.5 C 0 km/h
704 25-10-2010 20:49:02 4.4 C 4.77 g/m*3 4.4 C 0 km/h
705 25-10-2010 21:01:03 4.3 C 4.86 g/m*3 4.3 C 0 km/h
706 25-10-2010 21:13:03 4.1 C 4.93 g/m*3 4.1 C 0 km/h
707 25-10-2010 21:25:02 3.9 C 4.93 g/m*3 3.9 C 0 km/h
708 25-10-2010 21:37:02 3.7 C 4.92 g/m*3 3.7 C 0 km/h
709 25-10-2010 21:49:01 3.6 C 4.95 g/m*3 3.6 C 0 km/h
710 25-10-2010 22:01:01 3.4 C 4.95 g/m*3 3.4 C 0 km/h
711 25-10-2010 22:13:01 3.1 C 4.79 g/m*3 3.1 C 0 km/h
712 25-10-2010 22:25:01 3 C 4.76 g/m*3 3 C 0 km/h
713 25-10-2010 22:37:02 2.9 C 4.84 g/m*3 2.9 C 0 km/h
714 25-10-2010 22:49:02 2.6 C 4.8 g/m*3 2.6 C 0 km/h
715 25-10-2010 23:01:02 2.4 C 4.8 g/m*3 2.4 C 0 km/h
716 25-10-2010 23:13:02 2.4 C 4.8 g/m*3 2.4 C 0 km/h
717 25-10-2010 23:25:02 2.2 C 4.73 g/m*3 2.2 C 0 km/h
718 25-10-2010 23:37:02 2.2 C 4.79 g/m*3 2.2 C 0 km/h
719 25-10-2010 23:49:01 2.2 C 4.84 g/m*3 2.2 C 0 km/h
720 26-10-2010 00:01:02 2.2 C 4.84 g/m*3 2.2 C 0 km/h
721 26-10-2010 00:13:02 2 C 4.78 g/m*3 2 C 0 km/h
722 26-10-2010 00:25:01 1.8 C 4.77 g/m*3 1.8 C 0 km/h
723 26-10-2010 00:37:01 1.7 C 4.74 g/m*3 1.7 C 0 km/h
724 26-10-2010 00:49:02 1.7 C 4.79 g/m*3 1.7 C 0 km/h
725 26-10-2010 01:01:01 1.6 C 4.76 g/m*3 1.6 C 0 km/h
Sensor: Nr:Datum:Temp:Abs-Feuchte:Windchill:Wind:
Aussen-T/F 726 26-10-2010 01:13:01 1.6 C 4.81 g/m*3 1.6 C 0 km/h
727 26-10-2010 01:25:02 1.6 C 4.81 g/m*3 1.6 C 0 km/h
728 26-10-2010 01:37:02 1.4 C 4.75 g/m*3 1.4 C 0 km/h
729 26-10-2010 01:49:01 1.2 C 4.68 g/m*3 1.2 C 0 km/h
730 26-10-2010 02:01:02 1 C 4.62 g/m*3 1 C 0 km/h
731 26-10-2010 02:13:02 0.8 C 4.61 g/m*3 0.8 C 0 km/h
732 26-10-2010 02:25:01 0.7 C 4.63 g/m*3 0.7 C 0 km/h
733 26-10-2010 02:37:01 0.8 C 4.66 g/m*3 0.8 C 0 km/h
734 26-10-2010 02:50:03 0.8 C 4.71 g/m*3 0.8 C 0 km/h
735 26-10-2010 03:02:03 0.7 C 4.63 g/m*3 0.7 C 0 km/h
736 26-10-2010 03:14:04 0.4 C 4.53 g/m*3 0.4 C 0 km/h
737 26-10-2010 03:26:04 0.3 C 4.5 g/m*3 0.3 C 0 km/h
738 26-10-2010 03:38:02 0.1 C 4.44 g/m*3 0.1 C 0 km/h
739 26-10-2010 03:50:02 0 C 4.41 g/m*3 0 C 0 km/h
740 26-10-2010 04:02:02 0.1 C 4.49 g/m*3 0.1 C 0 km/h
741 26-10-2010 04:14:02 0.1 C 4.49 g/m*3 0.1 C 0 km/h
742 26-10-2010 04:26:02 0.2 C 4.52 g/m*3 0.2 C 0 km/h
743 26-10-2010 04:38:02 0.1 C 4.54 g/m*3 0.1 C 0 km/h
744 26-10-2010 04:50:02 0.1 C 4.54 g/m*3 0.1 C 0 km/h
745 26-10-2010 05:02:02 0.1 C 4.54 g/m*3 0.1 C 0 km/h
746 26-10-2010 05:14:02 0 C 4.51 g/m*3 0 C 0 km/h
747 26-10-2010 05:26:02 0.1 C 4.59 g/m*3 0.1 C 0 km/h
748 26-10-2010 05:38:02 0.1 C 4.59 g/m*3 0.1 C 0 km/h
749 26-10-2010 05:50:01 0.1 C 4.59 g/m*3 0.1 C 0 km/h
750 26-10-2010 06:02:01 0.2 C 4.62 g/m*3 0.2 C 0 km/h
Sensor: Nr:Datum:Temp:Abs-Feuchte:Windchill:Wind:
Aussen-T/F 751 26-10-2010 06:14:01 0.2 C 4.62 g/m*3 0.2 C 0 km/h
752 26-10-2010 06:26:01 0.2 C 4.62 g/m*3 0.2 C 0 km/h
753 26-10-2010 06:38:01 0.2 C 4.62 g/m*3 0.2 C 0 km/h
754 26-10-2010 06:50:01 -0.1 C 4.52 g/m*3 -0.1 C 0 km/h
755 26-10-2010 07:02:01 -0.1 C 4.52 g/m*3 -0.1 C 0 km/h
756 26-10-2010 07:14:01 -0.2 C 4.49 g/m*3 -0.2 C 0 km/h
757 26-10-2010 07:26:02 -0.3 C 4.46 g/m*3 -0.3 C 0 km/h
758 26-10-2010 07:38:01 -0.5 C 4.4 g/m*3 -0.5 C 0 km/h
759 26-10-2010 07:50:02 -0.5 C 4.4 g/m*3 -0.5 C 0 km/h
760 26-10-2010 08:02:02 -0.5 C 4.4 g/m*3 -0.5 C 0 km/h
761 26-10-2010 08:14:02 -0.5 C 4.4 g/m*3 -0.5 C 0 km/h
762 26-10-2010 08:26:03 -0.4 C 4.43 g/m*3 -0.4 C 0 km/h
763 26-10-2010 08:38:02 -0.4 C 4.43 g/m*3 -0.4 C 0 km/h
764 26-10-2010 08:50:02 -0.3 C 4.46 g/m*3 -0.3 C 0 km/h
765 26-10-2010 09:02:02 -0.1 C 4.52 g/m*3 -0.1 C 0 km/h
766 26-10-2010 09:14:02 -0.3 C 4.46 g/m*3 -0.3 C 0 km/h
767 26-10-2010 09:26:02 -0.5 C 4.4 g/m*3 -0.5 C 0 km/h
768 26-10-2010 09:38:02 -0.5 C 4.4 g/m*3 -0.5 C 0 km/h
769 26-10-2010 09:50:02 -0.4 C 4.43 g/m*3 -0.4 C 0 km/h
770 26-10-2010 10:02:01 -0.3 C 4.46 g/m*3 -0.3 C 0 km/h
771 26-10-2010 10:14:01 -0.1 C 4.52 g/m*3 -0.1 C 0 km/h
772 26-10-2010 10:26:02 0.1 C 4.59 g/m*3 0.1 C 0 km/h
773 26-10-2010 10:38:01 0.3 C 4.65 g/m*3 0.3 C 0 km/h
774 26-10-2010 10:50:03 0.5 C 4.66 g/m*3 0.5 C 0 km/h
775 26-10-2010 11:02:02 0.8 C 4.76 g/m*3 0.8 C 0 km/h
Sensor: Nr:Datum:Temp:Abs-Feuchte:Windchill:Wind:
Aussen-T/F 776 26-10-2010 11:14:02 0.8 C 4.71 g/m*3 0.8 C 0 km/h
777 26-10-2010 11:26:02 1.1 C 4.76 g/m*3 1.1 C 0 km/h
778 26-10-2010 11:38:03 1.5 C 4.89 g/m*3 1.5 C 0 km/h
779 26-10-2010 11:50:02 1.9 C 4.97 g/m*3 1.9 C 0 km/h
780 26-10-2010 12:02:01 2.1 C 4.92 g/m*3 2.1 C 0 km/h
781 26-10-2010 12:14:01 2.9 C 5.2 g/m*3 2.9 C 0 km/h
782 26-10-2010 12:26:02 3.4 C 5.31 g/m*3 3.4 C 0 km/h
783 26-10-2010 12:38:02 3.4 C 5.19 g/m*3 3.4 C 0 km/h
784 26-10-2010 12:50:02 4 C 5.34 g/m*3 4 C 0 km/h
785 26-10-2010 13:02:02 4.3 C 5.38 g/m*3 4.3 C 0 km/h
786 26-10-2010 13:14:02 4.7 C 5.53 g/m*3 4.7 C 0 km/h
787 26-10-2010 13:26:02 5.5 C 5.69 g/m*3 5.5 C 0 km/h
788 26-10-2010 13:38:02 6.2 C 5.74 g/m*3 6.2 C 0 km/h
789 26-10-2010 13:50:02 7 C 5.66 g/m*3 7 C 0 km/h
790 26-10-2010 14:02:03 7.8 C 5.71 g/m*3 7.8 C 0 km/h
791 26-10-2010 14:14:03 8.4 C 5.51 g/m*3 8.4 C 0 km/h
792 26-10-2010 14:26:02 9.1 C 5.5 g/m*3 9.1 C 0 km/h
793 26-10-2010 14:38:02 9.5 C 5.46 g/m*3 9.5 C 0 km/h
794 26-10-2010 14:50:01 9.6 C 5.31 g/m*3 9.6 C 0 km/h
795 26-10-2010 15:02:01 9.5 C 5.19 g/m*3 9.5 C 0 km/h
796 26-10-2010 15:14:01 9.4 C 5.25 g/m*3 9.4 C 0 km/h
797 26-10-2010 15:26:01 9.6 C 5.4 g/m*3 9.6 C 0 km/h
798 26-10-2010 15:38:01 10 C 5.26 g/m*3 10 C 0 km/h
799 26-10-2010 15:50:02 10.1 C 5.3 g/m*3 10.1 C 0 km/h
800 26-10-2010 16:02:02 9.9 C 5.32 g/m*3 9.9 C 0 km/h
Sensor: Nr:Datum:Temp:Abs-Feuchte:Windchill:Wind:
Aussen-T/F 801 26-10-2010 16:14:02 9.6 C 5.31 g/m*3 9.6 C 0 km/h
802 26-10-2010 16:26:03 9.3 C 5.39 g/m*3 9.3 C 0 km/h
803 26-10-2010 16:38:02 8.9 C 5.43 g/m*3 8.9 C 0 km/h
804 26-10-2010 16:50:02 8.5 C 5.55 g/m*3 8.5 C 0 km/h
805 26-10-2010 17:02:02 8.4 C 5.68 g/m*3 8.4 C 0 km/h
806 26-10-2010 17:14:02 8.2 C 5.61 g/m*3 8.2 C 0 km/h
807 26-10-2010 17:26:02 8 C 5.62 g/m*3 8 C 0 km/h
808 26-10-2010 17:38:02 7.9 C 5.75 g/m*3 7.9 C 0 km/h
809 26-10-2010 17:50:02 7.7 C 5.76 g/m*3 7.7 C 0 km/h
810 26-10-2010 18:02:01 7.4 C 5.65 g/m*3 7.4 C 0 km/h
811 26-10-2010 18:14:01 7.2 C 5.65 g/m*3 7.2 C 0 km/h
812 26-10-2010 18:26:02 7.1 C 5.62 g/m*3 7.1 C 0 km/h
813 26-10-2010 18:38:02 6.9 C 5.62 g/m*3 6.9 C 0 km/h
814 26-10-2010 18:50:02 6.8 C 5.66 g/m*3 6.8 C 0 km/h
815 26-10-2010 19:02:03 6.8 C 5.66 g/m*3 6.8 C 0 km/h
816 26-10-2010 19:14:03 6.6 C 5.66 g/m*3 6.6 C 0 km/h
817 26-10-2010 19:26:02 6.6 C 5.74 g/m*3 6.6 C 0 km/h
818 26-10-2010 19:38:02 6.5 C 5.7 g/m*3 6.5 C 0 km/h
819 26-10-2010 19:50:01 6.4 C 5.66 g/m*3 6.4 C 0 km/h
820 26-10-2010 20:02:02 6.4 C 5.66 g/m*3 6.4 C 0 km/h
821 26-10-2010 20:14:02 6.4 C 5.66 g/m*3 6.4 C 0 km/h
822 26-10-2010 20:26:01 6.4 C 5.66 g/m*3 6.4 C 0 km/h
823 26-10-2010 20:38:02 6.3 C 5.63 g/m*3 6.3 C 0 km/h
824 26-10-2010 20:50:02 6.2 C 5.66 g/m*3 6.2 C 0 km/h
825 26-10-2010 21:02:02 6.1 C 5.63 g/m*3 6.1 C 0 km/h
Sensor: Nr:Datum:Temp:Abs-Feuchte:Windchill:Wind:
Aussen-T/F 826 26-10-2010 21:14:02 6.1 C 5.63 g/m*3 6.1 C 0 km/h
827 26-10-2010 21:26:01 6.2 C 5.52 g/m*3 6.2 C 0 km/h
828 26-10-2010 21:38:02 6 C 5.52 g/m*3 6 C 0 km/h
829 26-10-2010 21:50:01 5.9 C 5.62 g/m*3 5.9 C 0 km/h
830 26-10-2010 22:02:02 5.7 C 5.62 g/m*3 5.7 C 0 km/h
831 26-10-2010 22:14:02 5.7 C 5.69 g/m*3 5.7 C 0 km/h
832 26-10-2010 22:26:02 5.7 C 5.69 g/m*3 5.7 C 0 km/h
833 26-10-2010 22:39:02 5.7 C 5.76 g/m*3 5.7 C 0 km/h
834 26-10-2010 22:51:02 5.7 C 5.76 g/m*3 5.7 C 0 km/h
835 26-10-2010 23:03:02 5.7 C 5.76 g/m*3 5.7 C 0 km/h
836 26-10-2010 23:15:02 5.7 C 5.76 g/m*3 5.7 C 0 km/h
837 26-10-2010 23:27:02 5.7 C 5.76 g/m*3 5.7 C 0 km/h
838 26-10-2010 23:39:02 5.5 C 5.69 g/m*3 5.5 C 0 km/h
839 26-10-2010 23:51:02 5.4 C 5.65 g/m*3 5.4 C 0 km/h
840 27-10-2010 00:03:02 5.4 C 5.72 g/m*3 5.4 C 0 km/h
841 27-10-2010 00:15:02 5.4 C 5.72 g/m*3 5.4 C 0 km/h
842 27-10-2010 00:27:02 5.2 C 5.58 g/m*3 5.2 C 0 km/h
843 27-10-2010 00:39:02 5 C 5.5 g/m*3 5 C 0 km/h
844 27-10-2010 00:51:02 4.8 C 5.5 g/m*3 4.8 C 0 km/h
845 27-10-2010 01:03:02 5.1 C 5.34 g/m*3 5.1 C 0 km/h
846 27-10-2010 01:15:03 5.2 C 5.23 g/m*3 5.2 C 0 km/h
847 27-10-2010 01:27:03 5.3 C 5.2 g/m*3 5.3 C 0 km/h
848 27-10-2010 01:39:03 5.5 C 5.06 g/m*3 5.5 C 0 km/h
849 27-10-2010 01:51:03 5.7 C 4.84 g/m*3 5.7 C 0 km/h
850 27-10-2010 02:03:03 5.7 C 4.91 g/m*3 5.7 C 0 km/h
Sensor: Nr:Datum:Temp:Abs-Feuchte:Windchill:Wind:
Aussen-T/F 851 27-10-2010 02:15:03 5.5 C 5.06 g/m*3 5.5 C 0 km/h
852 27-10-2010 02:27:03 5.6 C 5.16 g/m*3 5.6 C 0 km/h
853 27-10-2010 02:39:03 5.5 C 5.2 g/m*3 5.5 C 0 km/h
854 27-10-2010 02:51:03 5.4 C 5.23 g/m*3 5.4 C 0 km/h
855 27-10-2010 03:03:03 5.6 C 5.23 g/m*3 5.6 C 0 km/h
856 27-10-2010 03:15:03 5.6 C 5.3 g/m*3 5.6 C 0 km/h
857 27-10-2010 03:27:03 5.4 C 5.23 g/m*3 5.4 C 0 km/h
858 27-10-2010 03:39:03 5.4 C 5.3 g/m*3 5.4 C 0 km/h
859 27-10-2010 03:51:03 5.4 C 5.23 g/m*3 5.4 C 0 km/h
860 27-10-2010 04:03:03 5.4 C 5.23 g/m*3 5.4 C 0 km/h
861 27-10-2010 04:15:03 5.4 C 5.23 g/m*3 5.4 C 0 km/h
862 27-10-2010 04:27:03 5.4 C 5.3 g/m*3 5.4 C 0 km/h
863 27-10-2010 04:39:03 5.4 C 5.23 g/m*3 5.4 C 0 km/h
864 27-10-2010 04:51:03 5.5 C 5.2 g/m*3 5.5 C 0 km/h
865 27-10-2010 05:03:03 5.6 C 5.16 g/m*3 5.6 C 0 km/h
866 27-10-2010 05:15:03 5.7 C 5.12 g/m*3 5.7 C 0 km/h
867 27-10-2010 05:27:03 5.7 C 5.19 g/m*3 5.7 C 0 km/h
868 27-10-2010 05:39:03 5.6 C 5.16 g/m*3 5.6 C 0 km/h
869 27-10-2010 05:51:04 5.6 C 5.16 g/m*3 5.6 C 0 km/h
870 27-10-2010 06:03:04 5.6 C 5.16 g/m*3 5.6 C 0 km/h
871 27-10-2010 06:15:04 5.7 C 5.19 g/m*3 5.7 C 0 km/h
872 27-10-2010 06:27:04 5.7 C 5.27 g/m*3 5.7 C 0 km/h
873 27-10-2010 06:39:04 5.7 C 5.27 g/m*3 5.7 C 0 km/h
874 27-10-2010 06:51:04 5.7 C 5.19 g/m*3 5.7 C 0 km/h
875 27-10-2010 07:03:04 5.7 C 5.19 g/m*3 5.7 C 0 km/h
Sensor: Nr:Datum:Temp:Abs-Feuchte:Windchill:Wind:
Aussen-T/F 876 27-10-2010 07:15:04 5.7 C 5.19 g/m*3 5.7 C 0 km/h
877 27-10-2010 07:27:04 5.7 C 5.19 g/m*3 5.7 C 0 km/h
878 27-10-2010 07:39:03 5.8 C 5.16 g/m*3 5.8 C 0 km/h
879 27-10-2010 07:51:02 5.9 C 5.05 g/m*3 5.9 C 0 km/h
880 27-10-2010 08:03:01 5.9 C 4.98 g/m*3 5.9 C 0 km/h
881 27-10-2010 08:15:02 5.9 C 5.05 g/m*3 5.9 C 0 km/h
882 27-10-2010 08:27:02 5.7 C 5.05 g/m*3 5.7 C 0 km/h
883 27-10-2010 08:39:02 5.5 C 5.13 g/m*3 5.5 C 0 km/h
884 27-10-2010 08:51:02 5.4 C 5.23 g/m*3 5.4 C 0 km/h
885 27-10-2010 09:03:03 5.5 C 5.48 g/m*3 5.5 C 0 km/h
886 27-10-2010 09:15:02 5.6 C 5.51 g/m*3 5.6 C 0 km/h
887 27-10-2010 09:27:02 5.8 C 5.66 g/m*3 5.8 C 0 km/h
888 27-10-2010 09:39:02 6 C 5.73 g/m*3 6 C 0 km/h
889 27-10-2010 09:51:01 6.3 C 5.85 g/m*3 6.3 C 0 km/h
890 27-10-2010 10:03:02 6.5 C 5.85 g/m*3 6.5 C 0 km/h
891 27-10-2010 10:15:01 6.8 C 5.89 g/m*3 6.8 C 0 km/h
892 27-10-2010 10:27:01 7 C 5.89 g/m*3 7 C 0 km/h
893 27-10-2010 10:39:01 7.3 C 5.77 g/m*3 7.3 C 0 km/h
894 27-10-2010 10:51:01 7.4 C 5.57 g/m*3 7.4 C 0 km/h
895 27-10-2010 11:03:01 7.6 C 5.56 g/m*3 7.6 C 0 km/h
896 27-10-2010 11:15:02 7.8 C 5.55 g/m*3 7.8 C 0 km/h
897 27-10-2010 11:27:02 8.2 C 5.53 g/m*3 8.2 C 0 km/h
898 27-10-2010 11:39:01 8.6 C 5.41 g/m*3 8.6 C 0 km/h
899 27-10-2010 11:51:02 8.9 C 5.17 g/m*3 8.9 C 0 km/h
900 27-10-2010 12:03:01 9.1 C 4.7 g/m*3 9.1 C 0 km/h
Sensor: Nr:Datum:Temp:Abs-Feuchte:Windchill:Wind:
Aussen-T/F 901 27-10-2010 12:15:02 9.4 C 4.43 g/m*3 9.4 C 0 km/h
902 27-10-2010 12:27:02 9.5 C 4.37 g/m*3 9.5 C 0 km/h
903 27-10-2010 12:39:01 9.8 C 4.36 g/m*3 9.8 C 0 km/h
904 27-10-2010 12:51:02 10.3 C 4.41 g/m*3 10.3 C 0 km/h
905 27-10-2010 13:03:02 10.7 C 4.22 g/m*3 10.7 C 0 km/h
906 27-10-2010 13:15:02 10.8 C 3.95 g/m*3 10.8 C 0 km/h
907 27-10-2010 13:27:02 11.1 C 3.73 g/m*3 11.1 C 0 km/h
908 27-10-2010 13:39:02 11 C 3.6 g/m*3 11 C 0 km/h
909 27-10-2010 13:51:02 11 C 3.7 g/m*3 11 C 0 km/h
910 27-10-2010 14:03:02 11 C 3.7 g/m*3 11 C 0 km/h
911 27-10-2010 14:15:01 11 C 3.8 g/m*3 11 C 0 km/h
912 27-10-2010 14:27:01 11 C 3.5 g/m*3 11 C 0 km/h
913 27-10-2010 14:39:02 11.1 C 3.63 g/m*3 11.1 C 0 km/h
914 27-10-2010 14:51:02 11.2 C 3.55 g/m*3 11.2 C 0 km/h
915 27-10-2010 15:03:02 11.3 C 3.57 g/m*3 11.3 C 0 km/h
916 27-10-2010 15:15:02 11.5 C 3.51 g/m*3 11.5 C 0 km/h
917 27-10-2010 15:27:02 11.7 C 3.66 g/m*3 11.7 C 0 km/h
918 27-10-2010 15:39:02 11.6 C 3.64 g/m*3 11.6 C 0 km/h
919 27-10-2010 15:51:02 11.7 C 3.35 g/m*3 11.7 C 0 km/h
920 27-10-2010 16:03:02 11.8 C 3.58 g/m*3 11.8 C 0 km/h
921 27-10-2010 16:15:03 11.9 C 3.39 g/m*3 11.9 C 0 km/h
922 27-10-2010 16:27:03 12.1 C 3.43 g/m*3 12.1 C 0 km/h
923 27-10-2010 16:39:02 12.1 C 3.32 g/m*3 12.1 C 0 km/h
924 27-10-2010 16:51:02 12 C 3.41 g/m*3 12 C 0 km/h
925 27-10-2010 17:03:02 11.9 C 3.6 g/m*3 11.9 C 0 km/h
Sensor: Nr:Datum:Temp:Abs-Feuchte:Windchill:Wind:
Aussen-T/F 926 27-10-2010 17:15:02 11.8 C 3.68 g/m*3 11.8 C 0 km/h
927 27-10-2010 17:27:02 11.6 C 3.33 g/m*3 11.6 C 0 km/h
928 27-10-2010 17:39:02 11.5 C 3.51 g/m*3 11.5 C 0 km/h
929 27-10-2010 17:51:02 11.2 C 3.65 g/m*3 11.2 C 0 km/h
930 27-10-2010 18:03:02 10.9 C 4.08 g/m*3 10.9 C 0 km/h
931 27-10-2010 18:15:02 10.6 C 4.2 g/m*3 10.6 C 0 km/h
932 27-10-2010 18:27:03 10.4 C 4.14 g/m*3 10.4 C 0 km/h
933 27-10-2010 18:39:01 10.1 C 4.63 g/m*3 10.1 C 0 km/h
934 27-10-2010 18:51:02 10.2 C 4.28 g/m*3 10.2 C 0 km/h
935 27-10-2010 19:03:01 10.2 C 4.38 g/m*3 10.2 C 0 km/h
936 27-10-2010 19:15:02 10.1 C 4.54 g/m*3 10.1 C 0 km/h
937 27-10-2010 19:27:02 10 C 4.32 g/m*3 10 C 0 km/h
938 27-10-2010 19:39:02 10 C 4.42 g/m*3 10 C 0 km/h
939 27-10-2010 19:51:02 9.9 C 4.39 g/m*3 9.9 C 0 km/h
940 27-10-2010 20:03:02 9.8 C 4.55 g/m*3 9.8 C 0 km/h
941 27-10-2010 20:15:02 9.7 C 4.33 g/m*3 9.7 C 0 km/h
942 27-10-2010 20:27:02 9.9 C 4.48 g/m*3 9.9 C 0 km/h
943 27-10-2010 20:39:02 9.8 C 4.36 g/m*3 9.8 C 0 km/h
944 27-10-2010 20:51:01 9.8 C 4.36 g/m*3 9.8 C 0 km/h
945 27-10-2010 21:03:02 9.7 C 4.61 g/m*3 9.7 C 0 km/h
946 27-10-2010 21:15:01 9.6 C 4.76 g/m*3 9.6 C 0 km/h
947 27-10-2010 21:27:01 9.6 C 4.49 g/m*3 9.6 C 0 km/h
948 27-10-2010 21:39:02 9.5 C 4.82 g/m*3 9.5 C 0 km/h
949 27-10-2010 21:51:02 9.4 C 4.88 g/m*3 9.4 C 0 km/h
950 27-10-2010 22:03:02 9.3 C 4.94 g/m*3 9.3 C 0 km/h
Sensor: Nr:Datum:Temp:Abs-Feuchte:Windchill:Wind:
Aussen-T/F 951 27-10-2010 22:15:01 9.2 C 4.91 g/m*3 9.2 C 0 km/h
952 27-10-2010 22:27:01 9.1 C 4.97 g/m*3 9.1 C 0 km/h
953 27-10-2010 22:39:02 9.2 C 4.91 g/m*3 9.2 C 0 km/h
954 27-10-2010 22:51:01 9.2 C 4.73 g/m*3 9.2 C 0 km/h
955 27-10-2010 23:03:02 9.2 C 4.55 g/m*3 9.2 C 0 km/h
956 27-10-2010 23:15:02 9.1 C 4.88 g/m*3 9.1 C 0 km/h
957 27-10-2010 23:27:02 9 C 4.85 g/m*3 9 C 0 km/h
958 27-10-2010 23:39:02 8.9 C 4.99 g/m*3 8.9 C 0 km/h
959 27-10-2010 23:51:02 8.9 C 4.99 g/m*3 8.9 C 0 km/h
960 28-10-2010 00:03:02 8.8 C 4.79 g/m*3 8.8 C 0 km/h
961 28-10-2010 00:15:02 8.7 C 4.84 g/m*3 8.7 C 0 km/h
962 28-10-2010 00:27:02 8.7 C 4.93 g/m*3 8.7 C 0 km/h
963 28-10-2010 00:39:02 8.6 C 4.9 g/m*3 8.6 C 0 km/h
964 28-10-2010 00:51:01 8.5 C 4.87 g/m*3 8.5 C 0 km/h
965 28-10-2010 01:03:02 8.5 C 4.87 g/m*3 8.5 C 0 km/h
966 28-10-2010 01:15:02 8.5 C 4.87 g/m*3 8.5 C 0 km/h
967 28-10-2010 01:27:02 8.5 C 4.87 g/m*3 8.5 C 0 km/h
968 28-10-2010 01:39:01 8.4 C 4.92 g/m*3 8.4 C 0 km/h
969 28-10-2010 01:51:02 8.4 C 5.01 g/m*3 8.4 C 0 km/h
970 28-10-2010 02:03:01 8.3 C 4.97 g/m*3 8.3 C 0 km/h
971 28-10-2010 02:15:02 8.1 C 4.99 g/m*3 8.1 C 0 km/h
972 28-10-2010 02:27:02 8 C 5.04 g/m*3 8 C 0 km/h
973 28-10-2010 02:39:02 8 C 5.13 g/m*3 8 C 0 km/h
974 28-10-2010 02:52:04 7.9 C 5.09 g/m*3 7.9 C 0 km/h
975 28-10-2010 03:04:05 7.8 C 4.98 g/m*3 7.8 C 0 km/h
Sensor: Nr:Datum:Temp:Abs-Feuchte:Windchill:Wind:
Aussen-T/F 976 28-10-2010 03:16:04 7.5 C 4.8 g/m*3 7.5 C 0 km/h
977 28-10-2010 03:28:04 7.5 C 4.72 g/m*3 7.5 C 0 km/h
978 28-10-2010 03:40:02 7.6 C 4.91 g/m*3 7.6 C 0 km/h
979 28-10-2010 03:52:02 7.7 C 4.87 g/m*3 7.7 C 0 km/h
980 28-10-2010 04:04:02 7.7 C 4.95 g/m*3 7.7 C 0 km/h
981 28-10-2010 04:16:02 7.7 C 5.03 g/m*3 7.7 C 0 km/h
982 28-10-2010 04:28:03 7.6 C 5.08 g/m*3 7.6 C 0 km/h
983 28-10-2010 04:40:01 7.6 C 5.16 g/m*3 7.6 C 0 km/h
984 28-10-2010 04:52:02 7.7 C 5.11 g/m*3 7.7 C 0 km/h
985 28-10-2010 05:04:01 7.6 C 5.08 g/m*3 7.6 C 0 km/h
986 28-10-2010 05:16:01 7.6 C 5.24 g/m*3 7.6 C 0 km/h
987 28-10-2010 05:28:01 7.4 C 5.01 g/m*3 7.4 C 0 km/h
988 28-10-2010 05:40:02 7.4 C 5.01 g/m*3 7.4 C 0 km/h
989 28-10-2010 05:52:02 7.6 C 4.91 g/m*3 7.6 C 0 km/h
990 28-10-2010 06:04:02 7.9 C 4.85 g/m*3 7.9 C 0 km/h
991 28-10-2010 06:16:02 8.1 C 4.33 g/m*3 8.1 C 0 km/h
992 28-10-2010 06:28:02 7.9 C 4.35 g/m*3 7.9 C 0 km/h
993 28-10-2010 06:40:02 7.8 C 4.33 g/m*3 7.8 C 0 km/h
994 28-10-2010 06:52:01 8.2 C 4.19 g/m*3 8.2 C 0 km/h
995 28-10-2010 07:04:02 8.4 C 4.24 g/m*3 8.4 C 0 km/h
996 28-10-2010 07:16:01 8.5 C 4.27 g/m*3 8.5 C 0 km/h
997 28-10-2010 07:28:01 8.6 C 4.38 g/m*3 8.6 C 0 km/h
998 28-10-2010 07:40:01 8.4 C 4.33 g/m*3 8.4 C 0 km/h
999 28-10-2010 07:52:01 8.5 C 4.35 g/m*3 8.5 C 0 km/h
1000 28-10-2010 08:04:02 8.7 C 4.5 g/m*3 8.7 C 0 km/h
Sensor: Nr:Datum:Temp:Abs-Feuchte:Windchill:Wind:
Aussen-T/F 1001 28-10-2010 08:16:01 8.7 C 4.58 g/m*3 8.7 C 0 km/h
1002 28-10-2010 08:28:01 8.6 C 4.73 g/m*3 8.6 C 0 km/h
1003 28-10-2010 08:40:01 8.7 C 4.76 g/m*3 8.7 C 0 km/h
1004 28-10-2010 08:52:02 8.8 C 4.79 g/m*3 8.8 C 0 km/h
1005 28-10-2010 09:04:01 9 C 4.58 g/m*3 9 C 0 km/h
1006 28-10-2010 09:16:02 9.2 C 4.46 g/m*3 9.2 C 0 km/h
1007 28-10-2010 09:28:02 8.9 C 4.99 g/m*3 8.9 C 0 km/h
1008 28-10-2010 09:40:01 8.6 C 5.24 g/m*3 8.6 C 0 km/h
1009 28-10-2010 09:52:02 8.6 C 5.24 g/m*3 8.6 C 0 km/h
1010 28-10-2010 10:04:02 8.1 C 5.66 g/m*3 8.1 C 0 km/h
1011 28-10-2010 10:16:02 7.7 C 6 g/m*3 7.7 C 0 km/h
1012 28-10-2010 10:28:02 7.7 C 6.32 g/m*3 7.7 C 0 km/h
1013 28-10-2010 10:40:02 7.9 C 6.32 g/m*3 7.9 C 0 km/h
1014 28-10-2010 10:52:02 8.1 C 6.16 g/m*3 8.1 C 0 km/h
1015 28-10-2010 11:04:02 8.6 C 6.02 g/m*3 8.6 C 0 km/h
1016 28-10-2010 11:16:01 9.3 C 6.11 g/m*3 9.3 C 0 km/h
1017 28-10-2010 11:28:01 10 C 6.11 g/m*3 10 C 0 km/h
1018 28-10-2010 11:40:02 10.2 C 5.8 g/m*3 10.2 C 0 km/h
1019 28-10-2010 11:52:02 10.4 C 5.78 g/m*3 10.4 C 0 km/h
1020 28-10-2010 12:04:02 10.4 C 5.59 g/m*3 10.4 C 0 km/h
1021 28-10-2010 12:16:02 10.8 C 5.83 g/m*3 10.8 C 0 km/h
1022 28-10-2010 12:28:02 10.7 C 5.8 g/m*3 10.7 C 0 km/h
1023 28-10-2010 12:40:02 10.7 C 5.89 g/m*3 10.7 C 0 km/h
1024 28-10-2010 12:52:02 11 C 5.81 g/m*3 11 C 0 km/h
1025 28-10-2010 13:04:03 11.2 C 5.68 g/m*3 11.2 C 0 km/h
Sensor: Nr:Datum:Temp:Abs-Feuchte:Windchill:Wind:
Aussen-T/F 1026 28-10-2010 13:16:02 10.9 C 5.67 g/m*3 10.9 C 0 km/h
1027 28-10-2010 13:28:02 11.2 C 5.68 g/m*3 11.2 C 0 km/h
1028 28-10-2010 13:40:02 11.6 C 5.72 g/m*3 11.6 C 0 km/h
1029 28-10-2010 13:52:01 11.8 C 5.68 g/m*3 11.8 C 0 km/h
1030 28-10-2010 14:04:02 11.9 C 5.72 g/m*3 11.9 C 0 km/h
1031 28-10-2010 14:16:01 12 C 5.65 g/m*3 12 C 0 km/h
1032 28-10-2010 14:28:01 12.4 C 5.68 g/m*3 12.4 C 0 km/h
1033 28-10-2010 14:40:01 12.4 C 5.57 g/m*3 12.4 C 0 km/h
1034 28-10-2010 14:52:01 12.8 C 5.71 g/m*3 12.8 C 0 km/h
1035 28-10-2010 15:04:02 13.1 C 5.59 g/m*3 13.1 C 0 km/h
1036 28-10-2010 15:16:01 12.6 C 5.53 g/m*3 12.6 C 0 km/h
1037 28-10-2010 15:28:01 12.7 C 5.68 g/m*3 12.7 C 0 km/h
1038 28-10-2010 15:40:01 12.6 C 5.75 g/m*3 12.6 C 0 km/h
1039 28-10-2010 15:52:01 12.6 C 5.75 g/m*3 12.6 C 0 km/h
1040 28-10-2010 16:04:02 11.9 C 5.93 g/m*3 11.9 C 0 km/h
1041 28-10-2010 16:16:02 11.6 C 6.03 g/m*3 11.6 C 0 km/h
1042 28-10-2010 16:28:02 11.5 C 6.2 g/m*3 11.5 C 0 km/h
1043 28-10-2010 16:40:01 11.5 C 6.2 g/m*3 11.5 C 0 km/h
1044 28-10-2010 16:52:01 11.6 C 6.24 g/m*3 11.6 C 0 km/h
1045 28-10-2010 17:04:01 11.6 C 6.24 g/m*3 11.6 C 0 km/h
1046 28-10-2010 17:16:02 11.5 C 6.2 g/m*3 11.5 C 0 km/h
1047 28-10-2010 17:28:02 11.1 C 6.04 g/m*3 11.1 C 0 km/h
1048 28-10-2010 17:40:01 10.7 C 6.09 g/m*3 10.7 C 0 km/h
1049 28-10-2010 17:52:03 10.5 C 6.11 g/m*3 10.5 C 0 km/h
1050 28-10-2010 18:04:02 10.2 C 6.09 g/m*3 10.2 C 0 km/h
Sensor: Nr:Datum:Temp:Abs-Feuchte:Windchill:Wind:
Aussen-T/F 1051 28-10-2010 18:16:02 10 C 6.11 g/m*3 10 C 0 km/h
1052 28-10-2010 18:28:02 10 C 6.11 g/m*3 10 C 0 km/h
1053 28-10-2010 18:40:02 9.7 C 6.18 g/m*3 9.7 C 0 km/h
1054 28-10-2010 18:52:02 9.4 C 6.15 g/m*3 9.4 C 0 km/h
1055 28-10-2010 19:04:02 9.2 C 6.25 g/m*3 9.2 C 0 km/h
1056 28-10-2010 19:16:02 9.2 C 6.25 g/m*3 9.2 C 0 km/h
1057 28-10-2010 19:28:02 9.2 C 6.25 g/m*3 9.2 C 0 km/h
1058 28-10-2010 19:40:02 9.2 C 6.25 g/m*3 9.2 C 0 km/h
1059 28-10-2010 19:52:02 9.1 C 6.12 g/m*3 9.1 C 0 km/h
1060 28-10-2010 20:04:01 9.2 C 6.25 g/m*3 9.2 C 0 km/h
1061 28-10-2010 20:16:02 9.2 C 6.25 g/m*3 9.2 C 0 km/h
1062 28-10-2010 20:28:02 9 C 6.17 g/m*3 9 C 0 km/h
1063 28-10-2010 20:40:02 8.9 C 6.31 g/m*3 8.9 C 0 km/h
1064 28-10-2010 20:52:02 8.7 C 6.23 g/m*3 8.7 C 0 km/h
1065 28-10-2010 21:04:03 8.6 C 6.27 g/m*3 8.6 C 0 km/h
1066 28-10-2010 21:16:02 8.6 C 6.36 g/m*3 8.6 C 0 km/h
1067 28-10-2010 21:28:02 8.5 C 6.32 g/m*3 8.5 C 0 km/h
1068 28-10-2010 21:40:02 8.1 C 6.16 g/m*3 8.1 C 0 km/h
1069 28-10-2010 21:52:01 8.1 C 6.41 g/m*3 8.1 C 0 km/h
1070 28-10-2010 22:04:02 7.7 C 6.32 g/m*3 7.7 C 0 km/h
1071 28-10-2010 22:16:01 7.6 C 6.36 g/m*3 7.6 C 0 km/h
1072 28-10-2010 22:28:01 7.9 C 6.57 g/m*3 7.9 C 0 km/h
1073 28-10-2010 22:40:02 7.4 C 6.28 g/m*3 7.4 C 0 km/h
1074 28-10-2010 22:52:01 7.2 C 6.28 g/m*3 7.2 C 0 km/h
1075 28-10-2010 23:04:02 7 C 6.28 g/m*3 7 C 0 km/h
Sensor: Nr:Datum:Temp:Abs-Feuchte:Windchill:Wind:
Aussen-T/F 1076 28-10-2010 23:16:01 6.9 C 6.31 g/m*3 6.9 C 0 km/h
1077 28-10-2010 23:28:01 6.8 C 6.35 g/m*3 6.8 C 0 km/h
1078 28-10-2010 23:40:02 6.7 C 6.38 g/m*3 6.7 C 0 km/h
1079 28-10-2010 23:52:01 6.5 C 6.3 g/m*3 6.5 C 0 km/h
1080 29-10-2010 00:04:02 6.3 C 6.22 g/m*3 6.3 C 0 km/h
1081 29-10-2010 00:16:02 6.2 C 6.18 g/m*3 6.2 C 0 km/h
1082 29-10-2010 00:28:02 6.2 C 6.25 g/m*3 6.2 C 0 km/h
1083 29-10-2010 00:40:02 6.3 C 6.29 g/m*3 6.3 C 0 km/h
1084 29-10-2010 00:52:02 6.3 C 6.37 g/m*3 6.3 C 0 km/h
1085 29-10-2010 01:04:02 6.4 C 6.41 g/m*3 6.4 C 0 km/h
1086 29-10-2010 01:16:02 6.3 C 6.37 g/m*3 6.3 C 0 km/h
1087 29-10-2010 01:28:03 6.2 C 6.4 g/m*3 6.2 C 0 km/h
1088 29-10-2010 01:40:02 6.3 C 6.44 g/m*3 6.3 C 0 km/h
1089 29-10-2010 01:52:02 6.2 C 6.4 g/m*3 6.2 C 0 km/h
1090 29-10-2010 02:04:01 6.1 C 6.36 g/m*3 6.1 C 0 km/h
1091 29-10-2010 02:16:02 6.2 C 6.47 g/m*3 6.2 C 0 km/h
1092 29-10-2010 02:28:02 6.4 C 6.56 g/m*3 6.4 C 0 km/h
1093 29-10-2010 02:40:01 6.8 C 6.73 g/m*3 6.8 C 0 km/h
1094 29-10-2010 02:52:02 6.8 C 6.73 g/m*3 6.8 C 0 km/h
1095 29-10-2010 03:04:02 6.9 C 6.7 g/m*3 6.9 C 0 km/h
1096 29-10-2010 03:16:01 7.2 C 6.75 g/m*3 7.2 C 0 km/h
1097 29-10-2010 03:28:01 7.6 C 7.01 g/m*3 7.6 C 0 km/h
1098 02-11-2010 08:03:09 8.6 C 7.05 g/m*3 8.6 C 0 km/h
1099 02-11-2010 08:15:01 8.4 C 6.96 g/m*3 8.4 C 0 km/h
1100 02-11-2010 08:15:09 8.9 C 7.1 g/m*3 8.9 C 0 km/h
Sensor: Nr:Datum:Temp:Abs-Feuchte:Windchill:Wind:
Aussen-T/F 1101 02-11-2010 08:27:01 8.5 C 7 g/m*3 8.5 C 0 km/h
1102 02-11-2010 08:27:09 9 C 6.96 g/m*3 9 C 0 km/h
1103 02-11-2010 08:39:02 8.5 C 7 g/m*3 8.5 C 0 km/h
1104 02-11-2010 08:39:09 9.2 C 6.88 g/m*3 9.2 C 0 km/h
1105 02-11-2010 08:51:01 8.6 C 7.05 g/m*3 8.6 C 0 km/h
1106 02-11-2010 08:51:42 9.3 C 6.83 g/m*3 9.3 C 0 km/h
1107 02-11-2010 09:03:59 9.5 C 6.92 g/m*3 9.5 C 0 km/h
1108 02-11-2010 09:15:59 9.7 C 6.91 g/m*3 9.7 C 0 km/h
1109 02-11-2010 09:27:26 9.8 C 6.87 g/m*3 9.8 C 0 km/h
1110 02-11-2010 09:39:43 10.1 C 6.81 g/m*3 10.1 C 0 km/h
1111 02-11-2010 09:51:10 10.4 C 6.75 g/m*3 10.4 C 0 km/h
1112 02-11-2010 10:03:10 10.9 C 6.86 g/m*3 10.9 C 0 km/h
1113 02-11-2010 10:15:26 10.8 C 6.72 g/m*3 10.8 C 0 km/h
1114 02-11-2010 10:27:53 11 C 6.71 g/m*3 11 C 0 km/h
1115 02-11-2010 10:39:10 11 C 6.71 g/m*3 11 C 0 km/h
1116 02-11-2010 10:51:10 11.5 C 6.71 g/m*3 11.5 C 0 km/h
1117 02-11-2010 11:03:37 11.8 C 6.42 g/m*3 11.8 C 0 km/h
1118 02-11-2010 11:15:54 12.1 C 6.33 g/m*3 12.1 C 0 km/h
1119 02-11-2010 11:27:22 11.8 C 6.42 g/m*3 11.8 C 0 km/h
1120 02-11-2010 11:39:22 11.7 C 6.48 g/m*3 11.7 C 0 km/h
1121 02-11-2010 11:51:38 12 C 6.5 g/m*3 12 C 0 km/h
1122 02-11-2010 12:03:06 12.2 C 6.58 g/m*3 12.2 C 0 km/h
1123 02-11-2010 12:15:06 12.5 C 6.49 g/m*3 12.5 C 0 km/h
1124 02-11-2010 12:27:21 12.7 C 6.57 g/m*3 12.7 C 0 km/h
1125 02-11-2010 12:39:49 12.8 C 6.5 g/m*3 12.8 C 0 km/h
Sensor: Nr:Datum:Temp:Abs-Feuchte:Windchill:Wind:
Aussen-T/F 1126 02-11-2010 12:51:06 12.4 C 6.34 g/m*3 12.4 C 0 km/h
1127 02-11-2010 13:03:06 12.4 C 6.34 g/m*3 12.4 C 0 km/h
1128 02-11-2010 13:15:33 12.7 C 6.35 g/m*3 12.7 C 0 km/h
1129 02-11-2010 13:27:49 12.7 C 6.23 g/m*3 12.7 C 0 km/h
1130 02-11-2010 13:39:16 12.9 C 6.42 g/m*3 12.9 C 0 km/h
1131 02-11-2010 13:51:16 12.9 C 6.31 g/m*3 12.9 C 0 km/h
1132 02-11-2010 14:03:33 12.6 C 6.31 g/m*3 12.6 C 0 km/h
1133 02-11-2010 14:15:00 12.9 C 6.31 g/m*3 12.9 C 0 km/h
1134 02-11-2010 14:27:00 12.7 C 6.35 g/m*3 12.7 C 0 km/h
1135 02-11-2010 14:39:16 12.7 C 6.46 g/m*3 12.7 C 0 km/h
1136 02-11-2010 14:51:43 13.1 C 6.39 g/m*3 13.1 C 0 km/h
1137 02-11-2010 15:03:00 13.2 C 6.2 g/m*3 13.2 C 0 km/h
1138 02-11-2010 15:15:00 13 C 6.24 g/m*3 13 C 0 km/h
1139 02-11-2010 15:27:27 13 C 6.35 g/m*3 13 C 0 km/h
1140 02-11-2010 15:39:43 12.7 C 6.57 g/m*3 12.7 C 0 km/h
1141 02-11-2010 15:51:11 12.7 C 6.57 g/m*3 12.7 C 0 km/h
1142 02-11-2010 16:03:11 12.8 C 6.5 g/m*3 12.8 C 0 km/h
1143 02-11-2010 16:15:27 12.4 C 6.45 g/m*3 12.4 C 0 km/h
1144 02-11-2010 16:27:54 12.2 C 6.47 g/m*3 12.2 C 0 km/h
1145 02-11-2010 16:39:10 12.2 C 6.37 g/m*3 12.2 C 0 km/h
1146 02-11-2010 16:51:10 12.1 C 6.43 g/m*3 12.1 C 0 km/h
1147 02-11-2010 17:03:38 12.2 C 6.47 g/m*3 12.2 C 0 km/h
1148 02-11-2010 17:15:54 11.6 C 6.55 g/m*3 11.6 C 0 km/h
1149 02-11-2010 17:27:21 11 C 6.61 g/m*3 11 C 0 km/h
1150 02-11-2010 17:39:21 11 C 6.71 g/m*3 11 C 0 km/h
Sensor: Nr:Datum:Temp:Abs-Feuchte:Windchill:Wind:
Aussen-T/F 1151 02-11-2010 17:51:37 10.9 C 6.66 g/m*3 10.9 C 0 km/h
1152 02-11-2010 18:03:05 11 C 6.61 g/m*3 11 C 0 km/h
1153 02-11-2010 18:15:05 10.9 C 6.66 g/m*3 10.9 C 0 km/h
1154 02-11-2010 18:27:21 11.2 C 6.69 g/m*3 11.2 C 0 km/h
1155 02-11-2010 18:39:48 11.4 C 6.67 g/m*3 11.4 C 0 km/h
1156 02-11-2010 18:51:05 11.6 C 6.65 g/m*3 11.6 C 0 km/h
1157 02-11-2010 19:03:05 11.4 C 6.57 g/m*3 11.4 C 0 km/h
1158 02-11-2010 19:15:32 11.5 C 6.71 g/m*3 11.5 C 0 km/h
1159 02-11-2010 19:27:48 11.7 C 6.69 g/m*3 11.7 C 0 km/h
1160 02-11-2010 19:39:15 11.7 C 6.69 g/m*3 11.7 C 0 km/h
1161 02-11-2010 19:51:15 11 C 6.61 g/m*3 11 C 0 km/h
1162 02-11-2010 20:03:32 10.5 C 6.79 g/m*3 10.5 C 0 km/h
1163 02-11-2010 20:15:00 10.7 C 7.07 g/m*3 10.7 C 0 km/h
1164 02-11-2010 20:27:00 11.1 C 7.15 g/m*3 11.1 C 0 km/h
1165 02-11-2010 20:39:15 11.3 C 7.04 g/m*3 11.3 C 0 km/h
1166 02-11-2010 20:51:02 11.4 C 6.98 g/m*3 11.4 C 0 km/h
1167 02-11-2010 21:03:02 11.2 C 6.99 g/m*3 11.2 C 0 km/h
1168 02-11-2010 21:15:02 11 C 7.11 g/m*3 11 C 0 km/h
1169 02-11-2010 21:27:03 10.8 C 7.22 g/m*3 10.8 C 0 km/h
1170 02-11-2010 21:39:02 10.9 C 7.26 g/m*3 10.9 C 0 km/h
1171 02-11-2010 21:51:02 10.8 C 7.31 g/m*3 10.8 C 0 km/h
1172 02-11-2010 22:03:02 10.8 C 7.41 g/m*3 10.8 C 0 km/h
1173 02-11-2010 22:15:01 11 C 7.41 g/m*3 11 C 0 km/h
1174 02-11-2010 22:27:01 11.3 C 7.45 g/m*3 11.3 C 0 km/h
1175 02-11-2010 22:39:02 11.2 C 7.4 g/m*3 11.2 C 0 km/h
Sensor: Nr:Datum:Temp:Abs-Feuchte:Windchill:Wind:
Aussen-T/F 1176 02-11-2010 22:51:02 11.1 C 7.45 g/m*3 11.1 C 0 km/h
1177 02-11-2010 23:03:02 11 C 7.51 g/m*3 11 C 0 km/h
1178 02-11-2010 23:15:02 11.1 C 7.55 g/m*3 11.1 C 0 km/h
1179 02-11-2010 23:27:02 11.5 C 7.64 g/m*3 11.5 C 0 km/h
1180 02-11-2010 23:39:02 11.2 C 7.5 g/m*3 11.2 C 0 km/h
1181 02-11-2010 23:51:02 10.9 C 7.66 g/m*3 10.9 C 0 km/h
1182 03-11-2010 00:03:02 10.8 C 7.71 g/m*3 10.8 C 0 km/h
1183 03-11-2010 00:15:02 11.3 C 7.85 g/m*3 11.3 C 0 km/h
1184 03-11-2010 00:27:02 11.4 C 7.6 g/m*3 11.4 C 0 km/h
1185 03-11-2010 00:39:02 11.4 C 7.49 g/m*3 11.4 C 0 km/h
1186 03-11-2010 00:51:02 11.7 C 7.64 g/m*3 11.7 C 0 km/h
1187 03-11-2010 01:03:02 10.9 C 7.56 g/m*3 10.9 C 0 km/h
1188 03-11-2010 01:15:02 11.4 C 7.6 g/m*3 11.4 C 0 km/h
1189 03-11-2010 01:27:02 11 C 7.41 g/m*3 11 C 0 km/h
1190 03-11-2010 01:39:02 10.5 C 7.27 g/m*3 10.5 C 0 km/h
1191 03-11-2010 01:51:02 10.6 C 7.61 g/m*3 10.6 C 0 km/h
1192 03-11-2010 02:03:02 11.4 C 7.7 g/m*3 11.4 C 0 km/h
1193 03-11-2010 02:15:01 11.8 C 7.58 g/m*3 11.8 C 0 km/h
1194 03-11-2010 02:27:01 12 C 7.57 g/m*3 12 C 0 km/h
1195 03-11-2010 02:39:02 11.9 C 7.63 g/m*3 11.9 C 0 km/h
1196 03-11-2010 02:52:03 11.3 C 7.34 g/m*3 11.3 C 0 km/h
1197 03-11-2010 03:04:03 11.8 C 7.58 g/m*3 11.8 C 0 km/h
1198 03-11-2010 03:16:04 12.1 C 7.29 g/m*3 12.1 C 0 km/h
1199 03-11-2010 03:28:04 12.1 C 7.18 g/m*3 12.1 C 0 km/h
1200 03-11-2010 03:40:02 12.1 C 7.29 g/m*3 12.1 C 0 km/h
Sensor: Nr:Datum:Temp:Abs-Feuchte:Windchill:Wind:
Aussen-T/F 1201 03-11-2010 03:52:02 12.2 C 7.34 g/m*3 12.2 C 0 km/h
1202 03-11-2010 04:04:02 12.2 C 7.34 g/m*3 12.2 C 0 km/h
1203 03-11-2010 04:16:02 12.2 C 7.45 g/m*3 12.2 C 0 km/h
1204 03-11-2010 04:28:02 12.6 C 7.63 g/m*3 12.6 C 0 km/h
1205 03-11-2010 04:40:02 12.5 C 7.48 g/m*3 12.5 C 0 km/h
1206 03-11-2010 04:52:02 12.7 C 7.46 g/m*3 12.7 C 0 km/h
1207 03-11-2010 05:04:03 12.8 C 7.5 g/m*3 12.8 C 0 km/h
1208 03-11-2010 05:16:02 12.7 C 7.46 g/m*3 12.7 C 0 km/h
1209 03-11-2010 05:28:02 12.7 C 7.46 g/m*3 12.7 C 0 km/h
1210 03-11-2010 05:40:02 12.8 C 7.5 g/m*3 12.8 C 0 km/h
1211 03-11-2010 05:52:01 12.6 C 7.52 g/m*3 12.6 C 0 km/h
1212 03-11-2010 06:04:01 12.7 C 7.57 g/m*3 12.7 C 0 km/h
1213 03-11-2010 06:16:02 12.6 C 7.63 g/m*3 12.6 C 0 km/h
1214 03-11-2010 06:28:02 12.7 C 7.57 g/m*3 12.7 C 0 km/h
1215 03-11-2010 06:40:01 12.6 C 7.63 g/m*3 12.6 C 0 km/h
1216 03-11-2010 06:52:01 12.7 C 7.68 g/m*3 12.7 C 0 km/h
1217 03-11-2010 07:04:01 12.7 C 7.68 g/m*3 12.7 C 0 km/h
1218 03-11-2010 07:16:02 12.6 C 7.63 g/m*3 12.6 C 0 km/h
1219 03-11-2010 07:28:02 12.8 C 7.73 g/m*3 12.8 C 0 km/h
1220 03-11-2010 07:40:01 12.9 C 7.66 g/m*3 12.9 C 0 km/h
1221 03-11-2010 07:52:02 12.8 C 7.62 g/m*3 12.8 C 0 km/h
1222 03-11-2010 08:04:02 13 C 7.6 g/m*3 13 C 0 km/h
1223 03-11-2010 08:16:02 13.2 C 7.58 g/m*3 13.2 C 0 km/h
1224 03-11-2010 08:28:02 13.3 C 7.51 g/m*3 13.3 C 0 km/h
1225 03-11-2010 08:40:01 13.4 C 7.56 g/m*3 13.4 C 0 km/h
Sensor: Nr:Datum:Temp:Abs-Feuchte:Windchill:Wind:
Aussen-T/F 1226 03-11-2010 08:52:02 13.5 C 7.6 g/m*3 13.5 C 0 km/h
1227 03-11-2010 09:04:01 13.6 C 7.65 g/m*3 13.6 C 0 km/h
1228 03-11-2010 09:16:01 13.7 C 7.7 g/m*3 13.7 C 0 km/h
1229 03-11-2010 09:28:01 13.7 C 7.58 g/m*3 13.7 C 0 km/h
1230 03-11-2010 09:40:02 14 C 7.6 g/m*3 14 C 0 km/h
1231 03-11-2010 09:52:02 13.9 C 7.67 g/m*3 13.9 C 0 km/h
1232 03-11-2010 10:04:03 14 C 7.6 g/m*3 14 C 0 km/h
1233 03-11-2010 10:16:02 14.2 C 7.57 g/m*3 14.2 C 0 km/h
1234 03-11-2010 10:28:02 14.2 C 7.57 g/m*3 14.2 C 0 km/h
1235 03-11-2010 10:40:01 14.3 C 7.49 g/m*3 14.3 C 0 km/h
1236 03-11-2010 10:52:02 14.3 C 7.49 g/m*3 14.3 C 0 km/h
1237 03-11-2010 11:04:01 14.4 C 7.54 g/m*3 14.4 C 0 km/h
1238 03-11-2010 11:16:02 14.4 C 7.54 g/m*3 14.4 C 0 km/h
1239 03-11-2010 11:28:02 14.6 C 7.76 g/m*3 14.6 C 0 km/h
1240 03-11-2010 11:40:01 14.4 C 7.66 g/m*3 14.4 C 0 km/h
1241 03-11-2010 11:52:02 14.3 C 7.74 g/m*3 14.3 C 0 km/h
1242 03-11-2010 12:04:02 14.1 C 7.65 g/m*3 14.1 C 0 km/h
1243 03-11-2010 12:16:02 14.1 C 7.77 g/m*3 14.1 C 0 km/h
1244 03-11-2010 12:28:02 14 C 7.72 g/m*3 14 C 0 km/h
1245 03-11-2010 12:40:02 13.8 C 7.74 g/m*3 13.8 C 0 km/h
1246 03-11-2010 12:52:02 13.7 C 7.82 g/m*3 13.7 C 0 km/h
1247 03-11-2010 13:04:02 13.6 C 7.77 g/m*3 13.6 C 0 km/h
1248 03-11-2010 13:16:01 13.5 C 7.84 g/m*3 13.5 C 0 km/h
1249 03-11-2010 13:28:01 13.6 C 7.89 g/m*3 13.6 C 0 km/h
1250 03-11-2010 13:40:02 13.5 C 7.84 g/m*3 13.5 C 0 km/h
Sensor: Nr:Datum:Temp:Abs-Feuchte:Windchill:Wind:
Aussen-T/F 1251 03-11-2010 13:52:02 13.5 C 7.84 g/m*3 13.5 C 0 km/h
1252 03-11-2010 14:04:02 13.5 C 7.95 g/m*3 13.5 C 0 km/h
1253 03-11-2010 14:16:01 13.7 C 7.93 g/m*3 13.7 C 0 km/h
1254 03-11-2010 14:28:01 13.6 C 7.89 g/m*3 13.6 C 0 km/h
1255 03-11-2010 14:40:02 13.7 C 7.93 g/m*3 13.7 C 0 km/h
1256 03-11-2010 14:52:02 13.8 C 7.98 g/m*3 13.8 C 0 km/h
1257 03-11-2010 15:04:02 13.8 C 7.98 g/m*3 13.8 C 0 km/h
1258 03-11-2010 15:16:02 13.8 C 8.1 g/m*3 13.8 C 0 km/h
1259 03-11-2010 15:28:02 13.8 C 8.1 g/m*3 13.8 C 0 km/h
1260 03-11-2010 15:40:02 13.8 C 8.1 g/m*3 13.8 C 0 km/h
1261 03-11-2010 15:52:02 13.7 C 8.05 g/m*3 13.7 C 0 km/h
1262 03-11-2010 16:04:02 13.7 C 8.17 g/m*3 13.7 C 0 km/h
1263 03-11-2010 16:16:02 13.7 C 8.17 g/m*3 13.7 C 0 km/h
1264 03-11-2010 16:28:02 13.4 C 8.02 g/m*3 13.4 C 0 km/h
1265 03-11-2010 16:40:02 13.4 C 8.14 g/m*3 13.4 C 0 km/h
1266 03-11-2010 16:52:01 13.1 C 7.99 g/m*3 13.1 C 0 km/h
1267 03-11-2010 17:04:01 13.1 C 8.33 g/m*3 13.1 C 0 km/h
1268 03-11-2010 17:16:02 13 C 8.17 g/m*3 13 C 0 km/h
1269 03-11-2010 17:28:02 13 C 8.17 g/m*3 13 C 0 km/h
1270 03-11-2010 17:40:01 13.1 C 8.1 g/m*3 13.1 C 0 km/h
1271 03-11-2010 17:52:02 13.1 C 8.22 g/m*3 13.1 C 0 km/h
1272 03-11-2010 18:04:02 12.8 C 8.29 g/m*3 12.8 C 0 km/h
1273 03-11-2010 18:16:03 12.7 C 8.35 g/m*3 12.7 C 0 km/h
1274 03-11-2010 18:28:03 12.5 C 8.25 g/m*3 12.5 C 0 km/h
1275 03-11-2010 18:40:02 12.6 C 8.3 g/m*3 12.6 C 0 km/h
Sensor: Nr:Datum:Temp:Abs-Feuchte:Windchill:Wind:
Aussen-T/F 1276 03-11-2010 18:52:02 12.7 C 8.35 g/m*3 12.7 C 0 km/h
1277 03-11-2010 19:04:02 12.7 C 8.35 g/m*3 12.7 C 0 km/h
1278 03-11-2010 19:16:02 12.8 C 8.29 g/m*3 12.8 C 0 km/h
1279 03-11-2010 19:28:02 13 C 8.17 g/m*3 13 C 0 km/h
1280 03-11-2010 19:40:02 13.3 C 8.32 g/m*3 13.3 C 0 km/h
1281 03-11-2010 19:52:02 13 C 8.17 g/m*3 13 C 0 km/h
1282 03-11-2010 20:04:01 13.2 C 8.15 g/m*3 13.2 C 0 km/h
1283 03-11-2010 20:16:02 13.3 C 8.32 g/m*3 13.3 C 0 km/h
1284 03-11-2010 20:28:02 13.4 C 8.25 g/m*3 13.4 C 0 km/h
1285 03-11-2010 20:40:02 13.5 C 8.19 g/m*3 13.5 C 0 km/h
1286 03-11-2010 20:52:01 13.5 C 8.07 g/m*3 13.5 C 0 km/h
1287 03-11-2010 21:04:02 13.5 C 8.19 g/m*3 13.5 C 0 km/h
1288 03-11-2010 21:16:01 13.5 C 8.19 g/m*3 13.5 C 0 km/h
1289 03-11-2010 21:28:01 13.6 C 8.12 g/m*3 13.6 C 0 km/h
1290 03-11-2010 21:40:02 13.3 C 8.09 g/m*3 13.3 C 0 km/h
1291 03-11-2010 21:53:23 13.8 C 8.22 g/m*3 13.8 C 0 km/h
1292 03-11-2010 22:05:23 13.9 C 8.15 g/m*3 13.9 C 0 km/h
1293 03-11-2010 22:17:23 14 C 8.08 g/m*3 14 C 0 km/h
1294 03-11-2010 22:29:23 14.2 C 8.18 g/m*3 14.2 C 0 km/h
1295 03-11-2010 22:41:23 14.2 C 8.18 g/m*3 14.2 C 0 km/h
1296 03-11-2010 22:53:23 14.2 C 8.18 g/m*3 14.2 C 0 km/h
1297 03-11-2010 23:05:23 14.2 C 8.18 g/m*3 14.2 C 0 km/h
1298 03-11-2010 23:17:23 14.2 C 8.3 g/m*3 14.2 C 0 km/h
1299 03-11-2010 23:29:23 14.2 C 8.43 g/m*3 14.2 C 0 km/h
1300 03-11-2010 23:41:23 14.2 C 8.55 g/m*3 14.2 C 0 km/h
Sensor: Nr:Datum:Temp:Abs-Feuchte:Windchill:Wind:
Aussen-T/F 1301 03-11-2010 23:53:23 14.2 C 8.55 g/m*3 14.2 C 0 km/h
1302 04-11-2010 00:05:23 14.2 C 8.67 g/m*3 14.2 C 0 km/h
1303 04-11-2010 00:17:23 14.2 C 8.67 g/m*3 14.2 C 0 km/h
1304 04-11-2010 00:29:24 14.1 C 8.74 g/m*3 14.1 C 0 km/h
1305 04-11-2010 00:41:24 14.4 C 8.9 g/m*3 14.4 C 0 km/h
1306 04-11-2010 00:53:24 14.6 C 8.88 g/m*3 14.6 C 0 km/h
1307 04-11-2010 01:05:24 14.7 C 9.07 g/m*3 14.7 C 0 km/h
1308 04-11-2010 01:17:24 14.7 C 9.07 g/m*3 14.7 C 0 km/h
1309 04-11-2010 01:29:24 14.8 C 8.99 g/m*3 14.8 C 0 km/h
1310 04-11-2010 01:41:24 14.8 C 9.12 g/m*3 14.8 C 0 km/h
1311 04-11-2010 01:53:24 14.7 C 9.07 g/m*3 14.7 C 0 km/h
1312 04-11-2010 02:05:24 14.8 C 9.12 g/m*3 14.8 C 0 km/h
1313 04-11-2010 02:17:24 14.9 C 9.18 g/m*3 14.9 C 0 km/h
1314 04-11-2010 02:29:24 15 C 8.98 g/m*3 15 C 0 km/h
1315 04-11-2010 02:41:24 15.1 C 9.03 g/m*3 15.1 C 0 km/h
1316 04-11-2010 02:53:24 15 C 8.98 g/m*3 15 C 0 km/h
1317 04-11-2010 03:05:24 15.1 C 9.03 g/m*3 15.1 C 0 km/h
1318 04-11-2010 03:17:24 15.2 C 9.09 g/m*3 15.2 C 0 km/h
1319 04-11-2010 03:29:24 15.1 C 9.16 g/m*3 15.1 C 0 km/h
1320 04-11-2010 03:41:24 15.2 C 9.09 g/m*3 15.2 C 0 km/h
1321 04-11-2010 03:53:24 15.2 C 9.22 g/m*3 15.2 C 0 km/h
1322 04-11-2010 04:05:24 15.2 C 9.22 g/m*3 15.2 C 0 km/h
1323 04-11-2010 04:17:24 15.1 C 9.29 g/m*3 15.1 C 0 km/h
1324 04-11-2010 04:29:24 15.2 C 9.35 g/m*3 15.2 C 0 km/h
1325 04-11-2010 04:41:25 15.3 C 9.27 g/m*3 15.3 C 0 km/h
Sensor: Nr:Datum:Temp:Abs-Feuchte:Windchill:Wind:
Aussen-T/F 1326 04-11-2010 04:53:25 15.3 C 9.4 g/m*3 15.3 C 0 km/h
1327 04-11-2010 05:05:25 15.4 C 9.33 g/m*3 15.4 C 0 km/h
1328 04-11-2010 05:17:25 15.5 C 9.39 g/m*3 15.5 C 0 km/h
1329 04-11-2010 05:29:25 15.6 C 9.44 g/m*3 15.6 C 0 km/h
1330 04-11-2010 05:41:25 15.6 C 9.44 g/m*3 15.6 C 0 km/h
1331 04-11-2010 05:53:25 15.6 C 9.44 g/m*3 15.6 C 0 km/h
1332 04-11-2010 06:05:25 15.7 C 9.5 g/m*3 15.7 C 0 km/h
1333 04-11-2010 06:17:25 15.7 C 9.63 g/m*3 15.7 C 0 km/h
1334 04-11-2010 06:29:25 15.6 C 9.58 g/m*3 15.6 C 0 km/h
1335 04-11-2010 06:41:25 15.8 C 9.69 g/m*3 15.8 C 0 km/h
1336 04-11-2010 06:53:25 15.7 C 9.63 g/m*3 15.7 C 0 km/h
1337 04-11-2010 07:05:25 15.7 C 9.63 g/m*3 15.7 C 0 km/h
1338 04-11-2010 07:17:03 15.8 C 9.56 g/m*3 15.8 C 0 km/h
1339 04-11-2010 07:29:03 16.1 C 9.6 g/m*3 16.1 C 0 km/h
1340 04-11-2010 07:41:02 16 C 9.4 g/m*3 16 C 0 km/h
1341 04-11-2010 07:53:02 16 C 9.4 g/m*3 16 C 0 km/h
1342 04-11-2010 08:05:01 16.1 C 9.46 g/m*3 16.1 C 0 km/h
1343 04-11-2010 08:17:02 16.1 C 9.46 g/m*3 16.1 C 0 km/h
1344 04-11-2010 08:29:03 16.2 C 9.52 g/m*3 16.2 C 0 km/h
1345 04-11-2010 08:41:01 16.2 C 9.38 g/m*3 16.2 C 0 km/h
1346 04-11-2010 08:53:02 16.4 C 9.35 g/m*3 16.4 C 0 km/h
1347 04-11-2010 09:05:02 16.6 C 9.18 g/m*3 16.6 C 0 km/h
1348 04-11-2010 09:17:02 16.6 C 9.04 g/m*3 16.6 C 0 km/h
1349 04-11-2010 09:29:02 16.6 C 9.04 g/m*3 16.6 C 0 km/h
1350 04-11-2010 09:41:02 16.6 C 9.04 g/m*3 16.6 C 0 km/h
Sensor: Nr:Datum:Temp:Abs-Feuchte:Windchill:Wind:
Aussen-T/F 1351 04-11-2010 09:53:02 16.8 C 9.01 g/m*3 16.8 C 0 km/h
1352 04-11-2010 10:05:02 17 C 8.97 g/m*3 17 C 0 km/h
1353 04-11-2010 10:17:01 17.1 C 8.88 g/m*3 17.1 C 0 km/h
1354 04-11-2010 10:29:01 17.3 C 8.84 g/m*3 17.3 C 0 km/h
1355 04-11-2010 10:41:02 17.5 C 8.8 g/m*3 17.5 C 0 km/h
1356 04-11-2010 10:53:02 17.3 C 8.69 g/m*3 17.3 C 0 km/h
1357 04-11-2010 11:05:02 17.5 C 8.65 g/m*3 17.5 C 0 km/h
1358 04-11-2010 11:17:01 17.7 C 8.6 g/m*3 17.7 C 0 km/h
1359 04-11-2010 11:29:01 17.8 C 8.5 g/m*3 17.8 C 0 km/h
1360 04-11-2010 11:41:02 18 C 8.29 g/m*3 18 C 0 km/h
1361 04-11-2010 11:53:02 18.1 C 8.19 g/m*3 18.1 C 0 km/h
1362 04-11-2010 12:05:02 18.3 C 8.13 g/m*3 18.3 C 0 km/h
1363 04-11-2010 12:17:02 18.5 C 8.23 g/m*3 18.5 C 0 km/h
1364 04-11-2010 12:29:02 18.5 C 8.23 g/m*3 18.5 C 0 km/h
1365 04-11-2010 12:41:02 18.3 C 8.13 g/m*3 18.3 C 0 km/h
1366 04-11-2010 12:53:02 18.6 C 8.12 g/m*3 18.6 C 0 km/h
1367 04-11-2010 13:05:02 18.7 C 8.17 g/m*3 18.7 C 0 km/h
1368 04-11-2010 13:17:02 18.5 C 8.23 g/m*3 18.5 C 0 km/h
1369 04-11-2010 13:29:02 18.5 C 8.23 g/m*3 18.5 C 0 km/h
1370 04-11-2010 13:41:01 18.5 C 8.23 g/m*3 18.5 C 0 km/h
1371 04-11-2010 13:53:02 18.5 C 8.07 g/m*3 18.5 C 0 km/h
1372 04-11-2010 14:05:01 18.3 C 7.97 g/m*3 18.3 C 0 km/h
1373 04-11-2010 14:17:02 18.3 C 7.97 g/m*3 18.3 C 0 km/h
1374 04-11-2010 14:29:02 18.5 C 8.07 g/m*3 18.5 C 0 km/h
1375 04-11-2010 14:41:02 18.6 C 7.96 g/m*3 18.6 C 0 km/h
Sensor: Nr:Datum:Temp:Abs-Feuchte:Windchill:Wind:
Aussen-T/F 1376 04-11-2010 14:53:02 18.5 C 8.07 g/m*3 18.5 C 0 km/h
1377 04-11-2010 15:05:02 18.4 C 8.02 g/m*3 18.4 C 0 km/h
1378 04-11-2010 15:17:02 18.4 C 8.18 g/m*3 18.4 C 0 km/h
1379 04-11-2010 15:29:02 18.4 C 8.18 g/m*3 18.4 C 0 km/h
1380 04-11-2010 15:41:02 18.1 C 8.03 g/m*3 18.1 C 0 km/h
1381 04-11-2010 15:53:02 17.9 C 8.24 g/m*3 17.9 C 0 km/h
1382 04-11-2010 16:05:02 17.9 C 8.4 g/m*3 17.9 C 0 km/h
1383 04-11-2010 16:17:01 17.7 C 8.45 g/m*3 17.7 C 0 km/h
1384 04-11-2010 16:29:01 17.5 C 8.5 g/m*3 17.5 C 0 km/h
1385 04-11-2010 16:41:02 17.4 C 8.45 g/m*3 17.4 C 0 km/h
1386 04-11-2010 16:53:02 17.1 C 8.3 g/m*3 17.1 C 0 km/h
1387 04-11-2010 17:05:02 17.1 C 8.44 g/m*3 17.1 C 0 km/h
1388 04-11-2010 17:17:01 16.8 C 8.44 g/m*3 16.8 C 0 km/h
1389 04-11-2010 17:29:01 16.9 C 8.49 g/m*3 16.9 C 0 km/h
1390 04-11-2010 17:41:02 16.8 C 8.44 g/m*3 16.8 C 0 km/h
1391 04-11-2010 17:53:01 17 C 8.39 g/m*3 17 C 0 km/h
1392 04-11-2010 18:05:02 16.7 C 8.38 g/m*3 16.7 C 0 km/h
1393 04-11-2010 18:17:02 16.8 C 8.44 g/m*3 16.8 C 0 km/h
1394 04-11-2010 18:29:02 16.8 C 8.44 g/m*3 16.8 C 0 km/h
1395 04-11-2010 18:41:01 16.8 C 8.44 g/m*3 16.8 C 0 km/h
1396 04-11-2010 18:53:02 16.8 C 8.44 g/m*3 16.8 C 0 km/h
1397 04-11-2010 19:05:02 16.9 C 8.49 g/m*3 16.9 C 0 km/h
1398 04-11-2010 19:17:02 16.9 C 8.49 g/m*3 16.9 C 0 km/h
1399 04-11-2010 19:29:02 16.9 C 8.49 g/m*3 16.9 C 0 km/h
1400 04-11-2010 19:41:01 16.9 C 8.49 g/m*3 16.9 C 0 km/h
Sensor: Nr:Datum:Temp:Abs-Feuchte:Windchill:Wind:
Aussen-T/F 1401 04-11-2010 19:53:01 17 C 8.39 g/m*3 17 C 0 km/h
1402 04-11-2010 20:05:02 16.5 C 8.28 g/m*3 16.5 C 0 km/h
1403 04-11-2010 20:17:02 16.3 C 8.05 g/m*3 16.3 C 0 km/h
1404 04-11-2010 20:29:02 16.1 C 8.09 g/m*3 16.1 C 0 km/h
1405 04-11-2010 20:41:01 15.9 C 8.13 g/m*3 15.9 C 0 km/h
1406 04-11-2010 20:53:01 15.8 C 8.08 g/m*3 15.8 C 0 km/h
1407 04-11-2010 21:05:02 15.8 C 8.08 g/m*3 15.8 C 0 km/h
1408 04-11-2010 21:17:01 15.9 C 8.13 g/m*3 15.9 C 0 km/h
1409 04-11-2010 21:29:01 15.8 C 8.08 g/m*3 15.8 C 0 km/h
1410 04-11-2010 21:41:02 15.7 C 8.03 g/m*3 15.7 C 0 km/h
1411 04-11-2010 21:53:02 15.5 C 7.93 g/m*3 15.5 C 0 km/h
1412 04-11-2010 22:05:02 15.4 C 7.88 g/m*3 15.4 C 0 km/h
1413 04-11-2010 22:18:04 15.4 C 7.88 g/m*3 15.4 C 0 km/h
1414 04-11-2010 22:30:04 15.4 C 7.88 g/m*3 15.4 C 0 km/h
1415 04-11-2010 22:42:04 15.4 C 7.88 g/m*3 15.4 C 0 km/h
1416 04-11-2010 22:54:04 15.3 C 7.84 g/m*3 15.3 C 0 km/h
1417 04-11-2010 23:06:04 15.4 C 7.88 g/m*3 15.4 C 0 km/h
1418 04-11-2010 23:18:04 15.3 C 7.84 g/m*3 15.3 C 0 km/h
1419 04-11-2010 23:30:04 15.4 C 7.88 g/m*3 15.4 C 0 km/h
1420 04-11-2010 23:42:04 15.4 C 7.88 g/m*3 15.4 C 0 km/h
1421 04-11-2010 23:54:05 15.5 C 7.93 g/m*3 15.5 C 0 km/h
1422 05-11-2010 00:06:05 15.5 C 7.93 g/m*3 15.5 C 0 km/h
1423 05-11-2010 00:18:05 15.4 C 7.88 g/m*3 15.4 C 0 km/h
1424 05-11-2010 00:30:05 15.3 C 7.84 g/m*3 15.3 C 0 km/h
1425 05-11-2010 00:42:05 15.2 C 7.92 g/m*3 15.2 C 0 km/h
Sensor: Nr:Datum:Temp:Abs-Feuchte:Windchill:Wind:
Aussen-T/F 1426 05-11-2010 00:54:05 15.3 C 7.84 g/m*3 15.3 C 0 km/h
1427 05-11-2010 01:06:05 15.2 C 7.79 g/m*3 15.2 C 0 km/h
1428 05-11-2010 01:18:05 15.2 C 7.53 g/m*3 15.2 C 0 km/h
1429 05-11-2010 01:30:05 15.2 C 7.4 g/m*3 15.2 C 0 km/h
1430 05-11-2010 01:42:05 15.1 C 7.48 g/m*3 15.1 C 0 km/h
1431 05-11-2010 01:54:05 15 C 7.44 g/m*3 15 C 0 km/h
1432 05-11-2010 02:06:05 14.9 C 7.52 g/m*3 14.9 C 0 km/h
1433 05-11-2010 02:18:05 14.9 C 7.39 g/m*3 14.9 C 0 km/h
1434 05-11-2010 02:30:05 14.7 C 7.43 g/m*3 14.7 C 0 km/h
1435 05-11-2010 02:42:05 14.7 C 7.43 g/m*3 14.7 C 0 km/h
1436 05-11-2010 02:54:05 14.5 C 7.46 g/m*3 14.5 C 0 km/h
1437 05-11-2010 03:06:05 14.5 C 7.46 g/m*3 14.5 C 0 km/h
1438 05-11-2010 03:18:05 14.6 C 7.38 g/m*3 14.6 C 0 km/h
1439 05-11-2010 03:30:05 14.4 C 7.42 g/m*3 14.4 C 0 km/h
1440 05-11-2010 03:42:05 14.4 C 7.29 g/m*3 14.4 C 0 km/h
1441 05-11-2010 03:54:05 14.4 C 7.29 g/m*3 14.4 C 0 km/h
1442 05-11-2010 04:06:05 14.4 C 7.29 g/m*3 14.4 C 0 km/h
1443 05-11-2010 04:18:05 14.2 C 7.33 g/m*3 14.2 C 0 km/h
1444 05-11-2010 04:30:06 14.1 C 7.4 g/m*3 14.1 C 0 km/h
1445 05-11-2010 04:42:06 14.1 C 7.4 g/m*3 14.1 C 0 km/h
1446 05-11-2010 04:54:06 14.2 C 7.45 g/m*3 14.2 C 0 km/h
1447 05-11-2010 05:06:06 14.1 C 7.28 g/m*3 14.1 C 0 km/h
1448 05-11-2010 05:18:06 14 C 7.24 g/m*3 14 C 0 km/h
1449 05-11-2010 05:30:06 14.3 C 7.25 g/m*3 14.3 C 0 km/h
1450 05-11-2010 05:42:06 14.2 C 7.08 g/m*3 14.2 C 0 km/h
Sensor: Nr:Datum:Temp:Abs-Feuchte:Windchill:Wind:
Aussen-T/F 1451 05-11-2010 05:54:06 14.1 C 7.04 g/m*3 14.1 C 0 km/h
1452 05-11-2010 06:06:06 14 C 7 g/m*3 14 C 0 km/h
1453 05-11-2010 06:18:06 13.9 C 7.19 g/m*3 13.9 C 0 km/h
1454 05-11-2010 06:30:06 13.8 C 7.15 g/m*3 13.8 C 0 km/h
1455 05-11-2010 06:42:06 13.8 C 7.15 g/m*3 13.8 C 0 km/h
1456 05-11-2010 06:54:02 13.6 C 7.18 g/m*3 13.6 C 0 km/h
1457 05-11-2010 07:06:02 13.5 C 7.02 g/m*3 13.5 C 0 km/h
1458 05-11-2010 07:18:02 13.3 C 7.05 g/m*3 13.3 C 0 km/h
1459 05-11-2010 07:30:02 13.5 C 6.9 g/m*3 13.5 C 0 km/h
1460 05-11-2010 07:42:02 13.5 C 6.9 g/m*3 13.5 C 0 km/h
1461 05-11-2010 07:54:02 13.5 C 6.9 g/m*3 13.5 C 0 km/h
1462 05-11-2010 08:06:02 13.5 C 6.78 g/m*3 13.5 C 0 km/h
1463 05-11-2010 08:18:02 13.7 C 6.63 g/m*3 13.7 C 0 km/h
1464 05-11-2010 08:30:02 14 C 6.51 g/m*3 14 C 0 km/h
1465 05-11-2010 08:42:02 14.1 C 6.55 g/m*3 14.1 C 0 km/h
1466 05-11-2010 08:54:02 14.1 C 6.55 g/m*3 14.1 C 0 km/h
1467 05-11-2010 09:06:02 14.2 C 6.59 g/m*3 14.2 C 0 km/h
1468 05-11-2010 09:18:01 14.4 C 6.68 g/m*3 14.4 C 0 km/h
1469 05-11-2010 09:30:01 14.6 C 6.76 g/m*3 14.6 C 0 km/h
1470 05-11-2010 09:42:02 14.7 C 6.8 g/m*3 14.7 C 0 km/h
1471 05-11-2010 09:54:02 14.7 C 6.8 g/m*3 14.7 C 0 km/h
1472 05-11-2010 10:06:02 14.8 C 6.84 g/m*3 14.8 C 0 km/h
1473 05-11-2010 10:18:02 14.9 C 6.88 g/m*3 14.9 C 0 km/h
1474 05-11-2010 10:30:02 15 C 6.8 g/m*3 15 C 0 km/h
1475 05-11-2010 10:42:02 15 C 6.92 g/m*3 15 C 0 km/h
Sensor: Nr:Datum:Temp:Abs-Feuchte:Windchill:Wind:
Aussen-T/F 1476 05-11-2010 10:54:01 14.8 C 6.97 g/m*3 14.8 C 0 km/h
1477 05-11-2010 11:06:01 14.7 C 7.05 g/m*3 14.7 C 0 km/h
1478 05-11-2010 11:18:01 15 C 6.92 g/m*3 15 C 0 km/h
1479 05-11-2010 11:30:01 15.6 C 7.05 g/m*3 15.6 C 0 km/h
1480 05-11-2010 11:42:02 15.5 C 7.01 g/m*3 15.5 C 0 km/h
1481 05-11-2010 11:54:02 15.3 C 6.92 g/m*3 15.3 C 0 km/h
1482 05-11-2010 12:06:01 15.4 C 6.96 g/m*3 15.4 C 0 km/h
1483 05-11-2010 12:18:02 15 C 7.05 g/m*3 15 C 0 km/h
1484 05-11-2010 12:30:02 15.1 C 7.1 g/m*3 15.1 C 0 km/h
1485 05-11-2010 12:42:02 15.2 C 7.14 g/m*3 15.2 C 0 km/h
1486 05-11-2010 12:54:02 15 C 7.18 g/m*3 15 C 0 km/h
1487 05-11-2010 13:06:01 15 C 7.05 g/m*3 15 C 0 km/h
1488 05-11-2010 13:18:01 15 C 7.05 g/m*3 15 C 0 km/h
1489 05-11-2010 13:30:01 15.2 C 7.14 g/m*3 15.2 C 0 km/h
1490 05-11-2010 13:42:01 15.1 C 7.1 g/m*3 15.1 C 0 km/h
1491 05-11-2010 13:54:02 15.2 C 7.14 g/m*3 15.2 C 0 km/h
1492 05-11-2010 14:06:02 14.9 C 7.26 g/m*3 14.9 C 0 km/h
1493 05-11-2010 14:18:02 14.7 C 7.43 g/m*3 14.7 C 0 km/h
1494 05-11-2010 14:30:02 14.8 C 7.47 g/m*3 14.8 C 0 km/h
1495 05-11-2010 14:42:01 14.8 C 7.35 g/m*3 14.8 C 0 km/h
1496 05-11-2010 14:54:01 14.8 C 7.47 g/m*3 14.8 C 0 km/h
1497 05-11-2010 15:06:02 14.7 C 7.43 g/m*3 14.7 C 0 km/h
1498 05-11-2010 15:18:02 14.7 C 7.55 g/m*3 14.7 C 0 km/h
1499 05-11-2010 15:30:02 14.7 C 7.43 g/m*3 14.7 C 0 km/h
1500 05-11-2010 15:42:02 14.4 C 7.54 g/m*3 14.4 C 0 km/h
Sensor: Nr:Datum:Temp:Abs-Feuchte:Windchill:Wind:
Aussen-T/F 1501 05-11-2010 15:54:01 14.5 C 7.46 g/m*3 14.5 C 0 km/h
1502 05-11-2010 16:06:02 14.6 C 7.51 g/m*3 14.6 C 0 km/h
1503 05-11-2010 16:18:01 14.6 C 7.51 g/m*3 14.6 C 0 km/h
1504 05-11-2010 16:30:01 14.6 C 7.51 g/m*3 14.6 C 0 km/h
1505 05-11-2010 16:42:02 14.5 C 7.46 g/m*3 14.5 C 0 km/h
1506 05-11-2010 16:54:01 14.5 C 7.46 g/m*3 14.5 C 0 km/h
1507 05-11-2010 17:06:02 14.5 C 7.59 g/m*3 14.5 C 0 km/h
1508 05-11-2010 17:18:01 14.6 C 7.51 g/m*3 14.6 C 0 km/h
1509 05-11-2010 17:30:01 14.7 C 7.55 g/m*3 14.7 C 0 km/h
1510 05-11-2010 17:42:02 14.7 C 7.55 g/m*3 14.7 C 0 km/h
1511 05-11-2010 17:54:02 14.7 C 7.55 g/m*3 14.7 C 0 km/h
1512 05-11-2010 18:06:02 14.7 C 7.55 g/m*3 14.7 C 0 km/h
1513 05-11-2010 18:18:02 14.7 C 7.55 g/m*3 14.7 C 0 km/h
1514 05-11-2010 18:30:02 14.8 C 7.6 g/m*3 14.8 C 0 km/h
1515 05-11-2010 18:42:02 14.8 C 7.6 g/m*3 14.8 C 0 km/h
1516 05-11-2010 18:54:02 14.8 C 7.6 g/m*3 14.8 C 0 km/h
1517 05-11-2010 19:06:02 14.6 C 7.51 g/m*3 14.6 C 0 km/h
1518 05-11-2010 19:18:02 14.4 C 7.54 g/m*3 14.4 C 0 km/h
1519 05-11-2010 19:30:02 14.2 C 7.57 g/m*3 14.2 C 0 km/h
1520 05-11-2010 19:42:02 14.3 C 7.62 g/m*3 14.3 C 0 km/h
1521 05-11-2010 19:54:01 14.3 C 7.62 g/m*3 14.3 C 0 km/h
1522 05-11-2010 20:06:02 14.3 C 7.62 g/m*3 14.3 C 0 km/h
1523 05-11-2010 20:18:01 14.4 C 7.54 g/m*3 14.4 C 0 km/h
1524 05-11-2010 20:30:01 14.5 C 7.59 g/m*3 14.5 C 0 km/h
1525 05-11-2010 20:42:02 14.5 C 7.59 g/m*3 14.5 C 0 km/h
Sensor: Nr:Datum:Temp:Abs-Feuchte:Windchill:Wind:
Aussen-T/F 1526 05-11-2010 20:54:02 14.5 C 7.59 g/m*3 14.5 C 0 km/h
1527 05-11-2010 21:06:02 14.4 C 7.54 g/m*3 14.4 C 0 km/h
1528 05-11-2010 21:18:02 14.2 C 7.57 g/m*3 14.2 C 0 km/h
1529 05-11-2010 21:30:02 14.3 C 7.62 g/m*3 14.3 C 0 km/h
1530 05-11-2010 21:42:02 14.1 C 7.65 g/m*3 14.1 C 0 km/h
1531 05-11-2010 21:54:02 14.4 C 7.66 g/m*3 14.4 C 0 km/h
1532 05-11-2010 22:06:02 14.2 C 7.57 g/m*3 14.2 C 0 km/h
1533 05-11-2010 22:18:01 14.2 C 7.57 g/m*3 14.2 C 0 km/h
1534 05-11-2010 22:30:01 14.1 C 7.52 g/m*3 14.1 C 0 km/h
1535 05-11-2010 22:42:02 13.9 C 7.67 g/m*3 13.9 C 0 km/h
1536 05-11-2010 22:54:02 13.7 C 7.58 g/m*3 13.7 C 0 km/h
1537 05-11-2010 23:06:02 13.6 C 7.65 g/m*3 13.6 C 0 km/h
1538 05-11-2010 23:18:02 14 C 7.6 g/m*3 14 C 0 km/h
1539 05-11-2010 23:30:02 14 C 7.6 g/m*3 14 C 0 km/h
1540 05-11-2010 23:42:02 14.1 C 7.52 g/m*3 14.1 C 0 km/h
1541 05-11-2010 23:54:02 14 C 7.48 g/m*3 14 C 0 km/h
1542 06-11-2010 00:06:01 13.9 C 7.67 g/m*3 13.9 C 0 km/h
1543 06-11-2010 00:18:01 14.1 C 7.52 g/m*3 14.1 C 0 km/h
1544 06-11-2010 00:30:01 14 C 7.6 g/m*3 14 C 0 km/h
1545 06-11-2010 00:42:02 14.1 C 7.52 g/m*3 14.1 C 0 km/h
1546 06-11-2010 00:54:02 14.1 C 7.52 g/m*3 14.1 C 0 km/h
1547 06-11-2010 01:06:02 14 C 7.6 g/m*3 14 C 0 km/h
1548 06-11-2010 01:18:02 14.1 C 7.65 g/m*3 14.1 C 0 km/h
1549 06-11-2010 01:30:02 14.1 C 7.52 g/m*3 14.1 C 0 km/h
1550 06-11-2010 01:42:02 14 C 7.6 g/m*3 14 C 0 km/h
Sensor: Nr:Datum:Temp:Abs-Feuchte:Windchill:Wind:
Aussen-T/F 1551 06-11-2010 01:54:01 13.9 C 7.67 g/m*3 13.9 C 0 km/h
1552 06-11-2010 02:06:02 13.9 C 7.67 g/m*3 13.9 C 0 km/h
1553 06-11-2010 02:18:01 13.7 C 7.7 g/m*3 13.7 C 0 km/h
1554 06-11-2010 02:30:01 13.3 C 7.63 g/m*3 13.3 C 0 km/h
1555 06-11-2010 02:42:02 13.1 C 7.65 g/m*3 13.1 C 0 km/h
1556 06-11-2010 02:55:03 12.9 C 7.78 g/m*3 12.9 C 0 km/h
1557 06-11-2010 03:07:03 12.9 C 7.89 g/m*3 12.9 C 0 km/h
1558 06-11-2010 03:19:03 13 C 7.94 g/m*3 13 C 0 km/h
1559 06-11-2010 03:31:03 13 C 7.94 g/m*3 13 C 0 km/h
1560 06-11-2010 03:43:03 12.8 C 8.06 g/m*3 12.8 C 0 km/h
1561 06-11-2010 03:55:03 12.8 C 8.06 g/m*3 12.8 C 0 km/h
1562 06-11-2010 04:07:02 12.7 C 8.13 g/m*3 12.7 C 0 km/h
1563 06-11-2010 04:19:02 12.7 C 8.13 g/m*3 12.7 C 0 km/h
1564 06-11-2010 04:31:02 12.7 C 8.13 g/m*3 12.7 C 0 km/h
1565 06-11-2010 04:43:02 12.9 C 8.11 g/m*3 12.9 C 0 km/h
1566 06-11-2010 04:55:02 12.9 C 8.11 g/m*3 12.9 C 0 km/h
1567 06-11-2010 05:07:02 13 C 8.05 g/m*3 13 C 0 km/h
1568 06-11-2010 05:19:03 13 C 8.05 g/m*3 13 C 0 km/h
1569 06-11-2010 05:31:02 13.1 C 7.99 g/m*3 13.1 C 0 km/h
1570 06-11-2010 05:43:02 13.2 C 7.92 g/m*3 13.2 C 0 km/h
1571 06-11-2010 05:55:02 13.3 C 7.97 g/m*3 13.3 C 0 km/h
1572 06-11-2010 06:07:02 13.4 C 7.9 g/m*3 13.4 C 0 km/h
1573 06-11-2010 06:19:02 13.4 C 7.9 g/m*3 13.4 C 0 km/h
1574 06-11-2010 06:31:02 13.4 C 7.9 g/m*3 13.4 C 0 km/h
1575 06-11-2010 06:43:02 13.5 C 7.84 g/m*3 13.5 C 0 km/h
Sensor: Nr:Datum:Temp:Abs-Feuchte:Windchill:Wind:
Aussen-T/F 1576 06-11-2010 06:55:02 13.6 C 7.77 g/m*3 13.6 C 0 km/h
1577 06-11-2010 07:07:03 13.4 C 7.67 g/m*3 13.4 C 0 km/h
1578 06-11-2010 07:19:02 13.5 C 7.6 g/m*3 13.5 C 0 km/h
1579 06-11-2010 07:31:02 13.5 C 7.6 g/m*3 13.5 C 0 km/h
1580 06-11-2010 07:43:02 13.5 C 7.49 g/m*3 13.5 C 0 km/h
1581 06-11-2010 07:55:02 13.5 C 7.49 g/m*3 13.5 C 0 km/h
1582 06-11-2010 08:07:01 13.4 C 7.44 g/m*3 13.4 C 0 km/h
1583 06-11-2010 08:19:01 13.5 C 7.49 g/m*3 13.5 C 0 km/h
1584 06-11-2010 08:31:02 13.4 C 7.44 g/m*3 13.4 C 0 km/h
1585 06-11-2010 08:43:02 13.2 C 7.58 g/m*3 13.2 C 0 km/h
1586 06-11-2010 08:55:02 13.2 C 7.58 g/m*3 13.2 C 0 km/h
1587 06-11-2010 09:07:02 13.2 C 7.69 g/m*3 13.2 C 0 km/h
1588 06-11-2010 09:19:02 13 C 7.71 g/m*3 13 C 0 km/h
1589 06-11-2010 09:31:01 12.6 C 7.52 g/m*3 12.6 C 0 km/h
1590 06-11-2010 09:43:01 10.7 C 7.27 g/m*3 10.7 C 0 km/h
1591 06-11-2010 09:55:02 10.1 C 7.47 g/m*3 10.1 C 0 km/h
1592 06-11-2010 10:07:01 10 C 7.71 g/m*3 10 C 0 km/h
1593 06-11-2010 10:19:01 10.1 C 7.85 g/m*3 10.1 C 0 km/h
1594 06-11-2010 10:31:01 10.2 C 7.99 g/m*3 10.2 C 0 km/h
1595 06-11-2010 10:43:01 10.2 C 7.99 g/m*3 10.2 C 0 km/h
1596 06-11-2010 10:55:01 10.4 C 8.1 g/m*3 10.4 C 0 km/h
1597 06-11-2010 11:07:02 10.6 C 8.2 g/m*3 10.6 C 0 km/h
1598 06-11-2010 11:19:02 10.6 C 8.2 g/m*3 10.6 C 0 km/h
1599 06-11-2010 11:31:02 10.5 C 8.15 g/m*3 10.5 C 0 km/h
1600 06-11-2010 11:43:02 10.7 C 8.25 g/m*3 10.7 C 0 km/h
Sensor: Nr:Datum:Temp:Abs-Feuchte:Windchill:Wind:
Aussen-T/F 1601 06-11-2010 11:55:01 10.5 C 8.15 g/m*3 10.5 C 0 km/h
1602 06-11-2010 12:07:02 10 C 7.89 g/m*3 10 C 0 km/h
1603 06-11-2010 12:19:01 9.8 C 7.7 g/m*3 9.8 C 0 km/h
1604 06-11-2010 12:31:02 9.8 C 7.7 g/m*3 9.8 C 0 km/h
1605 06-11-2010 12:43:02 9.8 C 7.7 g/m*3 9.8 C 0 km/h
1606 06-11-2010 12:55:02 9.5 C 7.37 g/m*3 9.5 C 0 km/h
1607 06-11-2010 13:07:02 9.2 C 7.23 g/m*3 9.2 C 0 km/h
1608 06-11-2010 13:19:02 8.9 C 7.27 g/m*3 8.9 C 0 km/h
1609 06-11-2010 13:31:02 9 C 7.41 g/m*3 9 C 0 km/h
1610 06-11-2010 13:43:02 9.2 C 7.68 g/m*3 9.2 C 0 km/h
1611 06-11-2010 13:55:02 9.1 C 7.72 g/m*3 9.1 C 0 km/h
1612 06-11-2010 14:07:02 9.1 C 7.72 g/m*3 9.1 C 0 km/h
1613 06-11-2010 14:19:02 9 C 7.67 g/m*3 9 C 0 km/h
1614 06-11-2010 14:31:02 9 C 7.67 g/m*3 9 C 0 km/h
1615 06-11-2010 14:43:03 8.8 C 7.66 g/m*3 8.8 C 0 km/h
1616 06-11-2010 14:55:02 8.7 C 7.61 g/m*3 8.7 C 0 km/h
1617 06-11-2010 15:07:02 8.8 C 7.75 g/m*3 8.8 C 0 km/h
1618 06-11-2010 15:19:01 8.7 C 7.7 g/m*3 8.7 C 0 km/h
1619 06-11-2010 15:31:02 8.7 C 7.7 g/m*3 8.7 C 0 km/h
1620 06-11-2010 15:43:02 8.5 C 7.6 g/m*3 8.5 C 0 km/h
1621 06-11-2010 15:55:02 8.5 C 7.6 g/m*3 8.5 C 0 km/h
1622 06-11-2010 16:07:03 8.4 C 7.55 g/m*3 8.4 C 0 km/h
1623 06-11-2010 16:19:02 8.3 C 7.59 g/m*3 8.3 C 0 km/h
1624 06-11-2010 16:31:02 8.2 C 7.54 g/m*3 8.2 C 0 km/h
1625 06-11-2010 16:43:02 8.2 C 7.54 g/m*3 8.2 C 0 km/h
Sensor: Nr:Datum:Temp:Abs-Feuchte:Windchill:Wind:
Aussen-T/F 1626 06-11-2010 16:55:02 7.9 C 7.47 g/m*3 7.9 C 0 km/h
1627 06-11-2010 17:07:02 7.9 C 7.47 g/m*3 7.9 C 0 km/h
1628 06-11-2010 17:19:02 8.1 C 7.57 g/m*3 8.1 C 0 km/h
1629 06-11-2010 17:31:02 7.9 C 7.56 g/m*3 7.9 C 0 km/h
1630 06-11-2010 17:43:02 7.8 C 7.51 g/m*3 7.8 C 0 km/h
1631 06-11-2010 17:55:02 7.5 C 7.36 g/m*3 7.5 C 0 km/h
1632 06-11-2010 18:07:01 7.6 C 7.41 g/m*3 7.6 C 0 km/h
1633 06-11-2010 18:19:02 7.3 C 7.27 g/m*3 7.3 C 0 km/h
1634 06-11-2010 18:31:01 7.5 C 7.36 g/m*3 7.5 C 0 km/h
1635 06-11-2010 18:43:01 7.4 C 7.32 g/m*3 7.4 C 0 km/h
1636 06-11-2010 18:55:02 7.4 C 7.32 g/m*3 7.4 C 0 km/h
1637 06-11-2010 19:07:01 7.6 C 7.49 g/m*3 7.6 C 0 km/h
1638 06-11-2010 19:19:02 7.3 C 7.35 g/m*3 7.3 C 0 km/h
1639 06-11-2010 19:31:01 7.4 C 7.4 g/m*3 7.4 C 0 km/h
1640 06-11-2010 19:43:01 7.3 C 7.35 g/m*3 7.3 C 0 km/h
1641 06-11-2010 19:55:01 7.5 C 7.44 g/m*3 7.5 C 0 km/h
1642 06-11-2010 20:07:01 7.3 C 7.35 g/m*3 7.3 C 0 km/h
1643 06-11-2010 20:19:02 7.3 C 7.35 g/m*3 7.3 C 0 km/h
1644 06-11-2010 20:31:01 7.1 C 7.25 g/m*3 7.1 C 0 km/h
1645 06-11-2010 20:43:01 7.2 C 7.3 g/m*3 7.2 C 0 km/h
1646 06-11-2010 20:55:01 7.1 C 7.25 g/m*3 7.1 C 0 km/h
1647 06-11-2010 21:07:01 7.3 C 7.35 g/m*3 7.3 C 0 km/h
1648 06-11-2010 21:19:01 7.2 C 7.3 g/m*3 7.2 C 0 km/h
1649 06-11-2010 21:31:01 7.2 C 7.3 g/m*3 7.2 C 0 km/h
1650 06-11-2010 21:43:01 7.2 C 7.3 g/m*3 7.2 C 0 km/h
Sensor: Nr:Datum:Temp:Abs-Feuchte:Windchill:Wind:
Aussen-T/F 1651 06-11-2010 21:55:01 7.4 C 7.4 g/m*3 7.4 C 0 km/h
1652 06-11-2010 22:07:02 7.5 C 7.44 g/m*3 7.5 C 0 km/h
1653 06-11-2010 22:19:01 7.5 C 7.44 g/m*3 7.5 C 0 km/h
1654 06-11-2010 22:32:02 7.4 C 7.4 g/m*3 7.4 C 0 km/h
1655 06-11-2010 22:44:02 7.5 C 7.44 g/m*3 7.5 C 0 km/h
1656 06-11-2010 22:56:02 7.5 C 7.44 g/m*3 7.5 C 0 km/h
1657 06-11-2010 23:08:02 7.5 C 7.44 g/m*3 7.5 C 0 km/h
1658 06-11-2010 23:20:02 7.3 C 7.35 g/m*3 7.3 C 0 km/h
1659 06-11-2010 23:32:03 7.4 C 7.4 g/m*3 7.4 C 0 km/h
1660 06-11-2010 23:44:03 7.3 C 7.35 g/m*3 7.3 C 0 km/h
1661 06-11-2010 23:56:03 7.3 C 7.35 g/m*3 7.3 C 0 km/h
1662 07-11-2010 00:08:03 7.2 C 7.3 g/m*3 7.2 C 0 km/h
1663 07-11-2010 00:20:03 7.2 C 7.3 g/m*3 7.2 C 0 km/h
1664 07-11-2010 00:32:03 7.2 C 7.3 g/m*3 7.2 C 0 km/h
1665 07-11-2010 00:44:03 7.3 C 7.35 g/m*3 7.3 C 0 km/h
1666 07-11-2010 00:56:03 7.2 C 7.3 g/m*3 7.2 C 0 km/h
1667 07-11-2010 01:08:03 7.3 C 7.35 g/m*3 7.3 C 0 km/h
1668 07-11-2010 01:20:03 7.3 C 7.35 g/m*3 7.3 C 0 km/h
1669 07-11-2010 01:32:03 7.2 C 7.3 g/m*3 7.2 C 0 km/h
1670 07-11-2010 01:44:03 7.1 C 7.25 g/m*3 7.1 C 0 km/h
1671 07-11-2010 01:56:03 7 C 7.21 g/m*3 7 C 0 km/h
1672 07-11-2010 02:08:03 6.7 C 7.14 g/m*3 6.7 C 0 km/h
1673 07-11-2010 02:20:03 6.7 C 7.14 g/m*3 6.7 C 0 km/h
1674 07-11-2010 02:32:03 7 C 7.21 g/m*3 7 C 0 km/h
1675 07-11-2010 02:44:03 7.2 C 7.38 g/m*3 7.2 C 0 km/h
Sensor: Nr:Datum:Temp:Abs-Feuchte:Windchill:Wind:
Aussen-T/F 1676 07-11-2010 02:56:03 7.3 C 7.35 g/m*3 7.3 C 0 km/h
1677 07-11-2010 03:08:03 7.3 C 7.35 g/m*3 7.3 C 0 km/h
1678 07-11-2010 03:20:03 7.3 C 7.35 g/m*3 7.3 C 0 km/h
1679 07-11-2010 03:32:04 7.3 C 7.43 g/m*3 7.3 C 0 km/h
1680 07-11-2010 03:44:04 7.3 C 7.43 g/m*3 7.3 C 0 km/h
1681 07-11-2010 03:56:04 7.3 C 7.43 g/m*3 7.3 C 0 km/h
1682 07-11-2010 04:08:04 7.3 C 7.43 g/m*3 7.3 C 0 km/h
1683 07-11-2010 04:20:04 7.2 C 7.38 g/m*3 7.2 C 0 km/h
1684 07-11-2010 04:32:04 7.2 C 7.38 g/m*3 7.2 C 0 km/h
1685 07-11-2010 04:44:04 7.2 C 7.3 g/m*3 7.2 C 0 km/h
1686 07-11-2010 04:56:04 7 C 7.21 g/m*3 7 C 0 km/h
1687 07-11-2010 05:08:04 6.9 C 7.24 g/m*3 6.9 C 0 km/h
1688 07-11-2010 05:20:04 6.8 C 7.19 g/m*3 6.8 C 0 km/h
1689 07-11-2010 05:32:04 6.9 C 7.24 g/m*3 6.9 C 0 km/h
1690 07-11-2010 05:44:04 6.8 C 7.19 g/m*3 6.8 C 0 km/h
1691 07-11-2010 05:56:04 6.6 C 7.1 g/m*3 6.6 C 0 km/h
1692 07-11-2010 06:08:04 6.4 C 7 g/m*3 6.4 C 0 km/h
1693 07-11-2010 06:20:04 6.3 C 6.96 g/m*3 6.3 C 0 km/h
1694 07-11-2010 06:32:04 6.4 C 7 g/m*3 6.4 C 0 km/h
1695 07-11-2010 06:44:04 6.7 C 7.14 g/m*3 6.7 C 0 km/h
1696 07-11-2010 06:56:04 6.6 C 7.1 g/m*3 6.6 C 0 km/h
1697 07-11-2010 07:08:04 6.4 C 7 g/m*3 6.4 C 0 km/h
1698 07-11-2010 07:20:04 6.7 C 7.14 g/m*3 6.7 C 0 km/h
1699 07-11-2010 07:32:04 6.7 C 7.14 g/m*3 6.7 C 0 km/h
1700 07-11-2010 07:44:05 6.8 C 7.19 g/m*3 6.8 C 0 km/h
Sensor: Nr:Datum:Temp:Abs-Feuchte:Windchill:Wind:
Aussen-T/F 1701 07-11-2010 07:56:05 6.9 C 7.24 g/m*3 6.9 C 0 km/h
1702 07-11-2010 08:08:01 7 C 7.21 g/m*3 7 C 0 km/h
1703 07-11-2010 08:20:02 7.1 C 7.25 g/m*3 7.1 C 0 km/h
1704 07-11-2010 08:32:01 7.2 C 7.3 g/m*3 7.2 C 0 km/h
1705 07-11-2010 08:44:01 7.2 C 7.3 g/m*3 7.2 C 0 km/h
1706 07-11-2010 08:56:01 7.3 C 7.35 g/m*3 7.3 C 0 km/h
1707 07-11-2010 09:08:01 7.4 C 7.48 g/m*3 7.4 C 0 km/h
1708 07-11-2010 09:20:02 7.4 C 7.48 g/m*3 7.4 C 0 km/h
1709 07-11-2010 09:32:01 7.5 C 7.52 g/m*3 7.5 C 0 km/h
1710 07-11-2010 09:44:01 7.4 C 7.4 g/m*3 7.4 C 0 km/h
1711 07-11-2010 09:56:01 7.6 C 7.49 g/m*3 7.6 C 0 km/h
1712 07-11-2010 10:08:02 7.8 C 7.67 g/m*3 7.8 C 0 km/h
1713 07-11-2010 10:20:01 7.7 C 7.62 g/m*3 7.7 C 0 km/h
1714 07-11-2010 10:32:02 7.9 C 7.72 g/m*3 7.9 C 0 km/h
1715 07-11-2010 10:44:02 7.8 C 7.67 g/m*3 7.8 C 0 km/h
1716 07-11-2010 10:56:02 7.9 C 7.72 g/m*3 7.9 C 0 km/h
1717 07-11-2010 11:08:01 7.9 C 7.64 g/m*3 7.9 C 0 km/h
1718 07-11-2010 11:20:02 8 C 7.69 g/m*3 8 C 0 km/h
1719 07-11-2010 11:32:02 8 C 7.61 g/m*3 8 C 0 km/h
1720 07-11-2010 11:44:02 8 C 7.61 g/m*3 8 C 0 km/h
1721 07-11-2010 11:56:02 8.4 C 7.8 g/m*3 8.4 C 0 km/h
1722 07-11-2010 12:08:01 8.5 C 7.85 g/m*3 8.5 C 0 km/h
1723 07-11-2010 12:20:02 9 C 8.02 g/m*3 9 C 0 km/h
1724 07-11-2010 12:32:02 8.9 C 7.97 g/m*3 8.9 C 0 km/h
1725 07-11-2010 12:44:02 8.6 C 7.82 g/m*3 8.6 C 0 km/h
Sensor: Nr:Datum:Temp:Abs-Feuchte:Windchill:Wind:
Aussen-T/F 1726 07-11-2010 12:56:02 8.7 C 7.7 g/m*3 8.7 C 0 km/h
1727 07-11-2010 13:08:02 8.8 C 7.75 g/m*3 8.8 C 0 km/h
1728 07-11-2010 13:20:02 8.6 C 7.56 g/m*3 8.6 C 0 km/h
1729 07-11-2010 13:32:02 8.4 C 7.38 g/m*3 8.4 C 0 km/h
1730 07-11-2010 13:44:02 8.4 C 7.47 g/m*3 8.4 C 0 km/h
1731 07-11-2010 13:56:02 8.2 C 7.37 g/m*3 8.2 C 0 km/h
1732 07-11-2010 14:08:02 8.2 C 7.37 g/m*3 8.2 C 0 km/h
1733 07-11-2010 14:20:02 8.2 C 7.37 g/m*3 8.2 C 0 km/h
1734 07-11-2010 14:32:02 8.2 C 7.45 g/m*3 8.2 C 0 km/h
1735 07-11-2010 14:44:02 8.4 C 7.55 g/m*3 8.4 C 0 km/h
1736 07-11-2010 14:56:02 8.1 C 7.41 g/m*3 8.1 C 0 km/h
1737 07-11-2010 15:08:02 7.7 C 7.22 g/m*3 7.7 C 0 km/h
1738 07-11-2010 15:20:02 7.5 C 7.12 g/m*3 7.5 C 0 km/h
1739 07-11-2010 15:32:02 7.6 C 7.25 g/m*3 7.6 C 0 km/h
1740 07-11-2010 15:44:02 7.5 C 7.2 g/m*3 7.5 C 0 km/h
1741 07-11-2010 15:56:02 7.2 C 7.06 g/m*3 7.2 C 0 km/h
1742 07-11-2010 16:08:01 7.1 C 7.02 g/m*3 7.1 C 0 km/h
1743 07-11-2010 16:20:01 6.8 C 6.96 g/m*3 6.8 C 0 km/h
1744 07-11-2010 16:32:02 6.7 C 6.91 g/m*3 6.7 C 0 km/h
1745 07-11-2010 16:44:02 6.7 C 6.91 g/m*3 6.7 C 0 km/h
1746 07-11-2010 16:56:02 6.8 C 7.04 g/m*3 6.8 C 0 km/h
1747 07-11-2010 17:08:02 6.8 C 7.04 g/m*3 6.8 C 0 km/h
1748 07-11-2010 17:20:02 6.7 C 6.99 g/m*3 6.7 C 0 km/h
1749 07-11-2010 17:32:02 6.8 C 7.04 g/m*3 6.8 C 0 km/h
1750 07-11-2010 17:44:02 6.7 C 6.99 g/m*3 6.7 C 0 km/h
Sensor: Nr:Datum:Temp:Abs-Feuchte:Windchill:Wind:
Aussen-T/F 1751 07-11-2010 17:56:02 6.8 C 7.04 g/m*3 6.8 C 0 km/h
1752 07-11-2010 18:08:01 6.5 C 6.9 g/m*3 6.5 C 0 km/h
1753 07-11-2010 18:20:02 6.7 C 6.99 g/m*3 6.7 C 0 km/h
1754 07-11-2010 18:32:01 6.8 C 7.04 g/m*3 6.8 C 0 km/h
1755 07-11-2010 18:44:01 6.7 C 6.99 g/m*3 6.7 C 0 km/h
1756 07-11-2010 18:56:02 6.2 C 6.77 g/m*3 6.2 C 0 km/h
1757 07-11-2010 19:08:01 6 C 6.68 g/m*3 6 C 0 km/h
1758 07-11-2010 19:20:02 5.9 C 6.71 g/m*3 5.9 C 0 km/h
1759 07-11-2010 19:32:01 5.7 C 6.62 g/m*3 5.7 C 0 km/h
1760 07-11-2010 19:44:01 5.7 C 6.62 g/m*3 5.7 C 0 km/h
1761 07-11-2010 19:56:02 5.3 C 6.45 g/m*3 5.3 C 0 km/h
1762 07-11-2010 20:08:01 5.2 C 6.4 g/m*3 5.2 C 0 km/h
1763 07-11-2010 20:20:02 5.2 C 6.4 g/m*3 5.2 C 0 km/h
1764 07-11-2010 20:32:01 5.2 C 6.4 g/m*3 5.2 C 0 km/h
1765 07-11-2010 20:44:01 5.2 C 6.4 g/m*3 5.2 C 0 km/h
1766 07-11-2010 20:56:01 5.1 C 6.36 g/m*3 5.1 C 0 km/h
1767 07-11-2010 21:08:01 5.1 C 6.36 g/m*3 5.1 C 0 km/h
1768 07-11-2010 21:20:01 5.1 C 6.36 g/m*3 5.1 C 0 km/h
1769 07-11-2010 21:32:01 5 C 6.32 g/m*3 5 C 0 km/h
1770 07-11-2010 21:44:01 4.9 C 6.28 g/m*3 4.9 C 0 km/h
1771 07-11-2010 21:56:01 4.8 C 6.3 g/m*3 4.8 C 0 km/h
1772 07-11-2010 22:08:02 4.8 C 6.3 g/m*3 4.8 C 0 km/h
1773 07-11-2010 22:21:03 5 C 6.32 g/m*3 5 C 0 km/h
1774 07-11-2010 22:33:03 5 C 6.32 g/m*3 5 C 0 km/h
1775 07-11-2010 22:45:03 4.9 C 6.35 g/m*3 4.9 C 0 km/h
Sensor: Nr:Datum:Temp:Abs-Feuchte:Windchill:Wind:
Aussen-T/F 1776 07-11-2010 22:57:03 4.8 C 6.3 g/m*3 4.8 C 0 km/h
1777 07-11-2010 23:09:03 4.7 C 6.26 g/m*3 4.7 C 0 km/h
1778 07-11-2010 23:21:03 4.7 C 6.26 g/m*3 4.7 C 0 km/h
1779 07-11-2010 23:33:03 4.7 C 6.26 g/m*3 4.7 C 0 km/h
1780 07-11-2010 23:45:03 4.6 C 6.22 g/m*3 4.6 C 0 km/h
1781 07-11-2010 23:57:03 4.5 C 6.11 g/m*3 4.5 C 0 km/h
1782 08-11-2010 00:09:03 4.4 C 6.07 g/m*3 4.4 C 0 km/h
1783 08-11-2010 00:21:03 4.1 C 5.95 g/m*3 4.1 C 0 km/h
1784 08-11-2010 00:33:03 3.9 C 5.94 g/m*3 3.9 C 0 km/h
1785 08-11-2010 00:45:03 3.8 C 5.9 g/m*3 3.8 C 0 km/h
1786 08-11-2010 00:57:04 4 C 5.91 g/m*3 4 C 0 km/h
1787 08-11-2010 01:09:04 4.1 C 5.95 g/m*3 4.1 C 0 km/h
1788 08-11-2010 01:21:04 4.3 C 6.03 g/m*3 4.3 C 0 km/h
1789 08-11-2010 01:33:04 4.3 C 6.03 g/m*3 4.3 C 0 km/h
1790 08-11-2010 01:45:04 4.1 C 5.95 g/m*3 4.1 C 0 km/h
1791 08-11-2010 01:57:04 3.8 C 5.9 g/m*3 3.8 C 0 km/h
1792 08-11-2010 02:09:04 3.5 C 5.78 g/m*3 3.5 C 0 km/h
1793 08-11-2010 02:21:04 3.9 C 5.94 g/m*3 3.9 C 0 km/h
1794 08-11-2010 02:33:04 4.1 C 5.95 g/m*3 4.1 C 0 km/h
1795 08-11-2010 02:45:04 4.3 C 6.03 g/m*3 4.3 C 0 km/h
1796 08-11-2010 02:57:04 4.4 C 6.14 g/m*3 4.4 C 0 km/h
1797 08-11-2010 03:09:04 4.5 C 6.18 g/m*3 4.5 C 0 km/h
1798 08-11-2010 03:21:04 4.5 C 6.18 g/m*3 4.5 C 0 km/h
1799 08-11-2010 03:33:04 4.5 C 6.18 g/m*3 4.5 C 0 km/h
1800 08-11-2010 03:45:04 4.4 C 6.14 g/m*3 4.4 C 0 km/h
Sensor: Nr:Datum:Temp:Abs-Feuchte:Windchill:Wind:
Aussen-T/F 1801 08-11-2010 03:57:04 4.4 C 6.14 g/m*3 4.4 C 0 km/h
1802 08-11-2010 04:09:04 4.4 C 6.14 g/m*3 4.4 C 0 km/h
1803 08-11-2010 04:21:04 4.4 C 6.14 g/m*3 4.4 C 0 km/h
1804 08-11-2010 04:33:04 4.4 C 6.14 g/m*3 4.4 C 0 km/h
1805 08-11-2010 04:45:04 4.4 C 6.14 g/m*3 4.4 C 0 km/h
1806 08-11-2010 04:57:04 4.4 C 6.14 g/m*3 4.4 C 0 km/h
1807 08-11-2010 05:09:05 4.5 C 6.18 g/m*3 4.5 C 0 km/h
1808 08-11-2010 05:21:05 4.5 C 6.18 g/m*3 4.5 C 0 km/h
1809 08-11-2010 05:33:05 4.6 C 6.22 g/m*3 4.6 C 0 km/h
1810 08-11-2010 05:45:05 4.7 C 6.26 g/m*3 4.7 C 0 km/h
1811 08-11-2010 05:57:05 4.7 C 6.26 g/m*3 4.7 C 0 km/h
1812 08-11-2010 06:09:05 4.8 C 6.3 g/m*3 4.8 C 0 km/h
1813 08-11-2010 06:21:05 4.8 C 6.3 g/m*3 4.8 C 0 km/h
1814 08-11-2010 06:33:05 4.9 C 6.35 g/m*3 4.9 C 0 km/h
1815 08-11-2010 06:45:05 4.9 C 6.35 g/m*3 4.9 C 0 km/h
1816 08-11-2010 06:57:05 4.9 C 6.35 g/m*3 4.9 C 0 km/h
1817 08-11-2010 07:09:05 4.8 C 6.3 g/m*3 4.8 C 0 km/h
1818 08-11-2010 07:21:03 4.4 C 6.14 g/m*3 4.4 C 0 km/h
1819 08-11-2010 07:33:02 4.6 C 6.22 g/m*3 4.6 C 0 km/h
1820 08-11-2010 07:45:01 4.9 C 6.35 g/m*3 4.9 C 0 km/h
1821 08-11-2010 07:57:01 5 C 6.32 g/m*3 5 C 0 km/h
1822 08-11-2010 08:09:02 4.9 C 6.35 g/m*3 4.9 C 0 km/h
1823 08-11-2010 08:21:01 5 C 6.32 g/m*3 5 C 0 km/h
1824 08-11-2010 08:33:02 4.9 C 6.35 g/m*3 4.9 C 0 km/h
1825 08-11-2010 08:45:02 4.9 C 6.35 g/m*3 4.9 C 0 km/h
Sensor: Nr:Datum:Temp:Abs-Feuchte:Windchill:Wind:
Aussen-T/F 1826 08-11-2010 08:57:02 5.1 C 6.36 g/m*3 5.1 C 0 km/h
1827 08-11-2010 09:09:02 5.4 C 6.49 g/m*3 5.4 C 0 km/h
1828 08-11-2010 09:21:02 5.6 C 6.57 g/m*3 5.6 C 0 km/h
1829 08-11-2010 09:33:02 6 C 6.68 g/m*3 6 C 0 km/h
1830 08-11-2010 09:45:02 6 C 6.6 g/m*3 6 C 0 km/h
1831 08-11-2010 09:57:02 6.2 C 6.55 g/m*3 6.2 C 0 km/h
1832 08-11-2010 10:09:02 7.1 C 6.86 g/m*3 7.1 C 0 km/h
1833 08-11-2010 10:21:02 6.9 C 6.54 g/m*3 6.9 C 0 km/h
1834 08-11-2010 10:33:02 7 C 6.43 g/m*3 7 C 0 km/h
1835 08-11-2010 10:45:01 7.2 C 6.36 g/m*3 7.2 C 0 km/h
1836 08-11-2010 10:57:01 7.2 C 6.28 g/m*3 7.2 C 0 km/h
1837 08-11-2010 11:09:02 7.5 C 6.08 g/m*3 7.5 C 0 km/h
1838 08-11-2010 11:21:01 7.6 C 5.88 g/m*3 7.6 C 0 km/h
1839 08-11-2010 11:33:02 7.1 C 5.54 g/m*3 7.1 C 0 km/h
1840 08-11-2010 11:45:02 7.2 C 5.65 g/m*3 7.2 C 0 km/h
1841 08-11-2010 11:57:02 6.9 C 5.62 g/m*3 6.9 C 0 km/h
1842 08-11-2010 12:09:02 7.4 C 5.65 g/m*3 7.4 C 0 km/h
1843 08-11-2010 12:21:02 8 C 5.29 g/m*3 8 C 0 km/h
1844 08-11-2010 12:33:02 6.3 C 5.03 g/m*3 6.3 C 0 km/h
1845 08-11-2010 12:45:02 6.1 C 5.26 g/m*3 6.1 C 0 km/h
1846 08-11-2010 12:57:02 6.1 C 5.26 g/m*3 6.1 C 0 km/h
1847 08-11-2010 13:09:02 6.4 C 5.29 g/m*3 6.4 C 0 km/h
1848 08-11-2010 13:21:02 7.4 C 5.33 g/m*3 7.4 C 0 km/h
1849 08-11-2010 13:33:03 8 C 5.29 g/m*3 8 C 0 km/h
1850 08-11-2010 13:45:02 7.4 C 4.85 g/m*3 7.4 C 0 km/h
Sensor: Nr:Datum:Temp:Abs-Feuchte:Windchill:Wind:
Aussen-T/F 1851 08-11-2010 13:57:03 7 C 4.96 g/m*3 7 C 0 km/h
1852 08-11-2010 14:09:01 7.1 C 4.84 g/m*3 7.1 C 0 km/h
1853 08-11-2010 14:21:02 6.7 C 4.79 g/m*3 6.7 C 0 km/h
1854 08-11-2010 14:33:01 7.1 C 4.68 g/m*3 7.1 C 0 km/h
1855 08-11-2010 14:45:02 6.8 C 4.59 g/m*3 6.8 C 0 km/h
1856 08-11-2010 14:57:02 6.7 C 4.79 g/m*3 6.7 C 0 km/h
1857 08-11-2010 15:09:01 6.1 C 4.68 g/m*3 6.1 C 0 km/h
1858 08-11-2010 15:21:02 6.6 C 4.53 g/m*3 6.6 C 0 km/h
1859 08-11-2010 15:33:01 6.1 C 4.46 g/m*3 6.1 C 0 km/h
1860 08-11-2010 15:45:02 4.8 C 4.76 g/m*3 4.8 C 0 km/h
1861 08-11-2010 15:57:02 4.4 C 4.83 g/m*3 4.4 C 0 km/h
1862 08-11-2010 16:09:02 3.7 C 4.92 g/m*3 3.7 C 0 km/h
1863 08-11-2010 16:21:02 3.4 C 4.89 g/m*3 3.4 C 0 km/h
1864 08-11-2010 16:33:02 2.9 C 4.84 g/m*3 2.9 C 0 km/h
1865 08-11-2010 16:45:02 2.6 C 4.86 g/m*3 2.6 C 0 km/h
1866 08-11-2010 16:57:02 2.3 C 4.82 g/m*3 2.3 C 0 km/h
1867 08-11-2010 17:09:02 2.5 C 4.94 g/m*3 2.5 C 0 km/h
1868 08-11-2010 17:21:02 2.3 C 4.88 g/m*3 2.3 C 0 km/h
1869 08-11-2010 17:33:02 2 C 4.83 g/m*3 2 C 0 km/h
1870 08-11-2010 17:45:02 2 C 4.83 g/m*3 2 C 0 km/h
1871 08-11-2010 17:57:02 1.6 C 4.76 g/m*3 1.6 C 0 km/h
1872 08-11-2010 18:09:02 1.6 C 4.81 g/m*3 1.6 C 0 km/h
1873 08-11-2010 18:21:02 1.7 C 4.85 g/m*3 1.7 C 0 km/h
1874 08-11-2010 18:33:02 1.5 C 4.78 g/m*3 1.5 C 0 km/h
1875 08-11-2010 18:45:01 1.4 C 4.8 g/m*3 1.4 C 0 km/h
Sensor: Nr:Datum:Temp:Abs-Feuchte:Windchill:Wind:
Aussen-T/F 1876 08-11-2010 18:57:01 1.1 C 4.7 g/m*3 1.1 C 0 km/h
1877 08-11-2010 19:09:02 1.6 C 4.87 g/m*3 1.6 C 0 km/h
1878 08-11-2010 19:21:02 2.1 C 5.04 g/m*3 2.1 C 0 km/h
1879 08-11-2010 19:33:02 2.2 C 5.13 g/m*3 2.2 C 0 km/h
1880 08-11-2010 19:45:01 2.6 C 5.27 g/m*3 2.6 C 0 km/h
1881 08-11-2010 19:57:01 2.8 C 5.28 g/m*3 2.8 C 0 km/h
1882 08-11-2010 20:09:02 3.2 C 5.36 g/m*3 3.2 C 0 km/h
1883 08-11-2010 20:21:01 3.4 C 5.44 g/m*3 3.4 C 0 km/h
1884 08-11-2010 20:33:02 3.5 C 5.41 g/m*3 3.5 C 0 km/h
1885 08-11-2010 20:45:02 3.6 C 5.45 g/m*3 3.6 C 0 km/h
1886 08-11-2010 20:57:02 3.8 C 5.46 g/m*3 3.8 C 0 km/h
1887 08-11-2010 21:09:02 3.9 C 5.49 g/m*3 3.9 C 0 km/h
1888 08-11-2010 21:21:03 3.9 C 5.56 g/m*3 3.9 C 0 km/h
1889 08-11-2010 21:33:02 3.9 C 5.56 g/m*3 3.9 C 0 km/h
1890 08-11-2010 21:45:03 3.9 C 5.56 g/m*3 3.9 C 0 km/h
1891 08-11-2010 21:57:03 3.9 C 5.62 g/m*3 3.9 C 0 km/h
1892 08-11-2010 22:09:02 3.9 C 5.62 g/m*3 3.9 C 0 km/h
1893 08-11-2010 22:21:02 4 C 5.59 g/m*3 4 C 0 km/h
1894 08-11-2010 22:33:02 4.2 C 5.73 g/m*3 4.2 C 0 km/h
1895 08-11-2010 22:45:02 4.5 C 5.85 g/m*3 4.5 C 0 km/h
1896 08-11-2010 22:57:02 4.5 C 5.78 g/m*3 4.5 C 0 km/h
1897 08-11-2010 23:10:05 4.6 C 5.69 g/m*3 4.6 C 0 km/h
1898 08-11-2010 23:22:05 4.5 C 5.65 g/m*3 4.5 C 0 km/h
1899 08-11-2010 23:34:05 4.4 C 5.55 g/m*3 4.4 C 0 km/h
1900 08-11-2010 23:46:05 4.4 C 5.62 g/m*3 4.4 C 0 km/h
Sensor: Nr:Datum:Temp:Abs-Feuchte:Windchill:Wind:
Aussen-T/F 1901 08-11-2010 23:58:05 4.3 C 5.58 g/m*3 4.3 C 0 km/h
1902 09-11-2010 00:10:05 4.3 C 5.58 g/m*3 4.3 C 0 km/h
1903 09-11-2010 00:22:05 4.1 C 5.57 g/m*3 4.1 C 0 km/h
1904 09-11-2010 00:34:05 4.1 C 5.63 g/m*3 4.1 C 0 km/h
1905 09-11-2010 00:46:05 4.4 C 5.75 g/m*3 4.4 C 0 km/h
1906 09-11-2010 00:58:06 4.3 C 5.71 g/m*3 4.3 C 0 km/h
1907 09-11-2010 01:10:06 4.1 C 5.7 g/m*3 4.1 C 0 km/h
1908 09-11-2010 01:22:06 4.2 C 5.73 g/m*3 4.2 C 0 km/h
1909 09-11-2010 01:34:06 4.3 C 5.77 g/m*3 4.3 C 0 km/h
1910 09-11-2010 01:46:06 4.3 C 5.77 g/m*3 4.3 C 0 km/h
1911 09-11-2010 01:58:06 4.1 C 5.7 g/m*3 4.1 C 0 km/h
1912 09-11-2010 02:10:06 4.1 C 5.7 g/m*3 4.1 C 0 km/h
1913 09-11-2010 02:22:06 4.1 C 5.7 g/m*3 4.1 C 0 km/h
1914 09-11-2010 02:34:06 4.1 C 5.76 g/m*3 4.1 C 0 km/h
1915 09-11-2010 02:46:06 4.3 C 5.84 g/m*3 4.3 C 0 km/h
1916 09-11-2010 02:58:06 4.4 C 5.94 g/m*3 4.4 C 0 km/h
1917 09-11-2010 03:10:06 4.3 C 5.9 g/m*3 4.3 C 0 km/h
1918 09-11-2010 03:22:06 4.5 C 5.98 g/m*3 4.5 C 0 km/h
1919 09-11-2010 03:34:06 4.4 C 5.94 g/m*3 4.4 C 0 km/h
1920 09-11-2010 03:46:06 4.4 C 5.94 g/m*3 4.4 C 0 km/h
1921 09-11-2010 03:58:06 4.7 C 6.06 g/m*3 4.7 C 0 km/h
1922 09-11-2010 04:10:06 4.3 C 5.9 g/m*3 4.3 C 0 km/h
1923 09-11-2010 04:22:06 4.3 C 5.9 g/m*3 4.3 C 0 km/h
1924 09-11-2010 04:34:06 4.6 C 6.02 g/m*3 4.6 C 0 km/h
1925 09-11-2010 04:46:06 4.5 C 5.98 g/m*3 4.5 C 0 km/h
Sensor: Nr:Datum:Temp:Abs-Feuchte:Windchill:Wind:
Aussen-T/F 1926 09-11-2010 04:58:06 4.5 C 5.98 g/m*3 4.5 C 0 km/h
1927 09-11-2010 05:10:07 4.7 C 6.06 g/m*3 4.7 C 0 km/h
1928 09-11-2010 05:22:07 4.7 C 6.06 g/m*3 4.7 C 0 km/h
1929 09-11-2010 05:34:07 4.7 C 6.06 g/m*3 4.7 C 0 km/h
1930 09-11-2010 05:46:07 4.8 C 6.1 g/m*3 4.8 C 0 km/h
1931 09-11-2010 05:58:07 4.8 C 6.1 g/m*3 4.8 C 0 km/h
1932 09-11-2010 06:10:07 5 C 6.12 g/m*3 5 C 0 km/h
1933 09-11-2010 06:22:07 5.1 C 6.16 g/m*3 5.1 C 0 km/h
1934 09-11-2010 06:34:07 5.1 C 6.16 g/m*3 5.1 C 0 km/h
1935 09-11-2010 06:46:07 5.1 C 6.16 g/m*3 5.1 C 0 km/h
1936 09-11-2010 06:58:07 5.2 C 6.2 g/m*3 5.2 C 0 km/h
1937 09-11-2010 07:10:07 5.3 C 6.24 g/m*3 5.3 C 0 km/h
1938 09-11-2010 07:22:04 5.4 C 6.28 g/m*3 5.4 C 0 km/h
1939 09-11-2010 07:34:04 5.6 C 6.29 g/m*3 5.6 C 0 km/h
1940 09-11-2010 07:46:01 5.7 C 6.19 g/m*3 5.7 C 0 km/h
1941 09-11-2010 07:58:01 5.9 C 6.2 g/m*3 5.9 C 0 km/h
1942 09-11-2010 08:10:02 6.1 C 6.06 g/m*3 6.1 C 0 km/h
1943 09-11-2010 08:22:02 6.2 C 6.1 g/m*3 6.2 C 0 km/h
1944 09-11-2010 08:34:02 6.5 C 6.15 g/m*3 6.5 C 0 km/h
1945 09-11-2010 08:46:01 6.5 C 6 g/m*3 6.5 C 0 km/h
1946 09-11-2010 08:58:01 6.8 C 6.12 g/m*3 6.8 C 0 km/h
1947 09-11-2010 09:10:02 7 C 6.04 g/m*3 7 C 0 km/h
1948 09-11-2010 09:22:02 7 C 6.04 g/m*3 7 C 0 km/h
1949 09-11-2010 09:34:02 6.7 C 6.08 g/m*3 6.7 C 0 km/h
1950 09-11-2010 09:46:02 6.5 C 6 g/m*3 6.5 C 0 km/h
Sensor: Nr:Datum:Temp:Abs-Feuchte:Windchill:Wind:
Aussen-T/F 1951 09-11-2010 09:58:02 7.3 C 6.32 g/m*3 7.3 C 0 km/h
1952 09-11-2010 10:10:01 7.1 C 6.08 g/m*3 7.1 C 0 km/h
1953 09-11-2010 10:22:02 6.6 C 6.11 g/m*3 6.6 C 0 km/h
1954 09-11-2010 10:34:01 7.6 C 6.61 g/m*3 7.6 C 0 km/h
1955 09-11-2010 10:46:02 9 C 6.26 g/m*3 9 C 0 km/h
1956 09-11-2010 10:58:02 9.2 C 6.16 g/m*3 9.2 C 0 km/h
1957 09-11-2010 11:10:01 9.1 C 6.03 g/m*3 9.1 C 0 km/h
1958 09-11-2010 11:22:02 9.4 C 6.24 g/m*3 9.4 C 0 km/h
1959 09-11-2010 11:34:01 9.2 C 6.16 g/m*3 9.2 C 0 km/h
1960 09-11-2010 11:46:03 8.7 C 6.4 g/m*3 8.7 C 0 km/h
1961 09-11-2010 11:58:03 9.4 C 6.6 g/m*3 9.4 C 0 km/h
1962 09-11-2010 12:10:02 9.2 C 6.43 g/m*3 9.2 C 0 km/h
1963 09-11-2010 12:22:02 9.8 C 6.49 g/m*3 9.8 C 0 km/h
1964 09-11-2010 12:34:02 9.6 C 6.32 g/m*3 9.6 C 0 km/h
1965 09-11-2010 12:46:02 9.4 C 6.42 g/m*3 9.4 C 0 km/h
1966 09-11-2010 12:58:02 9.6 C 6.5 g/m*3 9.6 C 0 km/h
1967 09-11-2010 13:10:01 9.9 C 6.44 g/m*3 9.9 C 0 km/h
1968 09-11-2010 13:22:02 10 C 6.3 g/m*3 10 C 0 km/h
1969 09-11-2010 13:34:02 9.2 C 6.25 g/m*3 9.2 C 0 km/h
1970 09-11-2010 13:46:02 9.7 C 6.73 g/m*3 9.7 C 0 km/h
1971 09-11-2010 13:58:02 9.5 C 6.64 g/m*3 9.5 C 0 km/h
1972 09-11-2010 14:10:03 9.1 C 6.65 g/m*3 9.1 C 0 km/h
1973 09-11-2010 14:22:02 9 C 6.7 g/m*3 9 C 0 km/h
1974 09-11-2010 14:34:02 8.8 C 6.88 g/m*3 8.8 C 0 km/h
1975 09-11-2010 14:46:01 8.7 C 6.92 g/m*3 8.7 C 0 km/h
Sensor: Nr:Datum:Temp:Abs-Feuchte:Windchill:Wind:
Aussen-T/F 1976 09-11-2010 14:58:01 8.7 C 7.09 g/m*3 8.7 C 0 km/h
1977 09-11-2010 15:10:02 8.6 C 7.05 g/m*3 8.6 C 0 km/h
1978 09-11-2010 15:22:01 8.5 C 7 g/m*3 8.5 C 0 km/h
1979 09-11-2010 15:34:01 8.4 C 7.04 g/m*3 8.4 C 0 km/h
1980 09-11-2010 15:46:01 8.4 C 7.13 g/m*3 8.4 C 0 km/h
1981 09-11-2010 15:58:01 8.2 C 7.12 g/m*3 8.2 C 0 km/h
1982 09-11-2010 16:10:02 8.1 C 7.16 g/m*3 8.1 C 0 km/h
1983 09-11-2010 16:22:01 8 C 7.11 g/m*3 8 C 0 km/h
1984 09-11-2010 16:34:02 7.9 C 7.23 g/m*3 7.9 C 0 km/h
1985 09-11-2010 16:46:02 7.8 C 7.18 g/m*3 7.8 C 0 km/h
1986 09-11-2010 16:58:02 7.8 C 7.26 g/m*3 7.8 C 0 km/h
1987 09-11-2010 17:10:02 7.7 C 7.22 g/m*3 7.7 C 0 km/h
1988 09-11-2010 17:22:02 7.5 C 7.12 g/m*3 7.5 C 0 km/h
1989 09-11-2010 17:34:02 7.2 C 6.99 g/m*3 7.2 C 0 km/h
1990 09-11-2010 17:46:02 7.1 C 6.94 g/m*3 7.1 C 0 km/h
1991 09-11-2010 17:58:02 7 C 6.97 g/m*3 7 C 0 km/h
1992 09-11-2010 18:10:03 6.8 C 6.88 g/m*3 6.8 C 0 km/h
1993 09-11-2010 18:22:02 6.7 C 6.84 g/m*3 6.7 C 0 km/h
1994 09-11-2010 18:34:02 6.3 C 6.66 g/m*3 6.3 C 0 km/h
1995 09-11-2010 18:46:01 6.4 C 6.78 g/m*3 6.4 C 0 km/h
1996 09-11-2010 18:58:01 7 C 6.97 g/m*3 7 C 0 km/h
1997 09-11-2010 19:10:02 7 C 7.05 g/m*3 7 C 0 km/h
1998 09-11-2010 19:22:01 7 C 7.05 g/m*3 7 C 0 km/h
1999 09-11-2010 19:34:01 6.7 C 6.91 g/m*3 6.7 C 0 km/h
2000 09-11-2010 19:46:01 6.9 C 7.08 g/m*3 6.9 C 0 km/h
Sensor: Nr:Datum:Temp:Abs-Feuchte:Windchill:Wind:
Aussen-T/F 2001 09-11-2010 19:58:01 6.7 C 6.99 g/m*3 6.7 C 0 km/h
2002 09-11-2010 20:10:02 6.7 C 6.99 g/m*3 6.7 C 0 km/h
2003 09-11-2010 20:22:01 6.7 C 6.99 g/m*3 6.7 C 0 km/h
2004 09-11-2010 20:34:01 6.7 C 6.99 g/m*3 6.7 C 0 km/h
2005 09-11-2010 20:46:01 6.9 C 7.08 g/m*3 6.9 C 0 km/h
2006 09-11-2010 20:58:01 6.9 C 7.08 g/m*3 6.9 C 0 km/h
2007 09-11-2010 21:10:02 6.9 C 7.08 g/m*3 6.9 C 0 km/h
2008 09-11-2010 21:22:01 6.9 C 7.08 g/m*3 6.9 C 0 km/h
2009 09-11-2010 21:34:01 6.9 C 7.08 g/m*3 6.9 C 0 km/h
2010 09-11-2010 21:46:01 6.8 C 7.04 g/m*3 6.8 C 0 km/h
2011 09-11-2010 21:58:01 6.7 C 6.99 g/m*3 6.7 C 0 km/h
2012 09-11-2010 22:10:02 6.7 C 6.99 g/m*3 6.7 C 0 km/h
2013 09-11-2010 22:23:03 6.7 C 6.99 g/m*3 6.7 C 0 km/h
2014 09-11-2010 22:35:03 6.7 C 6.99 g/m*3 6.7 C 0 km/h
2015 09-11-2010 22:47:03 6.9 C 7.08 g/m*3 6.9 C 0 km/h
2016 09-11-2010 22:59:03 6.9 C 7.08 g/m*3 6.9 C 0 km/h
2017 09-11-2010 23:11:03 6.9 C 7.08 g/m*3 6.9 C 0 km/h
2018 09-11-2010 23:23:03 6.9 C 7.08 g/m*3 6.9 C 0 km/h
2019 09-11-2010 23:35:03 6.9 C 7.08 g/m*3 6.9 C 0 km/h
2020 09-11-2010 23:47:03 6.8 C 7.04 g/m*3 6.8 C 0 km/h
2021 09-11-2010 23:59:03 6.7 C 6.99 g/m*3 6.7 C 0 km/h
2022 10-11-2010 00:11:03 6.6 C 6.95 g/m*3 6.6 C 0 km/h
2023 10-11-2010 00:23:03 6.4 C 6.85 g/m*3 6.4 C 0 km/h
2024 10-11-2010 00:35:03 6.3 C 6.81 g/m*3 6.3 C 0 km/h
2025 10-11-2010 00:47:03 6.7 C 6.99 g/m*3 6.7 C 0 km/h
Sensor: Nr:Datum:Temp:Abs-Feuchte:Windchill:Wind:
Aussen-T/F 2026 10-11-2010 00:59:03 6.8 C 7.04 g/m*3 6.8 C 0 km/h
2027 10-11-2010 01:11:03 6.9 C 7.08 g/m*3 6.9 C 0 km/h
2028 10-11-2010 01:23:03 6.9 C 7.16 g/m*3 6.9 C 0 km/h
2029 10-11-2010 01:35:03 7 C 7.13 g/m*3 7 C 0 km/h
2030 10-11-2010 01:47:04 6.9 C 7.16 g/m*3 6.9 C 0 km/h
2031 10-11-2010 01:59:04 6.9 C 7.16 g/m*3 6.9 C 0 km/h
2032 10-11-2010 02:11:04 6.9 C 7.16 g/m*3 6.9 C 0 km/h
2033 10-11-2010 02:23:04 6.9 C 7.16 g/m*3 6.9 C 0 km/h
2034 10-11-2010 02:35:04 6.8 C 7.11 g/m*3 6.8 C 0 km/h
2035 10-11-2010 02:47:04 6.9 C 7.16 g/m*3 6.9 C 0 km/h
2036 10-11-2010 02:59:04 7 C 7.13 g/m*3 7 C 0 km/h
2037 10-11-2010 03:11:04 7.1 C 7.18 g/m*3 7.1 C 0 km/h
2038 10-11-2010 03:23:04 7.1 C 7.18 g/m*3 7.1 C 0 km/h
2039 10-11-2010 03:35:04 7 C 7.13 g/m*3 7 C 0 km/h
2040 10-11-2010 03:47:04 7.2 C 7.22 g/m*3 7.2 C 0 km/h
2041 10-11-2010 03:59:04 7.1 C 7.18 g/m*3 7.1 C 0 km/h
2042 10-11-2010 04:11:04 7 C 7.13 g/m*3 7 C 0 km/h
2043 10-11-2010 04:23:04 7 C 7.13 g/m*3 7 C 0 km/h
2044 10-11-2010 04:35:04 6.8 C 7.11 g/m*3 6.8 C 0 km/h
2045 10-11-2010 04:47:04 6.8 C 7.11 g/m*3 6.8 C 0 km/h
2046 10-11-2010 04:59:04 6.8 C 7.11 g/m*3 6.8 C 0 km/h
2047 10-11-2010 05:11:04 6.8 C 7.11 g/m*3 6.8 C 0 km/h
2048 10-11-2010 05:23:04 6.7 C 7.07 g/m*3 6.7 C 0 km/h
2049 10-11-2010 05:35:04 6.9 C 7.16 g/m*3 6.9 C 0 km/h
2050 10-11-2010 05:47:05 7 C 7.13 g/m*3 7 C 0 km/h
Sensor: Nr:Datum:Temp:Abs-Feuchte:Windchill:Wind:
Aussen-T/F 2051 10-11-2010 05:59:05 7.1 C 7.18 g/m*3 7.1 C 0 km/h
2052 10-11-2010 06:11:05 7.1 C 7.18 g/m*3 7.1 C 0 km/h
2053 10-11-2010 06:23:05 7 C 7.13 g/m*3 7 C 0 km/h
2054 10-11-2010 06:35:05 6.9 C 7.16 g/m*3 6.9 C 0 km/h
2055 10-11-2010 06:47:05 6.8 C 7.11 g/m*3 6.8 C 0 km/h
2056 10-11-2010 06:59:05 6.3 C 6.88 g/m*3 6.3 C 0 km/h
2057 10-11-2010 07:11:05 6.1 C 6.79 g/m*3 6.1 C 0 km/h
2058 10-11-2010 07:23:05 6.1 C 6.79 g/m*3 6.1 C 0 km/h
2059 10-11-2010 07:35:05 6.7 C 6.99 g/m*3 6.7 C 0 km/h
2060 10-11-2010 07:47:03 6.3 C 6.81 g/m*3 6.3 C 0 km/h
2061 10-11-2010 07:59:03 6.5 C 6.97 g/m*3 6.5 C 0 km/h
2062 10-11-2010 08:11:02 6.6 C 7.02 g/m*3 6.6 C 0 km/h
2063 10-11-2010 08:23:03 6.6 C 7.02 g/m*3 6.6 C 0 km/h
2064 10-11-2010 08:35:02 6.7 C 7.07 g/m*3 6.7 C 0 km/h
2065 10-11-2010 08:47:02 6.7 C 6.99 g/m*3 6.7 C 0 km/h
2066 10-11-2010 08:59:02 7 C 7.13 g/m*3 7 C 0 km/h
2067 10-11-2010 09:11:02 7.3 C 7.27 g/m*3 7.3 C 0 km/h
2068 10-11-2010 09:23:02 8.2 C 7.62 g/m*3 8.2 C 0 km/h
2069 10-11-2010 09:35:03 8.3 C 7.67 g/m*3 8.3 C 0 km/h
2070 10-11-2010 09:47:02 8.6 C 7.73 g/m*3 8.6 C 0 km/h
2071 10-11-2010 09:59:03 8.7 C 7.52 g/m*3 8.7 C 0 km/h
2072 10-11-2010 10:11:01 9 C 7.32 g/m*3 9 C 0 km/h
2073 10-11-2010 10:23:02 9.5 C 7.19 g/m*3 9.5 C 0 km/h
2074 10-11-2010 10:35:02 9.6 C 6.96 g/m*3 9.6 C 0 km/h
2075 10-11-2010 10:47:02 9.8 C 6.59 g/m*3 9.8 C 0 km/h
Sensor: Nr:Datum:Temp:Abs-Feuchte:Windchill:Wind:
Aussen-T/F 2076 10-11-2010 10:59:02 10.1 C 6.52 g/m*3 10.1 C 0 km/h
2077 10-11-2010 11:11:03 9.6 C 6.41 g/m*3 9.6 C 0 km/h
2078 10-11-2010 11:23:02 9.6 C 6.5 g/m*3 9.6 C 0 km/h
2079 10-11-2010 11:35:02 9.5 C 6.46 g/m*3 9.5 C 0 km/h
2080 10-11-2010 11:47:01 9.6 C 6.5 g/m*3 9.6 C 0 km/h
2081 10-11-2010 11:59:01 9.9 C 6.54 g/m*3 9.9 C 0 km/h
2082 10-11-2010 12:11:02 9.8 C 6.49 g/m*3 9.8 C 0 km/h
2083 10-11-2010 12:23:01 10.1 C 6.43 g/m*3 10.1 C 0 km/h
2084 10-11-2010 12:35:01 9.8 C 6.49 g/m*3 9.8 C 0 km/h
2085 10-11-2010 12:47:01 10.4 C 6.55 g/m*3 10.4 C 0 km/h
2086 10-11-2010 12:59:01 10.8 C 6.42 g/m*3 10.8 C 0 km/h
2087 10-11-2010 13:11:02 10.9 C 6.47 g/m*3 10.9 C 0 km/h
2088 10-11-2010 13:23:01 11.2 C 6.18 g/m*3 11.2 C 0 km/h
2089 10-11-2010 13:35:01 11.2 C 6.18 g/m*3 11.2 C 0 km/h
2090 10-11-2010 13:47:01 11.2 C 5.98 g/m*3 11.2 C 0 km/h
2091 10-11-2010 13:59:01 10.9 C 5.97 g/m*3 10.9 C 0 km/h
2092 10-11-2010 14:11:01 10.5 C 5.92 g/m*3 10.5 C 0 km/h
2093 10-11-2010 14:23:02 10.5 C 6.01 g/m*3 10.5 C 0 km/h
2094 10-11-2010 14:35:01 10.5 C 6.01 g/m*3 10.5 C 0 km/h
2095 10-11-2010 14:47:02 10.6 C 6.05 g/m*3 10.6 C 0 km/h
2096 10-11-2010 14:59:02 10.5 C 6.11 g/m*3 10.5 C 0 km/h
2097 10-11-2010 15:11:01 10.2 C 6.28 g/m*3 10.2 C 0 km/h
2098 10-11-2010 15:23:02 7.9 C 6.32 g/m*3 7.9 C 0 km/h
2099 10-11-2010 15:35:01 7.4 C 6.44 g/m*3 7.4 C 0 km/h
2100 10-11-2010 15:47:02 7.1 C 6.47 g/m*3 7.1 C 0 km/h
Sensor: Nr:Datum:Temp:Abs-Feuchte:Windchill:Wind:
Aussen-T/F 2101 10-11-2010 15:59:02 6.7 C 6.38 g/m*3 6.7 C 0 km/h
2102 10-11-2010 16:11:02 6.5 C 6.22 g/m*3 6.5 C 0 km/h
2103 10-11-2010 16:23:02 6.1 C 6.14 g/m*3 6.1 C 0 km/h
2104 10-11-2010 16:35:02 6.3 C 6.22 g/m*3 6.3 C 0 km/h
2105 10-11-2010 16:47:02 6.1 C 6.14 g/m*3 6.1 C 0 km/h
2106 10-11-2010 16:59:02 6.2 C 6.18 g/m*3 6.2 C 0 km/h
2107 10-11-2010 17:11:02 6.3 C 6 g/m*3 6.3 C 0 km/h
2108 10-11-2010 17:23:02 6.1 C 5.77 g/m*3 6.1 C 0 km/h
2109 10-11-2010 17:35:01 5.9 C 5.84 g/m*3 5.9 C 0 km/h
2110 10-11-2010 17:47:02 5.7 C 5.69 g/m*3 5.7 C 0 km/h
2111 10-11-2010 17:59:02 5.7 C 5.76 g/m*3 5.7 C 0 km/h
2112 10-11-2010 18:11:01 5.4 C 5.58 g/m*3 5.4 C 0 km/h
2113 10-11-2010 18:23:02 5.3 C 5.68 g/m*3 5.3 C 0 km/h
2114 10-11-2010 18:35:01 5.2 C 5.65 g/m*3 5.2 C 0 km/h
2115 10-11-2010 18:47:02 5.2 C 5.71 g/m*3 5.2 C 0 km/h
2116 10-11-2010 18:59:03 5 C 5.71 g/m*3 5 C 0 km/h
2117 10-11-2010 19:11:02 5.1 C 5.68 g/m*3 5.1 C 0 km/h
2118 10-11-2010 19:23:02 5 C 5.64 g/m*3 5 C 0 km/h
2119 10-11-2010 19:35:02 5.3 C 5.68 g/m*3 5.3 C 0 km/h
2120 10-11-2010 19:47:01 5.3 C 5.61 g/m*3 5.3 C 0 km/h
2121 10-11-2010 19:59:01 5.3 C 5.54 g/m*3 5.3 C 0 km/h
2122 10-11-2010 20:11:02 5.2 C 5.51 g/m*3 5.2 C 0 km/h
2123 10-11-2010 20:23:01 5.4 C 5.51 g/m*3 5.4 C 0 km/h
2124 10-11-2010 20:35:02 5.5 C 5.48 g/m*3 5.5 C 0 km/h
2125 10-11-2010 20:47:02 5.3 C 5.54 g/m*3 5.3 C 0 km/h
Sensor: Nr:Datum:Temp:Abs-Feuchte:Windchill:Wind:
Aussen-T/F 2126 10-11-2010 20:59:02 5.3 C 5.48 g/m*3 5.3 C 0 km/h
2127 10-11-2010 21:11:02 5 C 5.5 g/m*3 5 C 0 km/h
2128 10-11-2010 21:23:02 4.8 C 5.63 g/m*3 4.8 C 0 km/h
2129 10-11-2010 21:35:02 4.6 C 5.62 g/m*3 4.6 C 0 km/h
2130 10-11-2010 21:47:02 4.1 C 5.44 g/m*3 4.1 C 0 km/h
2131 10-11-2010 21:59:02 3.8 C 5.4 g/m*3 3.8 C 0 km/h
2132 10-11-2010 22:11:02 4.1 C 5.5 g/m*3 4.1 C 0 km/h
2133 10-11-2010 22:24:03 4.3 C 5.58 g/m*3 4.3 C 0 km/h
2134 10-11-2010 22:36:04 4.9 C 5.74 g/m*3 4.9 C 0 km/h
2135 10-11-2010 22:48:04 4.9 C 5.54 g/m*3 4.9 C 0 km/h
2136 10-11-2010 23:00:04 4.5 C 5.32 g/m*3 4.5 C 0 km/h
2137 10-11-2010 23:12:04 4.5 C 5.39 g/m*3 4.5 C 0 km/h
2138 10-11-2010 23:24:04 4.2 C 5.35 g/m*3 4.2 C 0 km/h
2139 10-11-2010 23:36:04 4.1 C 5.31 g/m*3 4.1 C 0 km/h
2140 10-11-2010 23:48:04 4.2 C 5.35 g/m*3 4.2 C 0 km/h
2141 11-11-2010 00:00:04 4.5 C 5.39 g/m*3 4.5 C 0 km/h
2142 11-11-2010 00:12:04 4.8 C 5.3 g/m*3 4.8 C 0 km/h
2143 11-11-2010 00:24:04 4.8 C 5.23 g/m*3 4.8 C 0 km/h
2144 11-11-2010 00:36:04 4.5 C 5.19 g/m*3 4.5 C 0 km/h
2145 11-11-2010 00:48:04 4.4 C 5.35 g/m*3 4.4 C 0 km/h
2146 11-11-2010 01:00:04 4.4 C 5.42 g/m*3 4.4 C 0 km/h
2147 11-11-2010 01:12:04 4.5 C 5.46 g/m*3 4.5 C 0 km/h
2148 11-11-2010 01:24:04 4.5 C 5.46 g/m*3 4.5 C 0 km/h
2149 11-11-2010 01:36:04 4.6 C 5.49 g/m*3 4.6 C 0 km/h
2150 11-11-2010 01:48:04 4.5 C 5.39 g/m*3 4.5 C 0 km/h
Sensor: Nr:Datum:Temp:Abs-Feuchte:Windchill:Wind:
Aussen-T/F 2151 11-11-2010 02:00:04 5 C 5.5 g/m*3 5 C 0 km/h
2152 11-11-2010 02:12:04 5 C 5.44 g/m*3 5 C 0 km/h
2153 11-11-2010 02:24:04 4.9 C 5.4 g/m*3 4.9 C 0 km/h
2154 11-11-2010 02:36:04 5.1 C 5.4 g/m*3 5.1 C 0 km/h
2155 11-11-2010 02:48:04 5.1 C 5.34 g/m*3 5.1 C 0 km/h
2156 11-11-2010 03:00:05 5.2 C 5.3 g/m*3 5.2 C 0 km/h
2157 11-11-2010 03:12:05 5.2 C 5.3 g/m*3 5.2 C 0 km/h
2158 11-11-2010 03:24:05 5.2 C 5.23 g/m*3 5.2 C 0 km/h
2159 11-11-2010 03:36:05 4.4 C 5.09 g/m*3 4.4 C 0 km/h
2160 11-11-2010 03:48:05 4.2 C 5.22 g/m*3 4.2 C 0 km/h
2161 11-11-2010 04:00:05 4.6 C 5.29 g/m*3 4.6 C 0 km/h
2162 11-11-2010 04:12:05 4.1 C 5.12 g/m*3 4.1 C 0 km/h
2163 11-11-2010 04:24:05 4.2 C 5.22 g/m*3 4.2 C 0 km/h
2164 11-11-2010 04:36:05 4.5 C 5.32 g/m*3 4.5 C 0 km/h
2165 11-11-2010 04:48:05 4.1 C 5.25 g/m*3 4.1 C 0 km/h
2166 11-11-2010 05:00:05 3.8 C 5.21 g/m*3 3.8 C 0 km/h
2167 11-11-2010 05:12:05 4 C 5.28 g/m*3 4 C 0 km/h
2168 11-11-2010 05:24:05 3.7 C 5.11 g/m*3 3.7 C 0 km/h
2169 11-11-2010 05:36:05 4.6 C 5.23 g/m*3 4.6 C 0 km/h
2170 11-11-2010 05:48:05 4.5 C 5.19 g/m*3 4.5 C 0 km/h
2171 11-11-2010 06:00:05 4.2 C 5.03 g/m*3 4.2 C 0 km/h
2172 11-11-2010 06:12:05 3.5 C 4.92 g/m*3 3.5 C 0 km/h
2173 11-11-2010 06:24:05 3.6 C 5.08 g/m*3 3.6 C 0 km/h
2174 11-11-2010 06:36:05 3.7 C 5.05 g/m*3 3.7 C 0 km/h
2175 11-11-2010 06:48:05 3.5 C 4.98 g/m*3 3.5 C 0 km/h
Sensor: Nr:Datum:Temp:Abs-Feuchte:Windchill:Wind:
Aussen-T/F 2176 11-11-2010 07:00:05 3.1 C 4.85 g/m*3 3.1 C 0 km/h
2177 11-11-2010 07:12:05 3.1 C 4.91 g/m*3 3.1 C 0 km/h
2178 11-11-2010 07:24:03 3.6 C 5.08 g/m*3 3.6 C 0 km/h
2179 11-11-2010 07:36:03 4 C 5.09 g/m*3 4 C 0 km/h
2180 11-11-2010 07:48:01 4 C 4.96 g/m*3 4 C 0 km/h
2181 11-11-2010 08:00:01 3.3 C 4.73 g/m*3 3.3 C 0 km/h
2182 11-11-2010 08:12:02 2.5 C 4.71 g/m*3 2.5 C 0 km/h
2183 11-11-2010 08:24:01 2 C 4.61 g/m*3 2 C 0 km/h
2184 11-11-2010 08:36:02 2.1 C 4.76 g/m*3 2.1 C 0 km/h
2185 11-11-2010 08:48:02 1.7 C 4.74 g/m*3 1.7 C 0 km/h
2186 11-11-2010 09:00:02 2.2 C 4.9 g/m*3 2.2 C 0 km/h
2187 11-11-2010 09:12:02 3.1 C 5.27 g/m*3 3.1 C 0 km/h
2188 11-11-2010 09:24:02 4 C 5.53 g/m*3 4 C 0 km/h
2189 11-11-2010 09:36:02 4.5 C 5.52 g/m*3 4.5 C 0 km/h
2190 11-11-2010 09:48:02 4.5 C 5.19 g/m*3 4.5 C 0 km/h
2191 11-11-2010 10:00:02 4.7 C 4.93 g/m*3 4.7 C 0 km/h
2192 11-11-2010 10:12:02 5 C 4.76 g/m*3 5 C 0 km/h
2193 11-11-2010 10:24:02 5.5 C 4.64 g/m*3 5.5 C 0 km/h
2194 11-11-2010 10:36:02 6.2 C 4.41 g/m*3 6.2 C 0 km/h
2195 11-11-2010 10:48:02 6.5 C 4.12 g/m*3 6.5 C 0 km/h
2196 11-11-2010 11:00:02 6.7 C 3.88 g/m*3 6.7 C 0 km/h
2197 11-11-2010 11:12:02 6.9 C 3.85 g/m*3 6.9 C 0 km/h
2198 11-11-2010 11:24:02 7 C 3.72 g/m*3 7 C 0 km/h
2199 11-11-2010 11:36:02 7.1 C 3.74 g/m*3 7.1 C 0 km/h
2200 11-11-2010 11:48:03 7 C 3.72 g/m*3 7 C 0 km/h
Sensor: Nr:Datum:Temp:Abs-Feuchte:Windchill:Wind:
Aussen-T/F 2201 11-11-2010 12:00:03 7.2 C 3.92 g/m*3 7.2 C 0 km/h
2202 11-11-2010 12:12:03 7.2 C 3.85 g/m*3 7.2 C 0 km/h
2203 11-11-2010 12:24:03 7.4 C 3.98 g/m*3 7.4 C 0 km/h
2204 11-11-2010 12:36:04 7.6 C 4.03 g/m*3 7.6 C 0 km/h
2205 11-11-2010 12:48:04 7.9 C 4.11 g/m*3 7.9 C 0 km/h
2206 11-11-2010 13:00:04 7.9 C 4.11 g/m*3 7.9 C 0 km/h
2207 11-11-2010 13:12:04 7.7 C 4.14 g/m*3 7.7 C 0 km/h
2208 11-11-2010 13:24:04 7.7 C 4.22 g/m*3 7.7 C 0 km/h
2209 11-11-2010 13:36:04 7.6 C 4.11 g/m*3 7.6 C 0 km/h
2210 11-11-2010 13:48:04 7.6 C 4.19 g/m*3 7.6 C 0 km/h
2211 11-11-2010 14:00:04 7.4 C 4.21 g/m*3 7.4 C 0 km/h
2212 11-11-2010 14:12:04 7.4 C 4.29 g/m*3 7.4 C 0 km/h
2213 11-11-2010 14:24:04 7.3 C 4.27 g/m*3 7.3 C 0 km/h
2214 11-11-2010 14:36:04 7.3 C 4.19 g/m*3 7.3 C 0 km/h
2215 11-11-2010 14:48:04 7.4 C 4.21 g/m*3 7.4 C 0 km/h
2216 11-11-2010 15:00:04 7.3 C 4.27 g/m*3 7.3 C 0 km/h
2217 11-11-2010 15:12:04 7.3 C 4.35 g/m*3 7.3 C 0 km/h
2218 11-11-2010 15:24:04 7 C 4.34 g/m*3 7 C 0 km/h
2219 11-11-2010 15:36:04 6.4 C 4.47 g/m*3 6.4 C 0 km/h
2220 11-11-2010 15:48:04 6 C 4.79 g/m*3 6 C 0 km/h
2221 11-11-2010 16:00:04 5.7 C 4.91 g/m*3 5.7 C 0 km/h
2222 11-11-2010 16:12:04 5.7 C 5.05 g/m*3 5.7 C 0 km/h
2223 11-11-2010 16:24:04 5.6 C 5.09 g/m*3 5.6 C 0 km/h
2224 11-11-2010 16:36:04 5.3 C 5.06 g/m*3 5.3 C 0 km/h
2225 11-11-2010 16:48:04 5.4 C 5.3 g/m*3 5.4 C 0 km/h
Sensor: Nr:Datum:Temp:Abs-Feuchte:Windchill:Wind:
Aussen-T/F 2226 11-11-2010 17:00:05 5 C 5.3 g/m*3 5 C 0 km/h
2227 11-11-2010 17:12:05 5 C 5.44 g/m*3 5 C 0 km/h
2228 11-11-2010 17:24:05 5.4 C 5.51 g/m*3 5.4 C 0 km/h
2229 11-11-2010 17:36:05 5.6 C 5.59 g/m*3 5.6 C 0 km/h
2230 11-11-2010 17:48:05 5.4 C 5.58 g/m*3 5.4 C 0 km/h
2231 11-11-2010 18:00:05 5.5 C 5.69 g/m*3 5.5 C 0 km/h
2232 11-11-2010 18:12:05 5.5 C 5.76 g/m*3 5.5 C 0 km/h
2233 11-11-2010 18:24:05 5.6 C 5.87 g/m*3 5.6 C 0 km/h
2234 11-11-2010 18:36:05 5.7 C 5.98 g/m*3 5.7 C 0 km/h
2235 11-11-2010 18:48:01 5.9 C 6.06 g/m*3 5.9 C 0 km/h
2236 11-11-2010 19:00:01 5.9 C 6.13 g/m*3 5.9 C 0 km/h
2237 11-11-2010 19:12:02 5.9 C 6.2 g/m*3 5.9 C 0 km/h
2238 11-11-2010 19:24:02 6.2 C 6.32 g/m*3 6.2 C 0 km/h
2239 11-11-2010 19:36:01 6.5 C 6.37 g/m*3 6.5 C 0 km/h
2240 11-11-2010 19:48:02 6.6 C 6.34 g/m*3 6.6 C 0 km/h
2241 11-11-2010 20:00:02 7 C 6.35 g/m*3 7 C 0 km/h
2242 11-11-2010 20:12:01 7.2 C 6.28 g/m*3 7.2 C 0 km/h
2243 11-11-2010 20:24:02 7.6 C 6.36 g/m*3 7.6 C 0 km/h
2244 11-11-2010 20:36:01 7.7 C 6.41 g/m*3 7.7 C 0 km/h
2245 11-11-2010 20:48:03 8 C 6.28 g/m*3 8 C 0 km/h
2246 11-11-2010 21:00:03 7.9 C 6.41 g/m*3 7.9 C 0 km/h
2247 11-11-2010 21:12:02 8.4 C 6.45 g/m*3 8.4 C 0 km/h
2248 11-11-2010 21:24:02 8.5 C 6.57 g/m*3 8.5 C 0 km/h
2249 11-11-2010 21:36:02 8.7 C 6.66 g/m*3 8.7 C 0 km/h
2250 11-11-2010 21:48:02 8.7 C 6.75 g/m*3 8.7 C 0 km/h
Sensor: Nr:Datum:Temp:Abs-Feuchte:Windchill:Wind:
Aussen-T/F 2251 11-11-2010 22:00:02 8.5 C 6.83 g/m*3 8.5 C 0 km/h
2252 11-11-2010 22:12:02 8.7 C 7.09 g/m*3 8.7 C 0 km/h
2253 11-11-2010 22:24:02 9 C 7.32 g/m*3 9 C 0 km/h
2254 11-11-2010 22:36:01 10.2 C 7.52 g/m*3 10.2 C 0 km/h
2255 11-11-2010 22:48:02 10.3 C 7.37 g/m*3 10.3 C 0 km/h
2256 11-11-2010 23:00:02 10 C 7.42 g/m*3 10 C 0 km/h
2257 11-11-2010 23:12:01 9.9 C 7.75 g/m*3 9.9 C 0 km/h
2258 11-11-2010 23:24:02 9.7 C 7.74 g/m*3 9.7 C 0 km/h
2259 11-11-2010 23:36:01 9.6 C 7.79 g/m*3 9.6 C 0 km/h
2260 11-11-2010 23:48:02 9.7 C 7.74 g/m*3 9.7 C 0 km/h
2261 12-11-2010 00:00:02 10 C 7.52 g/m*3 10 C 0 km/h
2262 12-11-2010 00:12:02 9.7 C 7.01 g/m*3 9.7 C 0 km/h
2263 12-11-2010 00:24:02 9.6 C 6.78 g/m*3 9.6 C 0 km/h
2264 12-11-2010 00:36:02 10 C 6.39 g/m*3 10 C 0 km/h
2265 12-11-2010 00:48:01 9.4 C 6.42 g/m*3 9.4 C 0 km/h
2266 12-11-2010 01:00:01 9.5 C 6.37 g/m*3 9.5 C 0 km/h
2267 12-11-2010 01:12:02 9.3 C 6.11 g/m*3 9.3 C 0 km/h
2268 12-11-2010 01:24:01 10 C 6.01 g/m*3 10 C 0 km/h
2269 12-11-2010 01:36:02 10.2 C 5.71 g/m*3 10.2 C 0 km/h
2270 12-11-2010 01:48:01 10.2 C 5.42 g/m*3 10.2 C 0 km/h
2271 12-11-2010 02:00:01 9.7 C 5.44 g/m*3 9.7 C 0 km/h
2272 12-11-2010 02:12:02 9.4 C 5.61 g/m*3 9.4 C 0 km/h
2273 12-11-2010 02:24:01 10.2 C 5.71 g/m*3 10.2 C 0 km/h
2274 12-11-2010 02:36:02 10.2 C 5.8 g/m*3 10.2 C 0 km/h
2275 12-11-2010 02:49:03 9.9 C 5.6 g/m*3 9.9 C 0 km/h
Sensor: Nr:Datum:Temp:Abs-Feuchte:Windchill:Wind:
Aussen-T/F 2276 12-11-2010 03:01:03 9.6 C 5.77 g/m*3 9.6 C 0 km/h
2277 12-11-2010 03:13:04 9.6 C 5.86 g/m*3 9.6 C 0 km/h
2278 12-11-2010 03:25:04 9.3 C 5.75 g/m*3 9.3 C 0 km/h
2279 12-11-2010 03:37:02 9.6 C 5.86 g/m*3 9.6 C 0 km/h
2280 12-11-2010 03:49:02 9.9 C 5.79 g/m*3 9.9 C 0 km/h
2281 12-11-2010 04:01:02 9.9 C 5.7 g/m*3 9.9 C 0 km/h
2282 12-11-2010 04:13:02 10.1 C 5.48 g/m*3 10.1 C 0 km/h
2283 12-11-2010 04:25:01 9.8 C 5.57 g/m*3 9.8 C 0 km/h
2284 12-11-2010 04:37:02 9.5 C 5.55 g/m*3 9.5 C 0 km/h
2285 12-11-2010 04:49:02 9.7 C 5.72 g/m*3 9.7 C 0 km/h
2286 12-11-2010 05:01:02 9.9 C 5.79 g/m*3 9.9 C 0 km/h
2287 12-11-2010 05:13:02 9.5 C 5.73 g/m*3 9.5 C 0 km/h
2288 12-11-2010 05:25:02 9.8 C 5.85 g/m*3 9.8 C 0 km/h
2289 12-11-2010 05:37:02 10.2 C 5.71 g/m*3 10.2 C 0 km/h
2290 12-11-2010 05:49:01 10.3 C 5.75 g/m*3 10.3 C 0 km/h
2291 12-11-2010 06:01:02 10.6 C 5.66 g/m*3 10.6 C 0 km/h
2292 12-11-2010 06:13:02 10.7 C 5.7 g/m*3 10.7 C 0 km/h
2293 12-11-2010 06:25:02 10.6 C 5.76 g/m*3 10.6 C 0 km/h
2294 12-11-2010 06:37:01 10.6 C 5.86 g/m*3 10.6 C 0 km/h
2295 12-11-2010 06:49:02 10.6 C 5.86 g/m*3 10.6 C 0 km/h
2296 12-11-2010 07:01:01 10.7 C 5.89 g/m*3 10.7 C 0 km/h
2297 12-11-2010 07:13:01 10.5 C 5.82 g/m*3 10.5 C 0 km/h
2298 12-11-2010 07:25:02 10.7 C 5.8 g/m*3 10.7 C 0 km/h
2299 12-11-2010 07:37:01 10.5 C 5.72 g/m*3 10.5 C 0 km/h
2300 12-11-2010 07:49:02 10.7 C 5.8 g/m*3 10.7 C 0 km/h
Sensor: Nr:Datum:Temp:Abs-Feuchte:Windchill:Wind:
Aussen-T/F 2301 12-11-2010 08:01:01 10.7 C 5.8 g/m*3 10.7 C 0 km/h
2302 12-11-2010 08:13:01 10.6 C 5.86 g/m*3 10.6 C 0 km/h
2303 12-11-2010 08:25:02 10.8 C 5.83 g/m*3 10.8 C 0 km/h
2304 12-11-2010 08:37:02 10.7 C 5.8 g/m*3 10.7 C 0 km/h
2305 12-11-2010 08:49:01 10.7 C 5.8 g/m*3 10.7 C 0 km/h
2306 12-11-2010 09:01:02 10.7 C 5.8 g/m*3 10.7 C 0 km/h
2307 12-11-2010 09:13:02 11 C 5.81 g/m*3 11 C 0 km/h
2308 12-11-2010 09:25:01 10.8 C 5.83 g/m*3 10.8 C 0 km/h
2309 12-11-2010 09:37:01 10.8 C 5.93 g/m*3 10.8 C 0 km/h
2310 12-11-2010 09:49:01 10.9 C 5.87 g/m*3 10.9 C 0 km/h
2311 12-11-2010 10:01:02 10.1 C 6.05 g/m*3 10.1 C 0 km/h
2312 12-11-2010 10:13:02 10.5 C 6.11 g/m*3 10.5 C 0 km/h
2313 12-11-2010 10:25:01 10.8 C 6.23 g/m*3 10.8 C 0 km/h
2314 12-11-2010 10:37:01 11 C 6.11 g/m*3 11 C 0 km/h
2315 12-11-2010 10:49:01 11.1 C 6.04 g/m*3 11.1 C 0 km/h
2316 12-11-2010 11:01:02 11.2 C 6.08 g/m*3 11.2 C 0 km/h
2317 12-11-2010 11:13:02 11.1 C 6.14 g/m*3 11.1 C 0 km/h
2318 12-11-2010 11:25:01 11.4 C 6.16 g/m*3 11.4 C 0 km/h
2319 12-11-2010 11:37:01 11.6 C 6.03 g/m*3 11.6 C 0 km/h
2320 12-11-2010 11:49:01 11.8 C 6 g/m*3 11.8 C 0 km/h
2321 12-11-2010 12:01:01 11.9 C 5.93 g/m*3 11.9 C 0 km/h
2322 12-11-2010 12:13:01 12.1 C 5.79 g/m*3 12.1 C 0 km/h
2323 12-11-2010 12:25:02 12.1 C 5.79 g/m*3 12.1 C 0 km/h
2324 12-11-2010 12:37:01 11.7 C 5.86 g/m*3 11.7 C 0 km/h
2325 12-11-2010 12:49:02 11.6 C 6.55 g/m*3 11.6 C 0 km/h
Sensor: Nr:Datum:Temp:Abs-Feuchte:Windchill:Wind:
Aussen-T/F 2326 12-11-2010 13:01:02 11.7 C 6.28 g/m*3 11.7 C 0 km/h
2327 12-11-2010 13:13:02 12 C 6.18 g/m*3 12 C 0 km/h
2328 12-11-2010 13:25:02 11.8 C 6.1 g/m*3 11.8 C 0 km/h
2329 12-11-2010 13:37:01 11.4 C 6.36 g/m*3 11.4 C 0 km/h
2330 12-11-2010 13:49:02 11.3 C 6.53 g/m*3 11.3 C 0 km/h
2331 12-11-2010 14:01:01 11.7 C 6.48 g/m*3 11.7 C 0 km/h
2332 12-11-2010 14:13:01 11.6 C 6.55 g/m*3 11.6 C 0 km/h
2333 12-11-2010 14:25:02 11.6 C 6.55 g/m*3 11.6 C 0 km/h
2334 12-11-2010 14:37:02 11.6 C 6.55 g/m*3 11.6 C 0 km/h
2335 12-11-2010 14:49:02 11.5 C 6.61 g/m*3 11.5 C 0 km/h
2336 12-11-2010 15:01:02 11.5 C 6.61 g/m*3 11.5 C 0 km/h
2337 12-11-2010 15:13:02 11.5 C 6.61 g/m*3 11.5 C 0 km/h
2338 12-11-2010 15:25:02 11.5 C 6.51 g/m*3 11.5 C 0 km/h
2339 12-11-2010 15:37:02 11.8 C 6.53 g/m*3 11.8 C 0 km/h
2340 12-11-2010 15:49:01 11.7 C 6.59 g/m*3 11.7 C 0 km/h
2341 12-11-2010 16:01:02 11.7 C 6.59 g/m*3 11.7 C 0 km/h
2342 12-11-2010 16:13:02 11.5 C 6.51 g/m*3 11.5 C 0 km/h
2343 12-11-2010 16:25:01 11.5 C 6.82 g/m*3 11.5 C 0 km/h
2344 12-11-2010 16:37:02 11.7 C 6.9 g/m*3 11.7 C 0 km/h
2345 12-11-2010 16:49:02 11.3 C 6.83 g/m*3 11.3 C 0 km/h
2346 12-11-2010 17:01:02 11.1 C 6.95 g/m*3 11.1 C 0 km/h
2347 12-11-2010 17:13:03 11 C 7.11 g/m*3 11 C 0 km/h
2348 12-11-2010 17:25:01 11.3 C 7.34 g/m*3 11.3 C 0 km/h
2349 12-11-2010 17:37:02 11.2 C 7.3 g/m*3 11.2 C 0 km/h
2350 12-11-2010 17:49:01 11.2 C 7.3 g/m*3 11.2 C 0 km/h
Sensor: Nr:Datum:Temp:Abs-Feuchte:Windchill:Wind:
Aussen-T/F 2351 12-11-2010 18:01:02 10.8 C 7.41 g/m*3 10.8 C 0 km/h
2352 12-11-2010 18:13:02 10.6 C 7.61 g/m*3 10.6 C 0 km/h
2353 12-11-2010 18:25:02 10.5 C 7.86 g/m*3 10.5 C 0 km/h
2354 12-11-2010 18:37:02 10.3 C 7.85 g/m*3 10.3 C 0 km/h
2355 12-11-2010 18:49:02 10.2 C 7.9 g/m*3 10.2 C 0 km/h
2356 12-11-2010 19:01:02 10.5 C 8.15 g/m*3 10.5 C 0 km/h
2357 12-11-2010 19:13:02 10.2 C 8.09 g/m*3 10.2 C 0 km/h
2358 12-11-2010 19:25:02 10.3 C 8.24 g/m*3 10.3 C 0 km/h
2359 12-11-2010 19:37:01 10.6 C 8.39 g/m*3 10.6 C 0 km/h
2360 12-11-2010 19:49:02 11 C 8.61 g/m*3 11 C 0 km/h
2361 12-11-2010 20:01:02 11.3 C 8.67 g/m*3 11.3 C 0 km/h
2362 12-11-2010 20:13:02 11.6 C 8.83 g/m*3 11.6 C 0 km/h
2363 12-11-2010 20:25:02 11.5 C 8.68 g/m*3 11.5 C 0 km/h
2364 12-11-2010 20:37:02 11.5 C 8.78 g/m*3 11.5 C 0 km/h
2365 12-11-2010 20:49:01 11.7 C 8.89 g/m*3 11.7 C 0 km/h
2366 12-11-2010 21:01:02 11.9 C 9.11 g/m*3 11.9 C 0 km/h
2367 12-11-2010 21:13:02 11.8 C 9.05 g/m*3 11.8 C 0 km/h
2368 12-11-2010 21:25:02 11.8 C 9.16 g/m*3 11.8 C 0 km/h
2369 12-11-2010 21:37:02 12.5 C 9.46 g/m*3 12.5 C 0 km/h
2370 12-11-2010 21:49:02 12.8 C 9.63 g/m*3 12.8 C 0 km/h
2371 12-11-2010 22:01:02 12.8 C 9.41 g/m*3 12.8 C 0 km/h
2372 12-11-2010 22:13:02 13.2 C 9.42 g/m*3 13.2 C 0 km/h
2373 12-11-2010 22:25:02 13.4 C 9.3 g/m*3 13.4 C 0 km/h
2374 12-11-2010 22:37:02 13.4 C 8.95 g/m*3 13.4 C 0 km/h
2375 12-11-2010 22:49:02 13.7 C 9 g/m*3 13.7 C 0 km/h
Sensor: Nr:Datum:Temp:Abs-Feuchte:Windchill:Wind:
Aussen-T/F 2376 12-11-2010 23:01:02 13.7 C 8.76 g/m*3 13.7 C 0 km/h
2377 12-11-2010 23:13:02 13.8 C 8.82 g/m*3 13.8 C 0 km/h
2378 12-11-2010 23:25:02 13.8 C 8.7 g/m*3 13.8 C 0 km/h
2379 12-11-2010 23:37:02 14 C 8.56 g/m*3 14 C 0 km/h
2380 12-11-2010 23:49:02 14.1 C 8.62 g/m*3 14.1 C 0 km/h
2381 13-11-2010 00:01:02 14 C 8.68 g/m*3 14 C 0 km/h
2382 13-11-2010 00:13:02 13.9 C 8.75 g/m*3 13.9 C 0 km/h
2383 13-11-2010 00:25:02 13.8 C 8.94 g/m*3 13.8 C 0 km/h
2384 13-11-2010 00:37:03 13.6 C 8.94 g/m*3 13.6 C 0 km/h
2385 13-11-2010 00:49:02 13.8 C 8.94 g/m*3 13.8 C 0 km/h
2386 13-11-2010 01:01:02 13.8 C 9.06 g/m*3 13.8 C 0 km/h
2387 13-11-2010 01:13:02 13.8 C 9.17 g/m*3 13.8 C 0 km/h
2388 13-11-2010 01:25:02 14 C 9.05 g/m*3 14 C 0 km/h
2389 13-11-2010 01:37:02 14 C 8.93 g/m*3 14 C 0 km/h
2390 13-11-2010 01:49:02 13.7 C 9.12 g/m*3 13.7 C 0 km/h
2391 13-11-2010 02:01:02 13.8 C 9.29 g/m*3 13.8 C 0 km/h
2392 13-11-2010 02:13:02 13.6 C 9.18 g/m*3 13.6 C 0 km/h
2393 13-11-2010 02:25:02 14 C 9.29 g/m*3 14 C 0 km/h
2394 13-11-2010 02:37:02 13.9 C 9.35 g/m*3 13.9 C 0 km/h
2395 13-11-2010 02:49:01 13.6 C 9.3 g/m*3 13.6 C 0 km/h
2396 13-11-2010 03:01:01 13.9 C 9.47 g/m*3 13.9 C 0 km/h
2397 13-11-2010 03:13:01 14 C 9.41 g/m*3 14 C 0 km/h
2398 13-11-2010 03:25:02 14.2 C 9.28 g/m*3 14.2 C 0 km/h
2399 13-11-2010 03:37:01 14.5 C 9.2 g/m*3 14.5 C 0 km/h
2400 13-11-2010 03:49:01 14.4 C 9.27 g/m*3 14.4 C 0 km/h
Sensor: Nr:Datum:Temp:Abs-Feuchte:Windchill:Wind:
Aussen-T/F 2401 13-11-2010 04:01:02 14.3 C 9.21 g/m*3 14.3 C 0 km/h
2402 13-11-2010 04:13:02 14.3 C 9.21 g/m*3 14.3 C 0 km/h
2403 13-11-2010 04:25:01 13.9 C 9.23 g/m*3 13.9 C 0 km/h
2404 13-11-2010 04:37:01 13.9 C 9.35 g/m*3 13.9 C 0 km/h
2405 13-11-2010 04:49:01 14.3 C 9.21 g/m*3 14.3 C 0 km/h
2406 13-11-2010 05:01:01 14.5 C 9.2 g/m*3 14.5 C 0 km/h
2407 13-11-2010 05:13:01 14.4 C 9.15 g/m*3 14.4 C 0 km/h
2408 13-11-2010 05:25:01 14.4 C 9.02 g/m*3 14.4 C 0 km/h
2409 13-11-2010 05:37:01 14.6 C 9.13 g/m*3 14.6 C 0 km/h
2410 13-11-2010 05:49:01 14.6 C 9.01 g/m*3 14.6 C 0 km/h
2411 13-11-2010 06:01:01 14.5 C 8.95 g/m*3 14.5 C 0 km/h
2412 13-11-2010 06:13:01 14.7 C 9.07 g/m*3 14.7 C 0 km/h
2413 13-11-2010 06:25:02 14.6 C 9.13 g/m*3 14.6 C 0 km/h
2414 13-11-2010 06:37:01 14.7 C 9.07 g/m*3 14.7 C 0 km/h
2415 13-11-2010 06:49:02 14.6 C 9.01 g/m*3 14.6 C 0 km/h
2416 13-11-2010 07:01:01 14.7 C 9.07 g/m*3 14.7 C 0 km/h
2417 13-11-2010 07:13:01 14.8 C 8.99 g/m*3 14.8 C 0 km/h
2418 13-11-2010 07:25:01 14.7 C 8.94 g/m*3 14.7 C 0 km/h
2419 13-11-2010 07:37:01 14.7 C 8.94 g/m*3 14.7 C 0 km/h
2420 13-11-2010 07:49:01 14.7 C 9.07 g/m*3 14.7 C 0 km/h
2421 13-11-2010 08:01:01 14.6 C 9.01 g/m*3 14.6 C 0 km/h
2422 13-11-2010 08:13:01 14.7 C 9.07 g/m*3 14.7 C 0 km/h
2423 13-11-2010 08:25:01 14.9 C 8.92 g/m*3 14.9 C 0 km/h
2424 13-11-2010 08:37:02 14.7 C 8.94 g/m*3 14.7 C 0 km/h
2425 13-11-2010 08:49:01 14.7 C 9.07 g/m*3 14.7 C 0 km/h
Sensor: Nr:Datum:Temp:Abs-Feuchte:Windchill:Wind:
Aussen-T/F 2426 13-11-2010 09:01:02 14.2 C 9.04 g/m*3 14.2 C 0 km/h
2427 13-11-2010 09:13:02 14.1 C 9.22 g/m*3 14.1 C 0 km/h
2428 13-11-2010 09:25:01 14.2 C 9.16 g/m*3 14.2 C 0 km/h
2429 13-11-2010 09:37:01 14.2 C 9.16 g/m*3 14.2 C 0 km/h
2430 13-11-2010 09:49:01 14.2 C 9.16 g/m*3 14.2 C 0 km/h
2431 13-11-2010 10:01:02 14 C 9.05 g/m*3 14 C 0 km/h
2432 13-11-2010 10:13:02 14 C 9.29 g/m*3 14 C 0 km/h
2433 13-11-2010 10:25:01 14.2 C 9.28 g/m*3 14.2 C 0 km/h
2434 13-11-2010 10:37:01 14.6 C 9.26 g/m*3 14.6 C 0 km/h
2435 13-11-2010 10:49:01 14.8 C 9.25 g/m*3 14.8 C 0 km/h
2436 13-11-2010 11:01:01 14.7 C 9.07 g/m*3 14.7 C 0 km/h
2437 13-11-2010 11:13:01 14.8 C 9.12 g/m*3 14.8 C 0 km/h
2438 13-11-2010 11:25:02 14.6 C 9.01 g/m*3 14.6 C 0 km/h
2439 13-11-2010 11:37:01 14.7 C 9.07 g/m*3 14.7 C 0 km/h
2440 13-11-2010 11:49:02 15 C 8.72 g/m*3 15 C 0 km/h
2441 13-11-2010 12:01:01 15.2 C 8.7 g/m*3 15.2 C 0 km/h
2442 13-11-2010 12:13:01 14.8 C 8.74 g/m*3 14.8 C 0 km/h
2443 13-11-2010 12:25:02 14.6 C 8.88 g/m*3 14.6 C 0 km/h
2444 13-11-2010 12:37:01 14.7 C 8.94 g/m*3 14.7 C 0 km/h
2445 13-11-2010 12:49:02 14.7 C 8.94 g/m*3 14.7 C 0 km/h
2446 13-11-2010 13:01:01 14.5 C 8.95 g/m*3 14.5 C 0 km/h
2447 13-11-2010 13:13:01 14.8 C 8.87 g/m*3 14.8 C 0 km/h
2448 13-11-2010 13:25:01 15.1 C 8.77 g/m*3 15.1 C 0 km/h
2449 13-11-2010 13:37:02 14.9 C 8.79 g/m*3 14.9 C 0 km/h
2450 13-11-2010 13:49:01 14.5 C 8.83 g/m*3 14.5 C 0 km/h
Sensor: Nr:Datum:Temp:Abs-Feuchte:Windchill:Wind:
Aussen-T/F 2451 13-11-2010 14:01:02 14.7 C 8.81 g/m*3 14.7 C 0 km/h
2452 13-11-2010 14:13:02 14.8 C 8.61 g/m*3 14.8 C 0 km/h
2453 13-11-2010 14:25:01 14.9 C 8.67 g/m*3 14.9 C 0 km/h
2454 13-11-2010 14:37:02 14.8 C 8.61 g/m*3 14.8 C 0 km/h
2455 13-11-2010 14:49:01 14.7 C 8.69 g/m*3 14.7 C 0 km/h
2456 13-11-2010 15:01:02 14.8 C 8.61 g/m*3 14.8 C 0 km/h
2457 13-11-2010 15:13:02 14.7 C 8.56 g/m*3 14.7 C 0 km/h
2458 13-11-2010 15:25:01 14.7 C 8.56 g/m*3 14.7 C 0 km/h
2459 13-11-2010 15:37:02 15 C 8.46 g/m*3 15 C 0 km/h
2460 13-11-2010 15:49:01 14.9 C 8.54 g/m*3 14.9 C 0 km/h
2461 13-11-2010 16:01:01 14.7 C 8.56 g/m*3 14.7 C 0 km/h
2462 13-11-2010 16:13:01 14.6 C 8.76 g/m*3 14.6 C 0 km/h
2463 13-11-2010 16:25:02 14.7 C 8.69 g/m*3 14.7 C 0 km/h
2464 13-11-2010 16:37:01 14.7 C 8.69 g/m*3 14.7 C 0 km/h
2465 13-11-2010 16:49:02 14.7 C 8.69 g/m*3 14.7 C 0 km/h
2466 13-11-2010 17:01:01 14.6 C 8.63 g/m*3 14.6 C 0 km/h
2467 13-11-2010 17:13:01 14.3 C 8.72 g/m*3 14.3 C 0 km/h
2468 13-11-2010 17:25:01 14 C 8.81 g/m*3 14 C 0 km/h
2469 13-11-2010 17:37:01 14 C 8.81 g/m*3 14 C 0 km/h
2470 13-11-2010 17:49:01 14.4 C 8.78 g/m*3 14.4 C 0 km/h
2471 13-11-2010 18:01:01 14.7 C 8.81 g/m*3 14.7 C 0 km/h
2472 13-11-2010 18:13:01 14.5 C 8.71 g/m*3 14.5 C 0 km/h
2473 13-11-2010 18:25:01 14.5 C 8.71 g/m*3 14.5 C 0 km/h
2474 13-11-2010 18:37:02 14.7 C 8.69 g/m*3 14.7 C 0 km/h
2475 13-11-2010 18:49:01 15 C 8.59 g/m*3 15 C 0 km/h
Sensor: Nr:Datum:Temp:Abs-Feuchte:Windchill:Wind:
Aussen-T/F 2476 13-11-2010 19:01:02 14.7 C 8.56 g/m*3 14.7 C 0 km/h
2477 13-11-2010 19:13:02 14.8 C 8.61 g/m*3 14.8 C 0 km/h
2478 13-11-2010 19:25:01 14.9 C 8.54 g/m*3 14.9 C 0 km/h
2479 13-11-2010 19:37:02 15.1 C 8.51 g/m*3 15.1 C 0 km/h
2480 13-11-2010 19:49:01 15.2 C 8.31 g/m*3 15.2 C 0 km/h
2481 13-11-2010 20:01:02 15.3 C 8.23 g/m*3 15.3 C 0 km/h
2482 13-11-2010 20:13:02 15.2 C 8.18 g/m*3 15.2 C 0 km/h
2483 13-11-2010 20:25:01 15.1 C 8.26 g/m*3 15.1 C 0 km/h
2484 13-11-2010 20:37:02 14.8 C 8.36 g/m*3 14.8 C 0 km/h
2485 13-11-2010 20:49:01 14.6 C 8.38 g/m*3 14.6 C 0 km/h
2486 13-11-2010 21:01:02 14.4 C 8.53 g/m*3 14.4 C 0 km/h
2487 13-11-2010 21:13:02 14.3 C 8.35 g/m*3 14.3 C 0 km/h
2488 13-11-2010 21:25:01 14.5 C 8.46 g/m*3 14.5 C 0 km/h
2489 13-11-2010 21:37:01 14.5 C 8.33 g/m*3 14.5 C 0 km/h
2490 13-11-2010 21:49:01 14.9 C 8.28 g/m*3 14.9 C 0 km/h
2491 13-11-2010 22:01:02 14.8 C 8.23 g/m*3 14.8 C 0 km/h
2492 13-11-2010 22:13:02 14.8 C 8.23 g/m*3 14.8 C 0 km/h
2493 13-11-2010 22:25:01 15.1 C 8 g/m*3 15.1 C 0 km/h
2494 13-11-2010 22:37:02 14.8 C 8.11 g/m*3 14.8 C 0 km/h
2495 13-11-2010 22:49:01 14.8 C 7.98 g/m*3 14.8 C 0 km/h
2496 13-11-2010 23:02:07 14.7 C 8.06 g/m*3 14.7 C 0 km/h
2497 13-11-2010 23:14:07 15.2 C 7.92 g/m*3 15.2 C 0 km/h
2498 13-11-2010 23:26:07 14.8 C 8.11 g/m*3 14.8 C 0 km/h
2499 13-11-2010 23:38:07 14.6 C 8.01 g/m*3 14.6 C 0 km/h
2500 13-11-2010 23:50:07 14.4 C 8.16 g/m*3 14.4 C 0 km/h
Sensor: Nr:Datum:Temp:Abs-Feuchte:Windchill:Wind:
Aussen-T/F 2501 14-11-2010 00:02:07 14.9 C 8.03 g/m*3 14.9 C 0 km/h
2502 14-11-2010 00:14:07 15.6 C 8.11 g/m*3 15.6 C 0 km/h
2503 14-11-2010 00:26:07 15.2 C 7.92 g/m*3 15.2 C 0 km/h
2504 14-11-2010 00:38:07 14.9 C 8.16 g/m*3 14.9 C 0 km/h
2505 14-11-2010 00:50:07 14.8 C 8.11 g/m*3 14.8 C 0 km/h
2506 14-11-2010 01:02:07 15.2 C 7.92 g/m*3 15.2 C 0 km/h
2507 14-11-2010 01:14:07 15.2 C 8.05 g/m*3 15.2 C 0 km/h
2508 14-11-2010 01:26:07 14.2 C 8.18 g/m*3 14.2 C 0 km/h
2509 14-11-2010 01:38:08 13.4 C 8.49 g/m*3 13.4 C 0 km/h
2510 14-11-2010 01:50:08 13.2 C 8.61 g/m*3 13.2 C 0 km/h
2511 14-11-2010 02:02:08 13.2 C 8.84 g/m*3 13.2 C 0 km/h
2512 14-11-2010 02:14:08 13.2 C 8.73 g/m*3 13.2 C 0 km/h
2513 14-11-2010 02:26:08 13.7 C 8.76 g/m*3 13.7 C 0 km/h
2514 14-11-2010 02:38:08 13.9 C 8.63 g/m*3 13.9 C 0 km/h
2515 14-11-2010 02:50:08 13.9 C 8.51 g/m*3 13.9 C 0 km/h
2516 14-11-2010 03:02:08 14.7 C 8.44 g/m*3 14.7 C 0 km/h
2517 14-11-2010 03:14:08 14.5 C 8.33 g/m*3 14.5 C 0 km/h
2518 14-11-2010 03:26:08 14.4 C 8.41 g/m*3 14.4 C 0 km/h
2519 14-11-2010 03:38:08 14.2 C 8.3 g/m*3 14.2 C 0 km/h
2520 14-11-2010 03:50:08 14 C 8.44 g/m*3 14 C 0 km/h
2521 14-11-2010 04:02:08 14 C 8.44 g/m*3 14 C 0 km/h
2522 14-11-2010 04:14:08 14 C 8.44 g/m*3 14 C 0 km/h
2523 14-11-2010 04:26:08 14.1 C 8.37 g/m*3 14.1 C 0 km/h
2524 14-11-2010 04:38:08 14.1 C 8.25 g/m*3 14.1 C 0 km/h
2525 14-11-2010 04:50:08 13.9 C 8.39 g/m*3 13.9 C 0 km/h
Sensor: Nr:Datum:Temp:Abs-Feuchte:Windchill:Wind:
Aussen-T/F 2526 14-11-2010 05:02:08 14 C 8.56 g/m*3 14 C 0 km/h
2527 14-11-2010 05:14:08 13.8 C 8.46 g/m*3 13.8 C 0 km/h
2528 14-11-2010 05:26:08 14.1 C 8.5 g/m*3 14.1 C 0 km/h
2529 14-11-2010 05:38:08 14 C 8.32 g/m*3 14 C 0 km/h
2530 14-11-2010 05:50:08 13.6 C 8.47 g/m*3 13.6 C 0 km/h
2531 14-11-2010 06:02:09 13.7 C 8.53 g/m*3 13.7 C 0 km/h
2532 14-11-2010 06:14:09 13.8 C 8.34 g/m*3 13.8 C 0 km/h
2533 14-11-2010 06:26:09 13.6 C 8.24 g/m*3 13.6 C 0 km/h
2534 14-11-2010 06:38:09 13.2 C 8.27 g/m*3 13.2 C 0 km/h
2535 14-11-2010 06:50:09 12.8 C 8.4 g/m*3 12.8 C 0 km/h
2536 14-11-2010 07:02:09 12.4 C 8.09 g/m*3 12.4 C 0 km/h
2537 14-11-2010 07:14:09 11.9 C 8.15 g/m*3 11.9 C 0 km/h
2538 14-11-2010 07:26:09 11.5 C 8.06 g/m*3 11.5 C 0 km/h
2539 14-11-2010 07:38:09 11.6 C 7.9 g/m*3 11.6 C 0 km/h
2540 14-11-2010 07:50:09 12.2 C 7.77 g/m*3 12.2 C 0 km/h
2541 14-11-2010 08:02:09 11.9 C 7.63 g/m*3 11.9 C 0 km/h
2542 14-11-2010 08:14:09 11.9 C 7.52 g/m*3 11.9 C 0 km/h
2543 14-11-2010 08:26:09 12.7 C 7.57 g/m*3 12.7 C 0 km/h
2544 14-11-2010 08:38:06 13 C 7.48 g/m*3 13 C 0 km/h
2545 14-11-2010 08:50:02 13.8 C 7.39 g/m*3 13.8 C 0 km/h
2546 14-11-2010 09:02:02 14.1 C 7.28 g/m*3 14.1 C 0 km/h
2547 14-11-2010 09:14:02 14.3 C 7.25 g/m*3 14.3 C 0 km/h
2548 14-11-2010 09:26:02 14.7 C 7.18 g/m*3 14.7 C 0 km/h
2549 14-11-2010 09:38:02 14.3 C 7.25 g/m*3 14.3 C 0 km/h
2550 14-11-2010 09:50:02 14 C 7.24 g/m*3 14 C 0 km/h
Sensor: Nr:Datum:Temp:Abs-Feuchte:Windchill:Wind:
Aussen-T/F 2551 14-11-2010 10:02:02 13.8 C 7.51 g/m*3 13.8 C 0 km/h
2552 14-11-2010 10:14:02 14.5 C 7.34 g/m*3 14.5 C 0 km/h
2553 14-11-2010 10:26:02 15 C 7.05 g/m*3 15 C 0 km/h
2554 14-11-2010 10:38:02 15.9 C 7.04 g/m*3 15.9 C 0 km/h
2555 14-11-2010 10:50:02 15.9 C 7.04 g/m*3 15.9 C 0 km/h
2556 14-11-2010 11:02:02 15.9 C 7.18 g/m*3 15.9 C 0 km/h
2557 14-11-2010 11:14:03 15.5 C 7.01 g/m*3 15.5 C 0 km/h
2558 14-11-2010 11:26:02 15.2 C 7.27 g/m*3 15.2 C 0 km/h
2559 14-11-2010 11:38:02 15 C 7.31 g/m*3 15 C 0 km/h
2560 14-11-2010 11:50:02 15.6 C 7.31 g/m*3 15.6 C 0 km/h
2561 14-11-2010 12:02:02 15.9 C 7.45 g/m*3 15.9 C 0 km/h
2562 14-11-2010 12:14:02 15.8 C 7.4 g/m*3 15.8 C 0 km/h
2563 14-11-2010 12:26:03 16 C 7.22 g/m*3 16 C 0 km/h
2564 14-11-2010 12:38:02 16.4 C 7.4 g/m*3 16.4 C 0 km/h
2565 14-11-2010 12:50:03 16.7 C 7.53 g/m*3 16.7 C 0 km/h
2566 14-11-2010 13:02:02 16.7 C 7.53 g/m*3 16.7 C 0 km/h
2567 14-11-2010 13:14:02 17.5 C 7.31 g/m*3 17.5 C 0 km/h
2568 14-11-2010 13:26:02 17.8 C 7.44 g/m*3 17.8 C 0 km/h
2569 14-11-2010 13:38:02 17.6 C 7.5 g/m*3 17.6 C 0 km/h
2570 14-11-2010 13:50:02 17.7 C 7.39 g/m*3 17.7 C 0 km/h
2571 14-11-2010 14:02:01 17.5 C 7.16 g/m*3 17.5 C 0 km/h
2572 14-11-2010 14:14:01 17.5 C 7.45 g/m*3 17.5 C 0 km/h
2573 14-11-2010 14:26:02 17.6 C 7.2 g/m*3 17.6 C 0 km/h
2574 14-11-2010 14:38:03 17.8 C 7.13 g/m*3 17.8 C 0 km/h
2575 14-11-2010 14:50:03 17.8 C 7.29 g/m*3 17.8 C 0 km/h
Sensor: Nr:Datum:Temp:Abs-Feuchte:Windchill:Wind:
Aussen-T/F 2576 14-11-2010 15:02:03 18 C 6.91 g/m*3 18 C 0 km/h
2577 14-11-2010 15:14:03 18 C 7.07 g/m*3 18 C 0 km/h
2578 14-11-2010 15:26:02 17.6 C 7.2 g/m*3 17.6 C 0 km/h
2579 14-11-2010 15:38:03 17.6 C 7.2 g/m*3 17.6 C 0 km/h
2580 14-11-2010 15:50:02 17.3 C 7.22 g/m*3 17.3 C 0 km/h
2581 14-11-2010 16:02:02 17.2 C 7.03 g/m*3 17.2 C 0 km/h
2582 14-11-2010 16:14:02 16.6 C 7.2 g/m*3 16.6 C 0 km/h
2583 14-11-2010 16:26:02 15.7 C 7.36 g/m*3 15.7 C 0 km/h
2584 14-11-2010 16:38:02 15.1 C 7.61 g/m*3 15.1 C 0 km/h
2585 14-11-2010 16:50:02 14 C 8.68 g/m*3 14 C 0 km/h
2586 14-11-2010 17:02:02 13.8 C 8.82 g/m*3 13.8 C 0 km/h
2587 14-11-2010 17:14:02 15.3 C 8.49 g/m*3 15.3 C 0 km/h
2588 14-11-2010 17:26:02 15.5 C 7.8 g/m*3 15.5 C 0 km/h
2589 14-11-2010 17:38:02 14.7 C 7.68 g/m*3 14.7 C 0 km/h
2590 14-11-2010 17:50:02 14.4 C 7.79 g/m*3 14.4 C 0 km/h
2591 14-11-2010 18:02:02 14.1 C 7.77 g/m*3 14.1 C 0 km/h
2592 14-11-2010 18:14:03 14.1 C 7.89 g/m*3 14.1 C 0 km/h
2593 14-11-2010 18:26:02 13.9 C 8.15 g/m*3 13.9 C 0 km/h
2594 14-11-2010 18:38:02 14.3 C 8.23 g/m*3 14.3 C 0 km/h
2595 14-11-2010 18:50:02 14.4 C 8.03 g/m*3 14.4 C 0 km/h
2596 14-11-2010 19:02:03 14 C 7.96 g/m*3 14 C 0 km/h
2597 14-11-2010 19:14:03 13.7 C 8.05 g/m*3 13.7 C 0 km/h
2598 14-11-2010 19:26:02 14 C 7.96 g/m*3 14 C 0 km/h
2599 14-11-2010 19:38:02 14.3 C 7.74 g/m*3 14.3 C 0 km/h
2600 14-11-2010 19:50:01 13.8 C 7.74 g/m*3 13.8 C 0 km/h
Sensor: Nr:Datum:Temp:Abs-Feuchte:Windchill:Wind:
Aussen-T/F 2601 14-11-2010 20:02:02 13.8 C 7.86 g/m*3 13.8 C 0 km/h
2602 14-11-2010 20:14:02 13.5 C 7.95 g/m*3 13.5 C 0 km/h
2603 14-11-2010 20:26:01 14.5 C 7.71 g/m*3 14.5 C 0 km/h
2604 14-11-2010 20:38:02 14.2 C 7.45 g/m*3 14.2 C 0 km/h
2605 14-11-2010 20:50:02 14.1 C 7.4 g/m*3 14.1 C 0 km/h
2606 14-11-2010 21:02:02 14.2 C 7.45 g/m*3 14.2 C 0 km/h
2607 14-11-2010 21:14:03 14 C 7.36 g/m*3 14 C 0 km/h
2608 14-11-2010 21:26:01 13.7 C 7.34 g/m*3 13.7 C 0 km/h
2609 14-11-2010 21:38:02 13.8 C 7.15 g/m*3 13.8 C 0 km/h
2610 14-11-2010 21:50:01 13.9 C 7.07 g/m*3 13.9 C 0 km/h
2611 14-11-2010 22:02:02 14 C 7 g/m*3 14 C 0 km/h
2612 14-11-2010 22:14:02 13.7 C 7.1 g/m*3 13.7 C 0 km/h
2613 14-11-2010 22:26:02 13.8 C 7.15 g/m*3 13.8 C 0 km/h
2614 14-11-2010 22:39:05 13.7 C 7.1 g/m*3 13.7 C 0 km/h
2615 14-11-2010 22:51:05 13.7 C 7.1 g/m*3 13.7 C 0 km/h
2616 14-11-2010 23:03:05 13.7 C 7.1 g/m*3 13.7 C 0 km/h
2617 14-11-2010 23:15:05 13.5 C 6.9 g/m*3 13.5 C 0 km/h
2618 14-11-2010 23:27:05 13.5 C 6.9 g/m*3 13.5 C 0 km/h
2619 14-11-2010 23:39:05 13.1 C 6.85 g/m*3 13.1 C 0 km/h
2620 14-11-2010 23:51:05 13.3 C 6.93 g/m*3 13.3 C 0 km/h
2621 15-11-2010 00:03:05 13.1 C 6.96 g/m*3 13.1 C 0 km/h
2622 15-11-2010 00:15:05 13 C 6.92 g/m*3 13 C 0 km/h
2623 15-11-2010 00:27:06 12.6 C 6.97 g/m*3 12.6 C 0 km/h
2624 15-11-2010 00:39:06 13 C 7.03 g/m*3 13 C 0 km/h
2625 15-11-2010 00:51:06 12.7 C 7.01 g/m*3 12.7 C 0 km/h
Sensor: Nr:Datum:Temp:Abs-Feuchte:Windchill:Wind:
Aussen-T/F 2626 15-11-2010 01:03:06 12.7 C 6.9 g/m*3 12.7 C 0 km/h
2627 15-11-2010 01:15:06 12.5 C 6.82 g/m*3 12.5 C 0 km/h
2628 15-11-2010 01:27:06 12.1 C 6.76 g/m*3 12.1 C 0 km/h
2629 15-11-2010 01:39:06 11.9 C 6.99 g/m*3 11.9 C 0 km/h
2630 15-11-2010 01:51:06 11.9 C 7.1 g/m*3 11.9 C 0 km/h
2631 15-11-2010 02:03:06 11.8 C 7.05 g/m*3 11.8 C 0 km/h
2632 15-11-2010 02:15:06 12 C 6.82 g/m*3 12 C 0 km/h
2633 15-11-2010 02:27:06 11.9 C 6.78 g/m*3 11.9 C 0 km/h
2634 15-11-2010 02:39:06 11.7 C 6.9 g/m*3 11.7 C 0 km/h
2635 15-11-2010 02:51:06 11.5 C 7.02 g/m*3 11.5 C 0 km/h
2636 15-11-2010 03:03:06 11.3 C 6.94 g/m*3 11.3 C 0 km/h
2637 15-11-2010 03:15:06 11.1 C 6.95 g/m*3 11.1 C 0 km/h
2638 15-11-2010 03:27:06 10.8 C 7.02 g/m*3 10.8 C 0 km/h
2639 15-11-2010 03:39:06 10.7 C 7.07 g/m*3 10.7 C 0 km/h
2640 15-11-2010 03:51:06 10.6 C 7.12 g/m*3 10.6 C 0 km/h
2641 15-11-2010 04:03:06 10.5 C 6.98 g/m*3 10.5 C 0 km/h
2642 15-11-2010 04:15:06 10.3 C 6.99 g/m*3 10.3 C 0 km/h
2643 15-11-2010 04:27:06 10.2 C 6.95 g/m*3 10.2 C 0 km/h
2644 15-11-2010 04:39:07 10.2 C 6.95 g/m*3 10.2 C 0 km/h
2645 15-11-2010 04:51:07 10 C 6.86 g/m*3 10 C 0 km/h
2646 15-11-2010 05:03:07 10.2 C 6.47 g/m*3 10.2 C 0 km/h
2647 15-11-2010 05:15:07 10.2 C 6.57 g/m*3 10.2 C 0 km/h
2648 15-11-2010 05:27:07 9.8 C 6.59 g/m*3 9.8 C 0 km/h
2649 15-11-2010 05:39:07 9.6 C 6.6 g/m*3 9.6 C 0 km/h
2650 15-11-2010 05:51:07 9.8 C 6.4 g/m*3 9.8 C 0 km/h
Sensor: Nr:Datum:Temp:Abs-Feuchte:Windchill:Wind:
Aussen-T/F 2651 15-11-2010 06:03:07 9.6 C 6.41 g/m*3 9.6 C 0 km/h
2652 15-11-2010 06:15:07 9.5 C 6.19 g/m*3 9.5 C 0 km/h
2653 15-11-2010 06:27:07 9.4 C 6.15 g/m*3 9.4 C 0 km/h
2654 15-11-2010 06:39:07 9.1 C 6.21 g/m*3 9.1 C 0 km/h
2655 15-11-2010 06:51:07 9.1 C 6.39 g/m*3 9.1 C 0 km/h
2656 15-11-2010 07:03:07 9.1 C 6.39 g/m*3 9.1 C 0 km/h
2657 15-11-2010 07:15:03 8.9 C 6.48 g/m*3 8.9 C 0 km/h
2658 15-11-2010 07:27:03 8.6 C 6.36 g/m*3 8.6 C 0 km/h
2659 15-11-2010 07:39:03 8.9 C 6.66 g/m*3 8.9 C 0 km/h
2660 15-11-2010 07:51:01 9.3 C 6.2 g/m*3 9.3 C 0 km/h
2661 15-11-2010 08:03:02 9.5 C 6.19 g/m*3 9.5 C 0 km/h
2662 15-11-2010 08:15:02 9.2 C 6.16 g/m*3 9.2 C 0 km/h
2663 15-11-2010 08:27:02 9 C 6.26 g/m*3 9 C 0 km/h
2664 15-11-2010 08:39:01 8.8 C 6.44 g/m*3 8.8 C 0 km/h
2665 15-11-2010 08:51:03 9 C 6.35 g/m*3 9 C 0 km/h
2666 15-11-2010 09:03:02 9.1 C 6.3 g/m*3 9.1 C 0 km/h
2667 15-11-2010 09:15:02 9.1 C 6.12 g/m*3 9.1 C 0 km/h
2668 15-11-2010 09:27:03 9.1 C 6.03 g/m*3 9.1 C 0 km/h
2669 15-11-2010 09:39:02 9.2 C 5.98 g/m*3 9.2 C 0 km/h
2670 15-11-2010 09:51:02 9.3 C 5.93 g/m*3 9.3 C 0 km/h
2671 15-11-2010 10:03:02 9.3 C 5.84 g/m*3 9.3 C 0 km/h
2672 15-11-2010 10:15:02 9.4 C 5.79 g/m*3 9.4 C 0 km/h
2673 15-11-2010 10:27:03 9.8 C 6.03 g/m*3 9.8 C 0 km/h
2674 15-11-2010 10:39:01 10.2 C 5.8 g/m*3 10.2 C 0 km/h
2675 15-11-2010 10:51:02 10.4 C 5.88 g/m*3 10.4 C 0 km/h
Sensor: Nr:Datum:Temp:Abs-Feuchte:Windchill:Wind:
Aussen-T/F 2676 15-11-2010 11:03:01 10.4 C 5.88 g/m*3 10.4 C 0 km/h
2677 15-11-2010 11:15:01 10.4 C 5.78 g/m*3 10.4 C 0 km/h
2678 15-11-2010 11:27:01 10.3 C 5.75 g/m*3 10.3 C 0 km/h
2679 15-11-2010 11:39:02 10 C 5.54 g/m*3 10 C 0 km/h
2680 15-11-2010 11:51:02 10.4 C 5.78 g/m*3 10.4 C 0 km/h
2681 15-11-2010 12:03:01 10.4 C 5.69 g/m*3 10.4 C 0 km/h
2682 15-11-2010 12:15:02 10.8 C 5.63 g/m*3 10.8 C 0 km/h
2683 15-11-2010 12:27:02 10.9 C 5.47 g/m*3 10.9 C 0 km/h
2684 15-11-2010 12:39:02 11.2 C 5.57 g/m*3 11.2 C 0 km/h
2685 15-11-2010 12:51:01 10.9 C 5.47 g/m*3 10.9 C 0 km/h
2686 15-11-2010 13:03:02 10.8 C 5.54 g/m*3 10.8 C 0 km/h
2687 15-11-2010 13:15:01 10.5 C 5.63 g/m*3 10.5 C 0 km/h
2688 15-11-2010 13:27:01 10.4 C 5.69 g/m*3 10.4 C 0 km/h
2689 15-11-2010 13:39:01 10.3 C 5.65 g/m*3 10.3 C 0 km/h
2690 15-11-2010 13:51:02 10.4 C 5.59 g/m*3 10.4 C 0 km/h
2691 15-11-2010 14:03:02 10.3 C 5.46 g/m*3 10.3 C 0 km/h
2692 15-11-2010 14:15:01 10.4 C 5.49 g/m*3 10.4 C 0 km/h
2693 15-11-2010 14:27:01 10.2 C 5.52 g/m*3 10.2 C 0 km/h
2694 15-11-2010 14:39:02 10.2 C 5.52 g/m*3 10.2 C 0 km/h
2695 15-11-2010 14:51:02 10.1 C 5.48 g/m*3 10.1 C 0 km/h
2696 15-11-2010 15:03:02 10 C 5.45 g/m*3 10 C 0 km/h
2697 15-11-2010 15:15:01 9.9 C 5.6 g/m*3 9.9 C 0 km/h
2698 15-11-2010 15:27:01 9.7 C 5.53 g/m*3 9.7 C 0 km/h
2699 15-11-2010 15:39:02 9.5 C 5.55 g/m*3 9.5 C 0 km/h
2700 15-11-2010 15:51:01 9.3 C 5.57 g/m*3 9.3 C 0 km/h
Sensor: Nr:Datum:Temp:Abs-Feuchte:Windchill:Wind:
Aussen-T/F 2701 15-11-2010 16:03:02 9.3 C 5.57 g/m*3 9.3 C 0 km/h
2702 15-11-2010 16:15:02 9.2 C 5.71 g/m*3 9.2 C 0 km/h
2703 15-11-2010 16:27:02 8.9 C 5.69 g/m*3 8.9 C 0 km/h
2704 15-11-2010 16:39:02 8.8 C 5.74 g/m*3 8.8 C 0 km/h
2705 15-11-2010 16:51:02 8.6 C 5.76 g/m*3 8.6 C 0 km/h
2706 15-11-2010 17:03:02 8.4 C 5.77 g/m*3 8.4 C 0 km/h
2707 15-11-2010 17:15:43 8.2 C 5.78 g/m*3 8.2 C 0 km/h
2708 15-11-2010 17:27:43 8.2 C 5.78 g/m*3 8.2 C 0 km/h
2709 15-11-2010 17:39:01 8.1 C 5.82 g/m*3 8.1 C 0 km/h
2710 15-11-2010 17:51:02 7.9 C 5.91 g/m*3 7.9 C 0 km/h
2711 15-11-2010 18:03:02 7.8 C 5.96 g/m*3 7.8 C 0 km/h
2712 15-11-2010 18:15:01 8.2 C 5.86 g/m*3 8.2 C 0 km/h
2713 15-11-2010 18:27:01 8.3 C 5.9 g/m*3 8.3 C 0 km/h
2714 15-11-2010 18:39:02 8.2 C 5.86 g/m*3 8.2 C 0 km/h
2715 15-11-2010 18:51:02 8.2 C 5.86 g/m*3 8.2 C 0 km/h
2716 15-11-2010 19:03:02 8.2 C 5.78 g/m*3 8.2 C 0 km/h
2717 15-11-2010 19:15:01 8.1 C 5.91 g/m*3 8.1 C 0 km/h
2718 15-11-2010 19:27:01 8 C 5.87 g/m*3 8 C 0 km/h
2719 15-11-2010 19:39:02 7.9 C 5.91 g/m*3 7.9 C 0 km/h
2720 15-11-2010 19:51:02 7.7 C 5.92 g/m*3 7.7 C 0 km/h
2721 15-11-2010 20:03:02 7.7 C 5.92 g/m*3 7.7 C 0 km/h
2722 15-11-2010 20:15:02 7.8 C 6.04 g/m*3 7.8 C 0 km/h
2723 15-11-2010 20:27:02 7.6 C 5.96 g/m*3 7.6 C 0 km/h
2724 15-11-2010 20:39:02 7.4 C 5.88 g/m*3 7.4 C 0 km/h
2725 15-11-2010 20:51:01 7.5 C 5.92 g/m*3 7.5 C 0 km/h
Sensor: Nr:Datum:Temp:Abs-Feuchte:Windchill:Wind:
Aussen-T/F 2726 15-11-2010 21:03:02 7.3 C 5.93 g/m*3 7.3 C 0 km/h
2727 15-11-2010 21:15:02 7.1 C 5.93 g/m*3 7.1 C 0 km/h
2728 15-11-2010 21:27:02 7.1 C 6.01 g/m*3 7.1 C 0 km/h
2729 15-11-2010 21:39:02 7.1 C 5.93 g/m*3 7.1 C 0 km/h
2730 15-11-2010 21:51:02 7.2 C 5.89 g/m*3 7.2 C 0 km/h
2731 15-11-2010 22:03:02 7.1 C 5.93 g/m*3 7.1 C 0 km/h
2732 15-11-2010 22:15:02 7 C 5.89 g/m*3 7 C 0 km/h
2733 15-11-2010 22:27:02 6.8 C 5.97 g/m*3 6.8 C 0 km/h
2734 15-11-2010 22:39:02 6.8 C 6.04 g/m*3 6.8 C 0 km/h
2735 15-11-2010 22:51:02 7 C 6.04 g/m*3 7 C 0 km/h
2736 15-11-2010 23:03:02 6.8 C 5.97 g/m*3 6.8 C 0 km/h
2737 15-11-2010 23:15:02 6.8 C 6.04 g/m*3 6.8 C 0 km/h
2738 15-11-2010 23:27:02 6.7 C 6 g/m*3 6.7 C 0 km/h
2739 15-11-2010 23:39:01 6.8 C 6.04 g/m*3 6.8 C 0 km/h
2740 15-11-2010 23:51:02 6.3 C 5.92 g/m*3 6.3 C 0 km/h
2741 16-11-2010 00:03:01 6.1 C 5.92 g/m*3 6.1 C 0 km/h
2742 16-11-2010 00:15:02 6 C 5.95 g/m*3 6 C 0 km/h
2743 16-11-2010 00:27:02 6 C 6.02 g/m*3 6 C 0 km/h
2744 16-11-2010 00:39:01 5.7 C 5.91 g/m*3 5.7 C 0 km/h
2745 16-11-2010 00:51:01 5.6 C 5.94 g/m*3 5.6 C 0 km/h
2746 16-11-2010 01:03:01 5.5 C 5.9 g/m*3 5.5 C 0 km/h
2747 16-11-2010 01:15:02 5.4 C 5.93 g/m*3 5.4 C 0 km/h
2748 16-11-2010 01:27:02 5.2 C 5.85 g/m*3 5.2 C 0 km/h
2749 16-11-2010 01:39:01 5 C 5.78 g/m*3 5 C 0 km/h
2750 16-11-2010 01:51:02 4.9 C 5.87 g/m*3 4.9 C 0 km/h
Sensor: Nr:Datum:Temp:Abs-Feuchte:Windchill:Wind:
Aussen-T/F 2751 16-11-2010 02:03:01 5.2 C 5.99 g/m*3 5.2 C 0 km/h
2752 16-11-2010 02:15:01 5.3 C 6.03 g/m*3 5.3 C 0 km/h
2753 16-11-2010 02:27:01 5.4 C 6.07 g/m*3 5.4 C 0 km/h
2754 16-11-2010 02:39:01 5.7 C 6.19 g/m*3 5.7 C 0 km/h
2755 16-11-2010 02:52:04 5.8 C 6.23 g/m*3 5.8 C 0 km/h
2756 16-11-2010 03:04:04 5.9 C 6.27 g/m*3 5.9 C 0 km/h
2757 16-11-2010 03:16:04 6.1 C 6.28 g/m*3 6.1 C 0 km/h
2758 16-11-2010 03:28:04 5.9 C 6.27 g/m*3 5.9 C 0 km/h
2759 16-11-2010 03:40:02 5.8 C 6.16 g/m*3 5.8 C 0 km/h
2760 16-11-2010 03:52:02 5.6 C 6.08 g/m*3 5.6 C 0 km/h
2761 16-11-2010 04:04:02 5.3 C 5.89 g/m*3 5.3 C 0 km/h
2762 16-11-2010 04:16:02 5 C 5.84 g/m*3 5 C 0 km/h
2763 16-11-2010 04:28:02 5.1 C 5.95 g/m*3 5.1 C 0 km/h
2764 16-11-2010 04:40:02 5.2 C 5.99 g/m*3 5.2 C 0 km/h
2765 16-11-2010 04:52:02 5.5 C 6.18 g/m*3 5.5 C 0 km/h
2766 16-11-2010 05:04:01 5.3 C 6.03 g/m*3 5.3 C 0 km/h
2767 16-11-2010 05:16:02 5.2 C 5.99 g/m*3 5.2 C 0 km/h
2768 16-11-2010 05:28:02 5.7 C 6.19 g/m*3 5.7 C 0 km/h
2769 16-11-2010 05:40:02 5.7 C 6.12 g/m*3 5.7 C 0 km/h
2770 16-11-2010 05:52:02 5.6 C 6.01 g/m*3 5.6 C 0 km/h
2771 16-11-2010 06:04:02 5.2 C 5.78 g/m*3 5.2 C 0 km/h
2772 16-11-2010 06:16:02 5.1 C 5.81 g/m*3 5.1 C 0 km/h
2773 16-11-2010 06:28:02 5.2 C 5.85 g/m*3 5.2 C 0 km/h
2774 16-11-2010 06:40:03 5.3 C 5.89 g/m*3 5.3 C 0 km/h
2775 16-11-2010 06:52:02 5.3 C 5.82 g/m*3 5.3 C 0 km/h
Sensor: Nr:Datum:Temp:Abs-Feuchte:Windchill:Wind:
Aussen-T/F 2776 16-11-2010 07:04:01 5.2 C 5.78 g/m*3 5.2 C 0 km/h
2777 16-11-2010 07:16:02 5.2 C 5.78 g/m*3 5.2 C 0 km/h
2778 16-11-2010 07:28:03 5.2 C 5.78 g/m*3 5.2 C 0 km/h
2779 16-11-2010 07:40:01 5.1 C 5.75 g/m*3 5.1 C 0 km/h
2780 16-11-2010 07:52:01 5.2 C 5.85 g/m*3 5.2 C 0 km/h
2781 16-11-2010 08:04:01 5.3 C 5.82 g/m*3 5.3 C 0 km/h
2782 16-11-2010 08:16:02 5.4 C 5.86 g/m*3 5.4 C 0 km/h
2783 16-11-2010 08:28:02 5.4 C 5.79 g/m*3 5.4 C 0 km/h
2784 16-11-2010 08:40:01 5.4 C 5.79 g/m*3 5.4 C 0 km/h
2785 16-11-2010 08:52:03 5.6 C 5.87 g/m*3 5.6 C 0 km/h
2786 16-11-2010 09:04:02 5.7 C 5.84 g/m*3 5.7 C 0 km/h
2787 16-11-2010 09:16:02 5.8 C 5.87 g/m*3 5.8 C 0 km/h
2788 16-11-2010 09:28:02 5.9 C 5.84 g/m*3 5.9 C 0 km/h
2789 16-11-2010 09:40:02 6 C 5.81 g/m*3 6 C 0 km/h
2790 16-11-2010 09:52:02 6 C 5.73 g/m*3 6 C 0 km/h
2791 16-11-2010 10:04:01 5.9 C 5.7 g/m*3 5.9 C 0 km/h
2792 16-11-2010 10:16:02 6.2 C 5.81 g/m*3 6.2 C 0 km/h
2793 16-11-2010 10:28:02 6.2 C 5.74 g/m*3 6.2 C 0 km/h
2794 16-11-2010 10:40:01 6.7 C 5.85 g/m*3 6.7 C 0 km/h
2795 16-11-2010 10:52:02 6.3 C 5.63 g/m*3 6.3 C 0 km/h
2796 16-11-2010 11:04:02 6.4 C 5.66 g/m*3 6.4 C 0 km/h
2797 16-11-2010 11:16:02 6.3 C 5.63 g/m*3 6.3 C 0 km/h
2798 16-11-2010 11:28:02 6.8 C 5.74 g/m*3 6.8 C 0 km/h
2799 16-11-2010 11:40:02 6.4 C 5.51 g/m*3 6.4 C 0 km/h
2800 16-11-2010 11:52:02 6.9 C 5.7 g/m*3 6.9 C 0 km/h
Sensor: Nr:Datum:Temp:Abs-Feuchte:Windchill:Wind:
Aussen-T/F 2801 16-11-2010 12:04:02 7.4 C 5.65 g/m*3 7.4 C 0 km/h
2802 16-11-2010 12:16:01 7.5 C 5.52 g/m*3 7.5 C 0 km/h
2803 16-11-2010 12:28:01 7.4 C 5.49 g/m*3 7.4 C 0 km/h
2804 16-11-2010 12:40:02 7.1 C 5.46 g/m*3 7.1 C 0 km/h
2805 16-11-2010 12:52:02 7.3 C 5.53 g/m*3 7.3 C 0 km/h
2806 16-11-2010 13:04:02 7.4 C 5.57 g/m*3 7.4 C 0 km/h
2807 16-11-2010 13:16:01 7.5 C 5.6 g/m*3 7.5 C 0 km/h
2808 16-11-2010 13:28:01 7.7 C 5.59 g/m*3 7.7 C 0 km/h
2809 16-11-2010 13:40:01 7.3 C 5.45 g/m*3 7.3 C 0 km/h
2810 16-11-2010 13:52:02 7.8 C 5.71 g/m*3 7.8 C 0 km/h
2811 16-11-2010 14:04:01 7.8 C 5.63 g/m*3 7.8 C 0 km/h
2812 16-11-2010 14:16:02 7.6 C 5.56 g/m*3 7.6 C 0 km/h
2813 16-11-2010 14:28:02 7.8 C 5.55 g/m*3 7.8 C 0 km/h
2814 16-11-2010 14:40:02 7.6 C 5.4 g/m*3 7.6 C 0 km/h
2815 16-11-2010 14:52:01 7.6 C 5.48 g/m*3 7.6 C 0 km/h
2816 16-11-2010 15:04:02 7.5 C 5.52 g/m*3 7.5 C 0 km/h
2817 16-11-2010 15:16:03 7.3 C 5.45 g/m*3 7.3 C 0 km/h
2818 16-11-2010 15:28:03 7.2 C 5.49 g/m*3 7.2 C 0 km/h
2819 16-11-2010 15:40:01 7.1 C 5.54 g/m*3 7.1 C 0 km/h
2820 16-11-2010 15:52:01 7.1 C 5.54 g/m*3 7.1 C 0 km/h
2821 16-11-2010 16:04:02 7.1 C 5.54 g/m*3 7.1 C 0 km/h
2822 16-11-2010 16:16:01 7.1 C 5.54 g/m*3 7.1 C 0 km/h
2823 16-11-2010 16:28:01 7.1 C 5.54 g/m*3 7.1 C 0 km/h
2824 16-11-2010 16:40:01 7.1 C 5.54 g/m*3 7.1 C 0 km/h
2825 16-11-2010 16:52:02 7 C 5.5 g/m*3 7 C 0 km/h
Sensor: Nr:Datum:Temp:Abs-Feuchte:Windchill:Wind:
Aussen-T/F 2826 16-11-2010 17:04:02 6.9 C 5.62 g/m*3 6.9 C 0 km/h
2827 16-11-2010 17:16:02 6.9 C 5.7 g/m*3 6.9 C 0 km/h
2828 16-11-2010 17:28:02 6.8 C 5.66 g/m*3 6.8 C 0 km/h
2829 16-11-2010 17:40:02 6.8 C 5.66 g/m*3 6.8 C 0 km/h
2830 16-11-2010 17:52:02 6.6 C 5.59 g/m*3 6.6 C 0 km/h
2831 16-11-2010 18:04:02 6.5 C 5.62 g/m*3 6.5 C 0 km/h
2832 16-11-2010 18:16:02 6 C 5.52 g/m*3 6 C 0 km/h
2833 16-11-2010 18:28:02 6.2 C 5.74 g/m*3 6.2 C 0 km/h
2834 16-11-2010 18:40:02 6.2 C 5.74 g/m*3 6.2 C 0 km/h
2835 16-11-2010 18:52:02 6.2 C 5.74 g/m*3 6.2 C 0 km/h
2836 16-11-2010 19:04:02 6.2 C 5.74 g/m*3 6.2 C 0 km/h
2837 16-11-2010 19:16:02 5.9 C 5.7 g/m*3 5.9 C 0 km/h
2838 16-11-2010 19:28:03 5.9 C 5.77 g/m*3 5.9 C 0 km/h
2839 16-11-2010 19:40:01 5.8 C 5.73 g/m*3 5.8 C 0 km/h
2840 16-11-2010 19:52:02 5.8 C 5.8 g/m*3 5.8 C 0 km/h
2841 16-11-2010 20:04:01 5.7 C 5.76 g/m*3 5.7 C 0 km/h
2842 16-11-2010 20:16:02 5.6 C 5.73 g/m*3 5.6 C 0 km/h
2843 16-11-2010 20:28:03 5.5 C 5.69 g/m*3 5.5 C 0 km/h
2844 16-11-2010 20:40:01 5.5 C 5.69 g/m*3 5.5 C 0 km/h
2845 16-11-2010 20:52:02 5.5 C 5.69 g/m*3 5.5 C 0 km/h
2846 16-11-2010 21:04:01 5.4 C 5.65 g/m*3 5.4 C 0 km/h
2847 16-11-2010 21:16:01 5.5 C 5.69 g/m*3 5.5 C 0 km/h
2848 16-11-2010 21:28:01 5.5 C 5.69 g/m*3 5.5 C 0 km/h
2849 16-11-2010 21:40:02 5.4 C 5.65 g/m*3 5.4 C 0 km/h
2850 16-11-2010 21:52:02 5.3 C 5.61 g/m*3 5.3 C 0 km/h
Sensor: Nr:Datum:Temp:Abs-Feuchte:Windchill:Wind:
Aussen-T/F 2851 16-11-2010 22:04:02 5.2 C 5.58 g/m*3 5.2 C 0 km/h
2852 16-11-2010 22:16:01 5.2 C 5.58 g/m*3 5.2 C 0 km/h
2853 16-11-2010 22:28:01 5.3 C 5.68 g/m*3 5.3 C 0 km/h
2854 16-11-2010 22:41:04 5.3 C 5.61 g/m*3 5.3 C 0 km/h
2855 16-11-2010 22:53:04 5.2 C 5.58 g/m*3 5.2 C 0 km/h
2856 16-11-2010 23:05:04 5.1 C 5.61 g/m*3 5.1 C 0 km/h
2857 16-11-2010 23:17:04 4.4 C 5.42 g/m*3 4.4 C 0 km/h
2858 16-11-2010 23:29:04 4.4 C 5.55 g/m*3 4.4 C 0 km/h
2859 16-11-2010 23:41:04 4.5 C 5.65 g/m*3 4.5 C 0 km/h
2860 16-11-2010 23:53:04 4.6 C 5.69 g/m*3 4.6 C 0 km/h
2861 17-11-2010 00:05:04 4.7 C 5.73 g/m*3 4.7 C 0 km/h
2862 17-11-2010 00:17:04 4.7 C 5.73 g/m*3 4.7 C 0 km/h
2863 17-11-2010 00:29:04 4.7 C 5.73 g/m*3 4.7 C 0 km/h
2864 17-11-2010 00:41:04 4.8 C 5.7 g/m*3 4.8 C 0 km/h
2865 17-11-2010 00:53:04 5 C 5.71 g/m*3 5 C 0 km/h
2866 17-11-2010 01:05:05 5.1 C 5.68 g/m*3 5.1 C 0 km/h
2867 17-11-2010 01:17:05 5 C 5.57 g/m*3 5 C 0 km/h
2868 17-11-2010 01:29:05 5 C 5.57 g/m*3 5 C 0 km/h
2869 17-11-2010 01:41:05 5.1 C 5.61 g/m*3 5.1 C 0 km/h
2870 17-11-2010 01:53:05 5.2 C 5.65 g/m*3 5.2 C 0 km/h
2871 17-11-2010 02:05:05 5.1 C 5.61 g/m*3 5.1 C 0 km/h
2872 17-11-2010 02:17:05 5 C 5.57 g/m*3 5 C 0 km/h
2873 17-11-2010 02:29:05 5 C 5.57 g/m*3 5 C 0 km/h
2874 17-11-2010 02:41:05 5 C 5.57 g/m*3 5 C 0 km/h
2875 17-11-2010 02:53:05 4.9 C 5.6 g/m*3 4.9 C 0 km/h
Sensor: Nr:Datum:Temp:Abs-Feuchte:Windchill:Wind:
Aussen-T/F 2876 17-11-2010 03:05:05 5 C 5.64 g/m*3 5 C 0 km/h
2877 17-11-2010 03:17:05 4.9 C 5.67 g/m*3 4.9 C 0 km/h
2878 17-11-2010 03:29:05 4.9 C 5.67 g/m*3 4.9 C 0 km/h
2879 17-11-2010 03:41:05 4.9 C 5.67 g/m*3 4.9 C 0 km/h
2880 17-11-2010 03:53:05 4.9 C 5.67 g/m*3 4.9 C 0 km/h
2881 17-11-2010 04:05:05 4.9 C 5.67 g/m*3 4.9 C 0 km/h
2882 17-11-2010 04:17:05 4.8 C 5.63 g/m*3 4.8 C 0 km/h
2883 17-11-2010 04:29:05 4.8 C 5.63 g/m*3 4.8 C 0 km/h
2884 17-11-2010 04:41:05 4.7 C 5.6 g/m*3 4.7 C 0 km/h
2885 17-11-2010 04:53:05 4.8 C 5.7 g/m*3 4.8 C 0 km/h
2886 17-11-2010 05:05:06 4.7 C 5.66 g/m*3 4.7 C 0 km/h
2887 17-11-2010 05:17:06 4.7 C 5.66 g/m*3 4.7 C 0 km/h
2888 17-11-2010 05:29:06 4.8 C 5.77 g/m*3 4.8 C 0 km/h
2889 17-11-2010 05:41:06 4.8 C 5.77 g/m*3 4.8 C 0 km/h
2890 17-11-2010 05:53:06 4.7 C 5.73 g/m*3 4.7 C 0 km/h
2891 17-11-2010 06:05:06 4.7 C 5.73 g/m*3 4.7 C 0 km/h
2892 17-11-2010 06:17:06 4.7 C 5.73 g/m*3 4.7 C 0 km/h
2893 17-11-2010 06:29:06 4.7 C 5.73 g/m*3 4.7 C 0 km/h
2894 17-11-2010 06:41:06 4.7 C 5.73 g/m*3 4.7 C 0 km/h
2895 17-11-2010 06:53:02 4.7 C 5.73 g/m*3 4.7 C 0 km/h
2896 17-11-2010 07:05:02 4.7 C 5.73 g/m*3 4.7 C 0 km/h
2897 17-11-2010 07:17:02 4.7 C 5.73 g/m*3 4.7 C 0 km/h
2898 17-11-2010 07:29:02 4.7 C 5.73 g/m*3 4.7 C 0 km/h
2899 17-11-2010 07:41:01 4.7 C 5.66 g/m*3 4.7 C 0 km/h
2900 17-11-2010 07:53:02 4.8 C 5.5 g/m*3 4.8 C 0 km/h
Sensor: Nr:Datum:Temp:Abs-Feuchte:Windchill:Wind:
Aussen-T/F 2901 17-11-2010 08:05:01 4.9 C 5.27 g/m*3 4.9 C 0 km/h
2902 17-11-2010 08:17:01 4.9 C 5.13 g/m*3 4.9 C 0 km/h
2903 17-11-2010 08:29:01 5.1 C 4.92 g/m*3 5.1 C 0 km/h
2904 17-11-2010 08:41:02 5.2 C 4.89 g/m*3 5.2 C 0 km/h
2905 17-11-2010 08:53:02 5.4 C 4.67 g/m*3 5.4 C 0 km/h
2906 17-11-2010 09:05:02 5.5 C 4.64 g/m*3 5.5 C 0 km/h
2907 17-11-2010 09:17:02 5.4 C 4.67 g/m*3 5.4 C 0 km/h
2908 17-11-2010 09:29:02 5.6 C 4.67 g/m*3 5.6 C 0 km/h
2909 17-11-2010 09:41:02 5.6 C 4.6 g/m*3 5.6 C 0 km/h
2910 17-11-2010 09:53:02 5.7 C 4.63 g/m*3 5.7 C 0 km/h
2911 17-11-2010 10:05:02 5.7 C 4.7 g/m*3 5.7 C 0 km/h
2912 17-11-2010 10:17:02 5.7 C 4.63 g/m*3 5.7 C 0 km/h
2913 17-11-2010 10:29:02 5.8 C 4.66 g/m*3 5.8 C 0 km/h
2914 17-11-2010 10:41:02 5.8 C 4.66 g/m*3 5.8 C 0 km/h
2915 17-11-2010 10:53:02 5.9 C 4.69 g/m*3 5.9 C 0 km/h
2916 17-11-2010 11:05:02 6 C 4.57 g/m*3 6 C 0 km/h
2917 17-11-2010 11:17:03 6 C 4.57 g/m*3 6 C 0 km/h
2918 17-11-2010 11:29:03 5.9 C 4.61 g/m*3 5.9 C 0 km/h
2919 17-11-2010 11:41:02 6.1 C 4.6 g/m*3 6.1 C 0 km/h
2920 17-11-2010 11:53:02 6.2 C 4.63 g/m*3 6.2 C 0 km/h
2921 17-11-2010 12:05:02 6.4 C 4.62 g/m*3 6.4 C 0 km/h
2922 17-11-2010 12:17:02 6.3 C 4.52 g/m*3 6.3 C 0 km/h
2923 17-11-2010 12:29:02 6.1 C 4.6 g/m*3 6.1 C 0 km/h
2924 17-11-2010 12:41:02 6.3 C 4.66 g/m*3 6.3 C 0 km/h
2925 17-11-2010 12:53:02 6.3 C 4.59 g/m*3 6.3 C 0 km/h
Sensor: Nr:Datum:Temp:Abs-Feuchte:Windchill:Wind:
Aussen-T/F 2926 17-11-2010 13:05:02 6.3 C 4.66 g/m*3 6.3 C 0 km/h
2927 17-11-2010 13:17:02 6.7 C 4.71 g/m*3 6.7 C 0 km/h
2928 17-11-2010 13:29:02 6.7 C 4.64 g/m*3 6.7 C 0 km/h
2929 17-11-2010 13:41:01 6.5 C 4.57 g/m*3 6.5 C 0 km/h
2930 17-11-2010 13:53:02 6.5 C 4.57 g/m*3 6.5 C 0 km/h
2931 17-11-2010 14:05:01 6.4 C 4.62 g/m*3 6.4 C 0 km/h
2932 17-11-2010 14:17:01 6.3 C 4.59 g/m*3 6.3 C 0 km/h
2933 17-11-2010 14:29:01 6.1 C 4.46 g/m*3 6.1 C 0 km/h
2934 17-11-2010 14:41:02 6.1 C 4.53 g/m*3 6.1 C 0 km/h
2935 17-11-2010 14:53:02 6 C 4.57 g/m*3 6 C 0 km/h
2936 17-11-2010 15:05:02 5.9 C 4.54 g/m*3 5.9 C 0 km/h
2937 17-11-2010 15:17:02 5.9 C 4.61 g/m*3 5.9 C 0 km/h
2938 17-11-2010 15:29:02 5.9 C 4.69 g/m*3 5.9 C 0 km/h
2939 17-11-2010 15:41:02 5.8 C 4.73 g/m*3 5.8 C 0 km/h
2940 17-11-2010 15:53:02 5.8 C 4.8 g/m*3 5.8 C 0 km/h
2941 17-11-2010 16:05:02 5.7 C 4.77 g/m*3 5.7 C 0 km/h
2942 17-11-2010 16:17:02 5.6 C 4.81 g/m*3 5.6 C 0 km/h
2943 17-11-2010 16:29:02 5.5 C 4.78 g/m*3 5.5 C 0 km/h
2944 17-11-2010 16:41:02 5.5 C 4.85 g/m*3 5.5 C 0 km/h
2945 17-11-2010 16:53:01 5.4 C 4.81 g/m*3 5.4 C 0 km/h
2946 17-11-2010 17:05:01 5.4 C 4.88 g/m*3 5.4 C 0 km/h
2947 17-11-2010 17:17:02 5.3 C 4.85 g/m*3 5.3 C 0 km/h
2948 17-11-2010 17:29:02 5.2 C 4.89 g/m*3 5.2 C 0 km/h
2949 17-11-2010 17:41:01 5.2 C 4.96 g/m*3 5.2 C 0 km/h
2950 17-11-2010 17:53:02 5.2 C 4.96 g/m*3 5.2 C 0 km/h
Sensor: Nr:Datum:Temp:Abs-Feuchte:Windchill:Wind:
Aussen-T/F 2951 17-11-2010 18:05:02 5.2 C 4.96 g/m*3 5.2 C 0 km/h
2952 17-11-2010 18:17:03 5.2 C 4.96 g/m*3 5.2 C 0 km/h
2953 17-11-2010 18:29:03 5.2 C 5.03 g/m*3 5.2 C 0 km/h
2954 17-11-2010 18:41:02 5.2 C 4.96 g/m*3 5.2 C 0 km/h
2955 17-11-2010 18:53:01 5.2 C 4.96 g/m*3 5.2 C 0 km/h
2956 17-11-2010 19:05:01 5.3 C 4.99 g/m*3 5.3 C 0 km/h
2957 17-11-2010 19:17:02 5.3 C 4.99 g/m*3 5.3 C 0 km/h
2958 17-11-2010 19:29:02 5.3 C 4.99 g/m*3 5.3 C 0 km/h
2959 17-11-2010 19:41:01 5.3 C 4.99 g/m*3 5.3 C 0 km/h
2960 17-11-2010 19:53:01 5.3 C 4.99 g/m*3 5.3 C 0 km/h
2961 17-11-2010 20:05:01 5.3 C 5.06 g/m*3 5.3 C 0 km/h
2962 17-11-2010 20:17:02 5.3 C 5.13 g/m*3 5.3 C 0 km/h
2963 17-11-2010 20:29:02 5.3 C 5.13 g/m*3 5.3 C 0 km/h
2964 17-11-2010 20:41:56 5.3 C 5.13 g/m*3 5.3 C 0 km/h
2965 17-11-2010 20:53:56 5.3 C 5.13 g/m*3 5.3 C 0 km/h
2966 17-11-2010 21:05:56 5.3 C 5.2 g/m*3 5.3 C 0 km/h
2967 17-11-2010 21:17:02 5.3 C 5.13 g/m*3 5.3 C 0 km/h
2968 17-11-2010 21:29:02 5.3 C 5.2 g/m*3 5.3 C 0 km/h
2969 17-11-2010 21:41:02 5.2 C 5.23 g/m*3 5.2 C 0 km/h
2970 17-11-2010 21:53:01 5.2 C 5.3 g/m*3 5.2 C 0 km/h
2971 17-11-2010 22:05:01 5.2 C 5.3 g/m*3 5.2 C 0 km/h
2972 17-11-2010 22:17:02 5.1 C 5.27 g/m*3 5.1 C 0 km/h
2973 17-11-2010 22:29:02 5.1 C 5.34 g/m*3 5.1 C 0 km/h
2974 17-11-2010 22:42:03 5 C 5.37 g/m*3 5 C 0 km/h
2975 17-11-2010 22:54:03 4.8 C 5.43 g/m*3 4.8 C 0 km/h
Sensor: Nr:Datum:Temp:Abs-Feuchte:Windchill:Wind:
Aussen-T/F 2976 17-11-2010 23:06:03 4.6 C 5.49 g/m*3 4.6 C 0 km/h
2977 17-11-2010 23:18:03 4.5 C 5.52 g/m*3 4.5 C 0 km/h
2978 17-11-2010 23:30:03 4.5 C 5.59 g/m*3 4.5 C 0 km/h
2979 17-11-2010 23:42:03 4.5 C 5.65 g/m*3 4.5 C 0 km/h
2980 17-11-2010 23:54:03 4.5 C 5.65 g/m*3 4.5 C 0 km/h
2981 18-11-2010 00:06:03 4.6 C 5.76 g/m*3 4.6 C 0 km/h
2982 18-11-2010 00:18:03 4.7 C 5.8 g/m*3 4.7 C 0 km/h
2983 18-11-2010 00:30:03 4.6 C 5.76 g/m*3 4.6 C 0 km/h
2984 18-11-2010 00:42:03 4.5 C 5.72 g/m*3 4.5 C 0 km/h
2985 18-11-2010 00:54:03 4.4 C 5.68 g/m*3 4.4 C 0 km/h
2986 18-11-2010 01:06:03 4.3 C 5.71 g/m*3 4.3 C 0 km/h
2987 18-11-2010 01:18:04 4.3 C 5.71 g/m*3 4.3 C 0 km/h
2988 18-11-2010 01:30:04 4.3 C 5.71 g/m*3 4.3 C 0 km/h
2989 18-11-2010 01:42:04 4.3 C 5.71 g/m*3 4.3 C 0 km/h
2990 18-11-2010 01:54:04 4.2 C 5.73 g/m*3 4.2 C 0 km/h
2991 18-11-2010 02:06:04 4.2 C 5.73 g/m*3 4.2 C 0 km/h
2992 18-11-2010 02:18:04 4.3 C 5.77 g/m*3 4.3 C 0 km/h
2993 18-11-2010 02:30:04 4.5 C 5.85 g/m*3 4.5 C 0 km/h
2994 18-11-2010 02:42:04 4.4 C 5.81 g/m*3 4.4 C 0 km/h
2995 18-11-2010 02:54:04 4 C 5.66 g/m*3 4 C 0 km/h
2996 18-11-2010 03:06:04 3.9 C 5.68 g/m*3 3.9 C 0 km/h
2997 18-11-2010 03:18:04 4 C 5.72 g/m*3 4 C 0 km/h
2998 18-11-2010 03:30:04 4 C 5.72 g/m*3 4 C 0 km/h
2999 18-11-2010 03:42:04 4.2 C 5.8 g/m*3 4.2 C 0 km/h
3000 18-11-2010 03:54:04 4.2 C 5.8 g/m*3 4.2 C 0 km/h
Sensor: Nr:Datum:Temp:Abs-Feuchte:Windchill:Wind:
Aussen-T/F 3001 18-11-2010 04:06:04 4.2 C 5.8 g/m*3 4.2 C 0 km/h
3002 18-11-2010 04:18:04 4.3 C 5.9 g/m*3 4.3 C 0 km/h
3003 18-11-2010 04:30:04 4.3 C 5.9 g/m*3 4.3 C 0 km/h
3004 18-11-2010 04:42:04 4.3 C 5.9 g/m*3 4.3 C 0 km/h
3005 18-11-2010 04:54:04 4.3 C 5.9 g/m*3 4.3 C 0 km/h
3006 18-11-2010 05:06:04 4.3 C 5.9 g/m*3 4.3 C 0 km/h
3007 18-11-2010 05:18:05 4.4 C 5.94 g/m*3 4.4 C 0 km/h
3008 18-11-2010 05:30:05 4.3 C 5.9 g/m*3 4.3 C 0 km/h
3009 18-11-2010 05:42:05 4.2 C 5.86 g/m*3 4.2 C 0 km/h
3010 18-11-2010 05:54:05 4.2 C 5.86 g/m*3 4.2 C 0 km/h
3011 18-11-2010 06:06:05 4.2 C 5.86 g/m*3 4.2 C 0 km/h
3012 18-11-2010 06:18:05 3.9 C 5.81 g/m*3 3.9 C 0 km/h
3013 18-11-2010 06:30:05 3.9 C 5.81 g/m*3 3.9 C 0 km/h
3014 18-11-2010 06:42:05 3.8 C 5.77 g/m*3 3.8 C 0 km/h
3015 18-11-2010 06:54:05 3.8 C 5.77 g/m*3 3.8 C 0 km/h
3016 18-11-2010 07:06:05 3.8 C 5.77 g/m*3 3.8 C 0 km/h
3017 18-11-2010 07:18:03 3.9 C 5.81 g/m*3 3.9 C 0 km/h
3018 18-11-2010 07:30:03 4 C 5.85 g/m*3 4 C 0 km/h
3019 18-11-2010 07:42:03 4 C 5.85 g/m*3 4 C 0 km/h
3020 18-11-2010 07:54:02 4.2 C 5.93 g/m*3 4.2 C 0 km/h
3021 18-11-2010 08:06:02 4.1 C 5.89 g/m*3 4.1 C 0 km/h
3022 18-11-2010 08:18:01 4.2 C 5.93 g/m*3 4.2 C 0 km/h
3023 18-11-2010 08:30:01 4.2 C 5.93 g/m*3 4.2 C 0 km/h
3024 18-11-2010 08:42:02 4.2 C 5.93 g/m*3 4.2 C 0 km/h
3025 18-11-2010 08:54:01 4.4 C 6.01 g/m*3 4.4 C 0 km/h
Sensor: Nr:Datum:Temp:Abs-Feuchte:Windchill:Wind:
Aussen-T/F 3026 18-11-2010 09:06:02 4.5 C 6.05 g/m*3 4.5 C 0 km/h
3027 18-11-2010 09:18:01 4.8 C 6.17 g/m*3 4.8 C 0 km/h
3028 18-11-2010 09:30:01 4.8 C 6.17 g/m*3 4.8 C 0 km/h
3029 18-11-2010 09:42:02 5.2 C 6.27 g/m*3 5.2 C 0 km/h
3030 18-11-2010 09:54:01 5.4 C 6.35 g/m*3 5.4 C 0 km/h
3031 18-11-2010 10:06:02 5.4 C 6.28 g/m*3 5.4 C 0 km/h
3032 18-11-2010 10:18:02 5.8 C 6.38 g/m*3 5.8 C 0 km/h
3033 18-11-2010 10:30:02 6 C 6.24 g/m*3 6 C 0 km/h
3034 18-11-2010 10:42:01 6.1 C 6.14 g/m*3 6.1 C 0 km/h
3035 18-11-2010 10:54:02 6.5 C 6.15 g/m*3 6.5 C 0 km/h
3036 18-11-2010 11:06:01 6.5 C 6.07 g/m*3 6.5 C 0 km/h
3037 18-11-2010 11:18:01 6.6 C 5.96 g/m*3 6.6 C 0 km/h
3038 18-11-2010 11:30:02 6.8 C 5.97 g/m*3 6.8 C 0 km/h
3039 18-11-2010 11:42:01 7.2 C 6.04 g/m*3 7.2 C 0 km/h
3040 18-11-2010 11:54:02 7.4 C 6.04 g/m*3 7.4 C 0 km/h
3041 18-11-2010 12:06:01 7.4 C 6.04 g/m*3 7.4 C 0 km/h
3042 18-11-2010 12:18:02 7.6 C 6.04 g/m*3 7.6 C 0 km/h
3043 18-11-2010 12:30:02 7.6 C 5.96 g/m*3 7.6 C 0 km/h
3044 18-11-2010 12:42:02 7.4 C 5.73 g/m*3 7.4 C 0 km/h
3045 18-11-2010 12:54:01 7.7 C 5.84 g/m*3 7.7 C 0 km/h
3046 18-11-2010 13:06:01 8 C 5.7 g/m*3 8 C 0 km/h
3047 18-11-2010 13:18:01 8.5 C 5.81 g/m*3 8.5 C 0 km/h
3048 18-11-2010 13:30:01 8.4 C 5.6 g/m*3 8.4 C 0 km/h
3049 18-11-2010 13:42:02 8.3 C 5.65 g/m*3 8.3 C 0 km/h
3050 18-11-2010 13:54:02 8.6 C 5.76 g/m*3 8.6 C 0 km/h
Sensor: Nr:Datum:Temp:Abs-Feuchte:Windchill:Wind:
Aussen-T/F 3051 18-11-2010 14:06:02 8.5 C 5.46 g/m*3 8.5 C 0 km/h
3052 18-11-2010 14:18:01 8.2 C 5.28 g/m*3 8.2 C 0 km/h
3053 18-11-2010 14:30:01 8 C 5.37 g/m*3 8 C 0 km/h
3054 18-11-2010 14:42:02 8 C 5.29 g/m*3 8 C 0 km/h
3055 18-11-2010 14:54:02 8 C 5.21 g/m*3 8 C 0 km/h
3056 18-11-2010 15:06:02 7.8 C 5.3 g/m*3 7.8 C 0 km/h
3057 18-11-2010 15:18:01 7.9 C 5.34 g/m*3 7.9 C 0 km/h
3058 18-11-2010 15:30:01 7.8 C 5.39 g/m*3 7.8 C 0 km/h
3059 18-11-2010 15:42:02 7.7 C 5.43 g/m*3 7.7 C 0 km/h
3060 18-11-2010 15:54:01 7.6 C 5.48 g/m*3 7.6 C 0 km/h
3061 18-11-2010 16:06:02 7.3 C 5.61 g/m*3 7.3 C 0 km/h
3062 18-11-2010 16:18:02 7.1 C 5.77 g/m*3 7.1 C 0 km/h
3063 18-11-2010 16:30:02 6.9 C 5.93 g/m*3 6.9 C 0 km/h
3064 18-11-2010 16:42:01 6.8 C 5.89 g/m*3 6.8 C 0 km/h
3065 18-11-2010 16:54:02 6.4 C 5.66 g/m*3 6.4 C 0 km/h
3066 18-11-2010 17:06:01 6 C 5.66 g/m*3 6 C 0 km/h
3067 18-11-2010 17:18:02 6.1 C 5.84 g/m*3 6.1 C 0 km/h
3068 18-11-2010 17:30:02 6.1 C 5.92 g/m*3 6.1 C 0 km/h
3069 18-11-2010 17:42:01 6.2 C 5.96 g/m*3 6.2 C 0 km/h
3070 18-11-2010 17:54:02 6.2 C 5.96 g/m*3 6.2 C 0 km/h
3071 18-11-2010 18:06:02 6.2 C 5.96 g/m*3 6.2 C 0 km/h
3072 18-11-2010 18:18:02 6.2 C 6.03 g/m*3 6.2 C 0 km/h
3073 18-11-2010 18:30:02 6.2 C 6.03 g/m*3 6.2 C 0 km/h
3074 18-11-2010 18:42:02 6.2 C 6.03 g/m*3 6.2 C 0 km/h
3075 18-11-2010 18:54:02 6.2 C 6.03 g/m*3 6.2 C 0 km/h
Sensor: Nr:Datum:Temp:Abs-Feuchte:Windchill:Wind:
Aussen-T/F 3076 18-11-2010 19:06:01 6.3 C 6.07 g/m*3 6.3 C 0 km/h
3077 18-11-2010 19:18:02 6.2 C 5.88 g/m*3 6.2 C 0 km/h
3078 18-11-2010 19:30:02 5.8 C 5.95 g/m*3 5.8 C 0 km/h
3079 18-11-2010 19:42:02 5.7 C 6.05 g/m*3 5.7 C 0 km/h
3080 18-11-2010 19:54:02 5.7 C 6.12 g/m*3 5.7 C 0 km/h
3081 18-11-2010 20:06:02 5.6 C 6.15 g/m*3 5.6 C 0 km/h
3082 18-11-2010 20:18:02 5.6 C 6.22 g/m*3 5.6 C 0 km/h
3083 18-11-2010 20:30:02 5.6 C 6.22 g/m*3 5.6 C 0 km/h
3084 18-11-2010 20:42:02 5.6 C 6.29 g/m*3 5.6 C 0 km/h
3085 18-11-2010 20:54:01 5.5 C 6.25 g/m*3 5.5 C 0 km/h
3086 18-11-2010 21:06:02 5.5 C 6.25 g/m*3 5.5 C 0 km/h
3087 18-11-2010 21:18:01 5.5 C 6.25 g/m*3 5.5 C 0 km/h
3088 18-11-2010 21:30:01 5.5 C 6.25 g/m*3 5.5 C 0 km/h
3089 18-11-2010 21:42:01 5.5 C 6.25 g/m*3 5.5 C 0 km/h
3090 18-11-2010 21:54:01 5.6 C 6.36 g/m*3 5.6 C 0 km/h
3091 18-11-2010 22:06:01 5.5 C 6.32 g/m*3 5.5 C 0 km/h
3092 18-11-2010 22:18:02 5.5 C 6.32 g/m*3 5.5 C 0 km/h
3093 18-11-2010 22:30:02 5.5 C 6.32 g/m*3 5.5 C 0 km/h
3094 18-11-2010 22:42:01 5.5 C 6.32 g/m*3 5.5 C 0 km/h
3095 18-11-2010 22:55:03 5.5 C 6.32 g/m*3 5.5 C 0 km/h
3096 18-11-2010 23:07:03 5.6 C 6.43 g/m*3 5.6 C 0 km/h
3097 18-11-2010 23:19:03 5.6 C 6.43 g/m*3 5.6 C 0 km/h
3098 18-11-2010 23:31:03 5.7 C 6.48 g/m*3 5.7 C 0 km/h
3099 18-11-2010 23:43:03 5.7 C 6.4 g/m*3 5.7 C 0 km/h
3100 18-11-2010 23:55:04 5.6 C 6.36 g/m*3 5.6 C 0 km/h
Sensor: Nr:Datum:Temp:Abs-Feuchte:Windchill:Wind:
Aussen-T/F 3101 19-11-2010 00:07:04 5.5 C 6.32 g/m*3 5.5 C 0 km/h
3102 19-11-2010 00:19:04 5.6 C 6.29 g/m*3 5.6 C 0 km/h
3103 19-11-2010 00:31:04 5.7 C 6.26 g/m*3 5.7 C 0 km/h
3104 19-11-2010 00:43:04 5.7 C 6.26 g/m*3 5.7 C 0 km/h
3105 19-11-2010 00:55:04 5.8 C 6.16 g/m*3 5.8 C 0 km/h
3106 19-11-2010 01:07:04 5.8 C 6.09 g/m*3 5.8 C 0 km/h
3107 19-11-2010 01:19:04 5.6 C 6.01 g/m*3 5.6 C 0 km/h
3108 19-11-2010 01:31:04 5.5 C 6.11 g/m*3 5.5 C 0 km/h
3109 19-11-2010 01:43:04 5.5 C 6.18 g/m*3 5.5 C 0 km/h
3110 19-11-2010 01:55:04 5.5 C 6.18 g/m*3 5.5 C 0 km/h
3111 19-11-2010 02:07:04 5.4 C 6.14 g/m*3 5.4 C 0 km/h
3112 19-11-2010 02:19:04 5.4 C 6.21 g/m*3 5.4 C 0 km/h
3113 19-11-2010 02:31:04 5.3 C 6.17 g/m*3 5.3 C 0 km/h
3114 19-11-2010 02:43:04 5.3 C 6.17 g/m*3 5.3 C 0 km/h
3115 19-11-2010 02:55:04 5.3 C 6.17 g/m*3 5.3 C 0 km/h
3116 19-11-2010 03:07:04 5.2 C 6.06 g/m*3 5.2 C 0 km/h
3117 19-11-2010 03:19:04 5.2 C 6.13 g/m*3 5.2 C 0 km/h
3118 19-11-2010 03:31:04 5.1 C 6.09 g/m*3 5.1 C 0 km/h
3119 19-11-2010 03:43:04 5.1 C 6.09 g/m*3 5.1 C 0 km/h
3120 19-11-2010 03:55:04 5 C 6.05 g/m*3 5 C 0 km/h
3121 19-11-2010 04:07:05 5 C 6.05 g/m*3 5 C 0 km/h
3122 19-11-2010 04:19:05 5 C 6.05 g/m*3 5 C 0 km/h
3123 19-11-2010 04:31:05 5.1 C 6.09 g/m*3 5.1 C 0 km/h
3124 19-11-2010 04:43:05 5.1 C 6.09 g/m*3 5.1 C 0 km/h
3125 19-11-2010 04:55:05 5 C 5.98 g/m*3 5 C 0 km/h
Sensor: Nr:Datum:Temp:Abs-Feuchte:Windchill:Wind:
Aussen-T/F 3126 19-11-2010 05:07:05 4.9 C 6.01 g/m*3 4.9 C 0 km/h
3127 19-11-2010 05:19:05 4.9 C 6.01 g/m*3 4.9 C 0 km/h
3128 19-11-2010 05:31:05 4.9 C 6.08 g/m*3 4.9 C 0 km/h
3129 19-11-2010 05:43:05 5 C 6.05 g/m*3 5 C 0 km/h
3130 19-11-2010 05:55:05 5 C 6.05 g/m*3 5 C 0 km/h
3131 19-11-2010 06:07:05 4.9 C 6.01 g/m*3 4.9 C 0 km/h
3132 19-11-2010 06:19:05 4.8 C 5.97 g/m*3 4.8 C 0 km/h
3133 19-11-2010 06:31:05 4.8 C 6.04 g/m*3 4.8 C 0 km/h
3134 19-11-2010 06:43:05 5 C 6.05 g/m*3 5 C 0 km/h
3135 19-11-2010 06:55:02 5 C 6.05 g/m*3 5 C 0 km/h
3136 19-11-2010 07:07:02 5.1 C 6.09 g/m*3 5.1 C 0 km/h
3137 19-11-2010 07:19:02 5.2 C 6.13 g/m*3 5.2 C 0 km/h
3138 19-11-2010 07:31:02 5.2 C 6.13 g/m*3 5.2 C 0 km/h
3139 19-11-2010 07:43:02 5.1 C 6.09 g/m*3 5.1 C 0 km/h
3140 19-11-2010 07:55:02 5.1 C 6.09 g/m*3 5.1 C 0 km/h
3141 19-11-2010 08:07:01 5.2 C 6.13 g/m*3 5.2 C 0 km/h
3142 19-11-2010 08:19:02 5.3 C 6.17 g/m*3 5.3 C 0 km/h
3143 19-11-2010 08:31:02 5.4 C 6.21 g/m*3 5.4 C 0 km/h
3144 19-11-2010 08:43:02 5.5 C 6.25 g/m*3 5.5 C 0 km/h
3145 19-11-2010 08:55:02 5.8 C 6.38 g/m*3 5.8 C 0 km/h
3146 19-11-2010 09:07:02 6 C 6.31 g/m*3 6 C 0 km/h
3147 19-11-2010 09:19:02 6.2 C 6.32 g/m*3 6.2 C 0 km/h
3148 19-11-2010 09:31:03 6.4 C 6.33 g/m*3 6.4 C 0 km/h
3149 19-11-2010 09:43:03 6.4 C 6.18 g/m*3 6.4 C 0 km/h
3150 19-11-2010 09:55:02 6.6 C 6.11 g/m*3 6.6 C 0 km/h
Sensor: Nr:Datum:Temp:Abs-Feuchte:Windchill:Wind:
Aussen-T/F 3151 19-11-2010 10:07:02 6.9 C 6.24 g/m*3 6.9 C 0 km/h
3152 19-11-2010 10:19:01 7.1 C 6.16 g/m*3 7.1 C 0 km/h
3153 19-11-2010 10:31:02 7.6 C 6.28 g/m*3 7.6 C 0 km/h
3154 19-11-2010 10:43:03 7.9 C 6.32 g/m*3 7.9 C 0 km/h
3155 19-11-2010 10:55:02 8.6 C 6.36 g/m*3 8.6 C 0 km/h
3156 19-11-2010 11:07:02 8.7 C 6.23 g/m*3 8.7 C 0 km/h
3157 19-11-2010 11:19:02 8.9 C 6.13 g/m*3 8.9 C 0 km/h
3158 19-11-2010 11:31:02 8.8 C 6.01 g/m*3 8.8 C 0 km/h
3159 19-11-2010 11:43:02 8.8 C 6.01 g/m*3 8.8 C 0 km/h
3160 19-11-2010 11:55:02 9 C 5.91 g/m*3 9 C 0 km/h
3161 19-11-2010 12:07:02 9.2 C 5.98 g/m*3 9.2 C 0 km/h
3162 19-11-2010 12:19:03 9.5 C 5.92 g/m*3 9.5 C 0 km/h
3163 19-11-2010 12:31:02 9.5 C 5.83 g/m*3 9.5 C 0 km/h
3164 19-11-2010 12:43:02 9.4 C 5.79 g/m*3 9.4 C 0 km/h
3165 19-11-2010 12:55:02 10 C 5.73 g/m*3 10 C 0 km/h
3166 19-11-2010 13:07:02 10.2 C 5.8 g/m*3 10.2 C 0 km/h
3167 19-11-2010 13:19:02 9.7 C 5.81 g/m*3 9.7 C 0 km/h
3168 19-11-2010 13:31:02 9.5 C 5.83 g/m*3 9.5 C 0 km/h
3169 19-11-2010 13:43:02 9.5 C 5.92 g/m*3 9.5 C 0 km/h
3170 19-11-2010 13:55:02 9.8 C 5.75 g/m*3 9.8 C 0 km/h
3171 19-11-2010 14:07:01 10.2 C 5.61 g/m*3 10.2 C 0 km/h
3172 19-11-2010 14:19:02 10.1 C 5.67 g/m*3 10.1 C 0 km/h
3173 19-11-2010 14:31:02 9.9 C 5.7 g/m*3 9.9 C 0 km/h
3174 19-11-2010 14:43:02 9.8 C 5.75 g/m*3 9.8 C 0 km/h
3175 19-11-2010 14:55:01 9.7 C 5.72 g/m*3 9.7 C 0 km/h
Sensor: Nr:Datum:Temp:Abs-Feuchte:Windchill:Wind:
Aussen-T/F 3176 19-11-2010 15:07:01 9.7 C 5.81 g/m*3 9.7 C 0 km/h
3177 19-11-2010 15:19:01 9.2 C 5.8 g/m*3 9.2 C 0 km/h
3178 19-11-2010 15:31:02 8.6 C 5.84 g/m*3 8.6 C 0 km/h
3179 19-11-2010 15:43:02 7.7 C 6 g/m*3 7.7 C 0 km/h
3180 19-11-2010 15:55:02 7.3 C 6.08 g/m*3 7.3 C 0 km/h
3181 19-11-2010 16:07:02 6.9 C 6.08 g/m*3 6.9 C 0 km/h
3182 19-11-2010 16:19:01 6.8 C 6.12 g/m*3 6.8 C 0 km/h
3183 19-11-2010 16:31:02 6.8 C 6.19 g/m*3 6.8 C 0 km/h
3184 19-11-2010 16:43:02 7.2 C 6.36 g/m*3 7.2 C 0 km/h
3185 19-11-2010 16:55:02 7.5 C 6.4 g/m*3 7.5 C 0 km/h
3186 19-11-2010 17:07:02 7.6 C 6.28 g/m*3 7.6 C 0 km/h
3187 19-11-2010 17:19:01 7.6 C 6.28 g/m*3 7.6 C 0 km/h
3188 19-11-2010 17:31:02 7.7 C 6.32 g/m*3 7.7 C 0 km/h
3189 19-11-2010 17:43:02 7.5 C 6.32 g/m*3 7.5 C 0 km/h
3190 19-11-2010 17:55:02 7.5 C 6.32 g/m*3 7.5 C 0 km/h
3191 19-11-2010 18:07:02 7.5 C 6.4 g/m*3 7.5 C 0 km/h
3192 19-11-2010 18:19:02 7.6 C 6.36 g/m*3 7.6 C 0 km/h
3193 19-11-2010 18:31:02 7.7 C 6.32 g/m*3 7.7 C 0 km/h
3194 19-11-2010 18:43:02 7.8 C 6.28 g/m*3 7.8 C 0 km/h
3195 19-11-2010 18:55:02 7.5 C 6.24 g/m*3 7.5 C 0 km/h
3196 19-11-2010 19:07:02 7.5 C 6.32 g/m*3 7.5 C 0 km/h
3197 19-11-2010 19:19:02 7.3 C 6.24 g/m*3 7.3 C 0 km/h
3198 19-11-2010 19:31:01 7 C 6.2 g/m*3 7 C 0 km/h
3199 19-11-2010 19:43:01 6.7 C 6.23 g/m*3 6.7 C 0 km/h
3200 19-11-2010 19:55:02 6.3 C 6.14 g/m*3 6.3 C 0 km/h
Sensor: Nr:Datum:Temp:Abs-Feuchte:Windchill:Wind:
Aussen-T/F 3201 19-11-2010 20:07:01 5.9 C 6.13 g/m*3 5.9 C 0 km/h
3202 19-11-2010 20:19:02 5.4 C 6 g/m*3 5.4 C 0 km/h
3203 19-11-2010 20:31:01 5 C 5.84 g/m*3 5 C 0 km/h
3204 19-11-2010 20:43:01 4.6 C 5.76 g/m*3 4.6 C 0 km/h
3205 19-11-2010 20:55:01 4.6 C 5.82 g/m*3 4.6 C 0 km/h
3206 19-11-2010 21:07:02 4.1 C 5.63 g/m*3 4.1 C 0 km/h
3207 19-11-2010 21:19:02 3.9 C 5.62 g/m*3 3.9 C 0 km/h
3208 19-11-2010 21:31:01 4 C 5.66 g/m*3 4 C 0 km/h
3209 19-11-2010 21:43:01 3.8 C 5.65 g/m*3 3.8 C 0 km/h
3210 19-11-2010 21:55:01 3.5 C 5.53 g/m*3 3.5 C 0 km/h
3211 19-11-2010 22:07:01 3.4 C 5.5 g/m*3 3.4 C 0 km/h
3212 19-11-2010 22:19:01 3.4 C 5.56 g/m*3 3.4 C 0 km/h
3213 19-11-2010 22:31:01 4.4 C 5.94 g/m*3 4.4 C 0 km/h
3214 19-11-2010 22:43:01 4.3 C 5.9 g/m*3 4.3 C 0 km/h
3215 19-11-2010 22:55:01 4.1 C 5.82 g/m*3 4.1 C 0 km/h
3216 19-11-2010 23:07:01 4 C 5.79 g/m*3 4 C 0 km/h
3217 19-11-2010 23:19:02 4.3 C 5.9 g/m*3 4.3 C 0 km/h
3218 19-11-2010 23:32:02 4.6 C 6.09 g/m*3 4.6 C 0 km/h
3219 19-11-2010 23:44:02 4.8 C 6.17 g/m*3 4.8 C 0 km/h
3220 19-11-2010 23:56:02 5 C 6.18 g/m*3 5 C 0 km/h
3221 20-11-2010 00:08:02 4.7 C 6.13 g/m*3 4.7 C 0 km/h
3222 20-11-2010 00:20:02 3.9 C 5.81 g/m*3 3.9 C 0 km/h
3223 20-11-2010 00:32:02 3.2 C 5.54 g/m*3 3.2 C 0 km/h
3224 20-11-2010 00:44:02 3.8 C 5.77 g/m*3 3.8 C 0 km/h
3225 20-11-2010 00:56:02 4.6 C 6.09 g/m*3 4.6 C 0 km/h
Sensor: Nr:Datum:Temp:Abs-Feuchte:Windchill:Wind:
Aussen-T/F 3226 20-11-2010 01:08:02 4.6 C 6.09 g/m*3 4.6 C 0 km/h
3227 20-11-2010 01:20:02 4.9 C 6.21 g/m*3 4.9 C 0 km/h
3228 20-11-2010 01:32:02 4.6 C 6.09 g/m*3 4.6 C 0 km/h
3229 20-11-2010 01:44:02 3.7 C 5.73 g/m*3 3.7 C 0 km/h
3230 20-11-2010 01:56:03 3.1 C 5.51 g/m*3 3.1 C 0 km/h
3231 20-11-2010 02:08:03 2.4 C 5.25 g/m*3 2.4 C 0 km/h
3232 20-11-2010 02:20:03 2.1 C 5.15 g/m*3 2.1 C 0 km/h
3233 20-11-2010 02:32:03 1.7 C 5.06 g/m*3 1.7 C 0 km/h
3234 20-11-2010 02:44:03 2 C 5.11 g/m*3 2 C 0 km/h
3235 20-11-2010 02:56:03 1.5 C 4.99 g/m*3 1.5 C 0 km/h
3236 20-11-2010 03:08:03 1.4 C 4.96 g/m*3 1.4 C 0 km/h
3237 20-11-2010 03:20:03 1.2 C 4.84 g/m*3 1.2 C 0 km/h
3238 20-11-2010 03:32:03 1.1 C 4.81 g/m*3 1.1 C 0 km/h
3239 20-11-2010 03:44:03 1.3 C 4.87 g/m*3 1.3 C 0 km/h
3240 20-11-2010 03:56:03 1.7 C 5.06 g/m*3 1.7 C 0 km/h
3241 20-11-2010 04:08:03 2.1 C 5.15 g/m*3 2.1 C 0 km/h
3242 20-11-2010 04:20:03 2.5 C 5.35 g/m*3 2.5 C 0 km/h
3243 20-11-2010 04:32:03 2.8 C 5.46 g/m*3 2.8 C 0 km/h
3244 20-11-2010 04:44:03 2.8 C 5.46 g/m*3 2.8 C 0 km/h
3245 20-11-2010 04:56:03 3 C 5.47 g/m*3 3 C 0 km/h